<?xml version="1.0" encoding="UTF-8" standalone="no" ?>
<gpx xmlns="http://www.topografix.com/GPX/1/1" xmlns:xsi="http://www.w3.org/2001/XMLSchema-instance" xsi:schemaLocation="http://www.topografix.com/GPX/1/1 http://www.topografix.com/GPX/1/1/gpx.xsd" version="1.1" creator="VisuGPX - https://www.visugpx.com">
  <metadata>
    <name>Circuit de Montsoreau</name>
    <desc><![CDATA[Sentier balisé en bleu. Variante sur la fin pour repasser par le GR]]></desc>
  </metadata>
  <trk>
    <name><![CDATA[10/02/2012 14:14]]></name>
    <desc><![CDATA[]]></desc>
    <trkseg>
      <trkpt lat="47.2168" lon="0.0566">
        <ele>74</ele>
        <time>2012-02-11T13:14:57Z</time>
      </trkpt>
      <trkpt lat="47.2168" lon="0.0566">
        <ele>74</ele>
        <time>2012-02-11T13:14:57Z</time>
      </trkpt>
      <trkpt lat="47.2168" lon="0.0566">
        <ele>74</ele>
        <time>2012-02-11T13:15:05Z</time>
      </trkpt>
      <trkpt lat="47.21685" lon="0.05662">
        <ele>76</ele>
        <time>2012-02-11T13:15:31Z</time>
      </trkpt>
      <trkpt lat="47.21689" lon="0.05659">
        <ele>77</ele>
        <time>2012-02-11T13:15:46Z</time>
      </trkpt>
      <trkpt lat="47.2169" lon="0.05651">
        <ele>78</ele>
        <time>2012-02-11T13:15:51Z</time>
      </trkpt>
      <trkpt lat="47.21694" lon="0.05647">
        <ele>78</ele>
        <time>2012-02-11T13:15:58Z</time>
      </trkpt>
      <trkpt lat="47.21698" lon="0.0565">
        <ele>79</ele>
        <time>2012-02-11T13:16:06Z</time>
      </trkpt>
      <trkpt lat="47.21703" lon="0.05652">
        <ele>79</ele>
        <time>2012-02-11T13:16:12Z</time>
      </trkpt>
      <trkpt lat="47.21708" lon="0.05653">
        <ele>79</ele>
        <time>2012-02-11T13:16:17Z</time>
      </trkpt>
      <trkpt lat="47.21713" lon="0.05653">
        <ele>79</ele>
        <time>2012-02-11T13:16:21Z</time>
      </trkpt>
      <trkpt lat="47.21717" lon="0.05652">
        <ele>79</ele>
        <time>2012-02-11T13:16:25Z</time>
      </trkpt>
      <trkpt lat="47.21722" lon="0.0565">
        <ele>79</ele>
        <time>2012-02-11T13:16:30Z</time>
      </trkpt>
      <trkpt lat="47.21726" lon="0.05646">
        <ele>79</ele>
        <time>2012-02-11T13:16:35Z</time>
      </trkpt>
      <trkpt lat="47.2173" lon="0.05641">
        <ele>79</ele>
        <time>2012-02-11T13:16:40Z</time>
      </trkpt>
      <trkpt lat="47.21732" lon="0.05635">
        <ele>79</ele>
        <time>2012-02-11T13:16:45Z</time>
      </trkpt>
      <trkpt lat="47.21735" lon="0.0563">
        <ele>79</ele>
        <time>2012-02-11T13:16:50Z</time>
      </trkpt>
      <trkpt lat="47.21738" lon="0.05624">
        <ele>79</ele>
        <time>2012-02-11T13:16:55Z</time>
      </trkpt>
      <trkpt lat="47.2174" lon="0.05617">
        <ele>80</ele>
        <time>2012-02-11T13:17:00Z</time>
      </trkpt>
      <trkpt lat="47.21742" lon="0.0561">
        <ele>80</ele>
        <time>2012-02-11T13:17:05Z</time>
      </trkpt>
      <trkpt lat="47.21744" lon="0.05602">
        <ele>80</ele>
        <time>2012-02-11T13:17:10Z</time>
      </trkpt>
      <trkpt lat="47.21747" lon="0.05596">
        <ele>80</ele>
        <time>2012-02-11T13:17:15Z</time>
      </trkpt>
      <trkpt lat="47.21749" lon="0.0559">
        <ele>80</ele>
        <time>2012-02-11T13:17:20Z</time>
      </trkpt>
      <trkpt lat="47.21753" lon="0.05584">
        <ele>80</ele>
        <time>2012-02-11T13:17:25Z</time>
      </trkpt>
      <trkpt lat="47.21756" lon="0.05578">
        <ele>80</ele>
        <time>2012-02-11T13:17:30Z</time>
      </trkpt>
      <trkpt lat="47.21759" lon="0.05573">
        <ele>80</ele>
        <time>2012-02-11T13:17:35Z</time>
      </trkpt>
      <trkpt lat="47.21763" lon="0.05569">
        <ele>80</ele>
        <time>2012-02-11T13:17:40Z</time>
      </trkpt>
      <trkpt lat="47.21767" lon="0.05565">
        <ele>79</ele>
        <time>2012-02-11T13:17:46Z</time>
      </trkpt>
      <trkpt lat="47.21771" lon="0.05562">
        <ele>79</ele>
        <time>2012-02-11T13:17:51Z</time>
      </trkpt>
      <trkpt lat="47.21776" lon="0.05559">
        <ele>79</ele>
        <time>2012-02-11T13:17:56Z</time>
      </trkpt>
      <trkpt lat="47.21781" lon="0.05556">
        <ele>79</ele>
        <time>2012-02-11T13:18:01Z</time>
      </trkpt>
      <trkpt lat="47.21785" lon="0.05553">
        <ele>79</ele>
        <time>2012-02-11T13:18:05Z</time>
      </trkpt>
      <trkpt lat="47.21789" lon="0.05548">
        <ele>79</ele>
        <time>2012-02-11T13:18:09Z</time>
      </trkpt>
      <trkpt lat="47.21792" lon="0.05544">
        <ele>79</ele>
        <time>2012-02-11T13:18:13Z</time>
      </trkpt>
      <trkpt lat="47.21796" lon="0.05539">
        <ele>79</ele>
        <time>2012-02-11T13:18:17Z</time>
      </trkpt>
      <trkpt lat="47.21799" lon="0.05533">
        <ele>79</ele>
        <time>2012-02-11T13:18:22Z</time>
      </trkpt>
      <trkpt lat="47.21802" lon="0.05526">
        <ele>79</ele>
        <time>2012-02-11T13:18:27Z</time>
      </trkpt>
      <trkpt lat="47.21805" lon="0.05519">
        <ele>79</ele>
        <time>2012-02-11T13:18:32Z</time>
      </trkpt>
      <trkpt lat="47.21808" lon="0.05512">
        <ele>79</ele>
        <time>2012-02-11T13:18:37Z</time>
      </trkpt>
      <trkpt lat="47.2181" lon="0.05506">
        <ele>79</ele>
        <time>2012-02-11T13:18:42Z</time>
      </trkpt>
      <trkpt lat="47.21813" lon="0.055">
        <ele>79</ele>
        <time>2012-02-11T13:18:47Z</time>
      </trkpt>
      <trkpt lat="47.21815" lon="0.05494">
        <ele>79</ele>
        <time>2012-02-11T13:18:52Z</time>
      </trkpt>
      <trkpt lat="47.21818" lon="0.05489">
        <ele>79</ele>
        <time>2012-02-11T13:18:57Z</time>
      </trkpt>
      <trkpt lat="47.21821" lon="0.05483">
        <ele>79</ele>
        <time>2012-02-11T13:19:02Z</time>
      </trkpt>
      <trkpt lat="47.21825" lon="0.05477">
        <ele>79</ele>
        <time>2012-02-11T13:19:07Z</time>
      </trkpt>
      <trkpt lat="47.21828" lon="0.0547">
        <ele>79</ele>
        <time>2012-02-11T13:19:12Z</time>
      </trkpt>
      <trkpt lat="47.21828" lon="0.05463">
        <ele>79</ele>
        <time>2012-02-11T13:19:16Z</time>
      </trkpt>
      <trkpt lat="47.21829" lon="0.05456">
        <ele>79</ele>
        <time>2012-02-11T13:19:20Z</time>
      </trkpt>
      <trkpt lat="47.21831" lon="0.05448">
        <ele>79</ele>
        <time>2012-02-11T13:19:24Z</time>
      </trkpt>
      <trkpt lat="47.21834" lon="0.05442">
        <ele>79</ele>
        <time>2012-02-11T13:19:28Z</time>
      </trkpt>
      <trkpt lat="47.21836" lon="0.05435">
        <ele>79</ele>
        <time>2012-02-11T13:19:32Z</time>
      </trkpt>
      <trkpt lat="47.21839" lon="0.05428">
        <ele>79</ele>
        <time>2012-02-11T13:19:36Z</time>
      </trkpt>
      <trkpt lat="47.21841" lon="0.05421">
        <ele>79</ele>
        <time>2012-02-11T13:19:40Z</time>
      </trkpt>
      <trkpt lat="47.21843" lon="0.05415">
        <ele>79</ele>
        <time>2012-02-11T13:19:44Z</time>
      </trkpt>
      <trkpt lat="47.21845" lon="0.05409">
        <ele>79</ele>
        <time>2012-02-11T13:19:48Z</time>
      </trkpt>
      <trkpt lat="47.21848" lon="0.05403">
        <ele>80</ele>
        <time>2012-02-11T13:19:53Z</time>
      </trkpt>
      <trkpt lat="47.21851" lon="0.05397">
        <ele>80</ele>
        <time>2012-02-11T13:19:58Z</time>
      </trkpt>
      <trkpt lat="47.21853" lon="0.05391">
        <ele>80</ele>
        <time>2012-02-11T13:20:02Z</time>
      </trkpt>
      <trkpt lat="47.21855" lon="0.05384">
        <ele>80</ele>
        <time>2012-02-11T13:20:06Z</time>
      </trkpt>
      <trkpt lat="47.21857" lon="0.05377">
        <ele>80</ele>
        <time>2012-02-11T13:20:10Z</time>
      </trkpt>
      <trkpt lat="47.21859" lon="0.05371">
        <ele>80</ele>
        <time>2012-02-11T13:20:14Z</time>
      </trkpt>
      <trkpt lat="47.21861" lon="0.05364">
        <ele>80</ele>
        <time>2012-02-11T13:20:18Z</time>
      </trkpt>
      <trkpt lat="47.21864" lon="0.05358">
        <ele>80</ele>
        <time>2012-02-11T13:20:22Z</time>
      </trkpt>
      <trkpt lat="47.21866" lon="0.05351">
        <ele>80</ele>
        <time>2012-02-11T13:20:26Z</time>
      </trkpt>
      <trkpt lat="47.21868" lon="0.05344">
        <ele>80</ele>
        <time>2012-02-11T13:20:30Z</time>
      </trkpt>
      <trkpt lat="47.21871" lon="0.05338">
        <ele>80</ele>
        <time>2012-02-11T13:20:34Z</time>
      </trkpt>
      <trkpt lat="47.21873" lon="0.05332">
        <ele>80</ele>
        <time>2012-02-11T13:20:38Z</time>
      </trkpt>
      <trkpt lat="47.21876" lon="0.05326">
        <ele>80</ele>
        <time>2012-02-11T13:20:42Z</time>
      </trkpt>
      <trkpt lat="47.21879" lon="0.05319">
        <ele>80</ele>
        <time>2012-02-11T13:20:46Z</time>
      </trkpt>
      <trkpt lat="47.21881" lon="0.05313">
        <ele>80</ele>
        <time>2012-02-11T13:20:50Z</time>
      </trkpt>
      <trkpt lat="47.21884" lon="0.05307">
        <ele>80</ele>
        <time>2012-02-11T13:20:54Z</time>
      </trkpt>
      <trkpt lat="47.21886" lon="0.05301">
        <ele>80</ele>
        <time>2012-02-11T13:20:58Z</time>
      </trkpt>
      <trkpt lat="47.21888" lon="0.05295">
        <ele>80</ele>
        <time>2012-02-11T13:21:02Z</time>
      </trkpt>
      <trkpt lat="47.21891" lon="0.05289">
        <ele>80</ele>
        <time>2012-02-11T13:21:06Z</time>
      </trkpt>
      <trkpt lat="47.21894" lon="0.05284">
        <ele>80</ele>
        <time>2012-02-11T13:21:10Z</time>
      </trkpt>
      <trkpt lat="47.21897" lon="0.05278">
        <ele>80</ele>
        <time>2012-02-11T13:21:14Z</time>
      </trkpt>
      <trkpt lat="47.21899" lon="0.05272">
        <ele>80</ele>
        <time>2012-02-11T13:21:18Z</time>
      </trkpt>
      <trkpt lat="47.21901" lon="0.05266">
        <ele>80</ele>
        <time>2012-02-11T13:21:22Z</time>
      </trkpt>
      <trkpt lat="47.21903" lon="0.05258">
        <ele>80</ele>
        <time>2012-02-11T13:21:27Z</time>
      </trkpt>
      <trkpt lat="47.21905" lon="0.0525">
        <ele>80</ele>
        <time>2012-02-11T13:21:32Z</time>
      </trkpt>
      <trkpt lat="47.21907" lon="0.05244">
        <ele>80</ele>
        <time>2012-02-11T13:21:36Z</time>
      </trkpt>
      <trkpt lat="47.21909" lon="0.05238">
        <ele>80</ele>
        <time>2012-02-11T13:21:40Z</time>
      </trkpt>
      <trkpt lat="47.21911" lon="0.05232">
        <ele>81</ele>
        <time>2012-02-11T13:21:44Z</time>
      </trkpt>
      <trkpt lat="47.21914" lon="0.05226">
        <ele>80</ele>
        <time>2012-02-11T13:21:48Z</time>
      </trkpt>
      <trkpt lat="47.21916" lon="0.05219">
        <ele>81</ele>
        <time>2012-02-11T13:21:52Z</time>
      </trkpt>
      <trkpt lat="47.21919" lon="0.05212">
        <ele>81</ele>
        <time>2012-02-11T13:21:56Z</time>
      </trkpt>
      <trkpt lat="47.21921" lon="0.05205">
        <ele>81</ele>
        <time>2012-02-11T13:22:00Z</time>
      </trkpt>
      <trkpt lat="47.21924" lon="0.05198">
        <ele>81</ele>
        <time>2012-02-11T13:22:04Z</time>
      </trkpt>
      <trkpt lat="47.21926" lon="0.05191">
        <ele>81</ele>
        <time>2012-02-11T13:22:08Z</time>
      </trkpt>
      <trkpt lat="47.21928" lon="0.05184">
        <ele>81</ele>
        <time>2012-02-11T13:22:12Z</time>
      </trkpt>
      <trkpt lat="47.21931" lon="0.05178">
        <ele>81</ele>
        <time>2012-02-11T13:22:16Z</time>
      </trkpt>
      <trkpt lat="47.21934" lon="0.05172">
        <ele>81</ele>
        <time>2012-02-11T13:22:20Z</time>
      </trkpt>
      <trkpt lat="47.21936" lon="0.05166">
        <ele>81</ele>
        <time>2012-02-11T13:22:24Z</time>
      </trkpt>
      <trkpt lat="47.21938" lon="0.05158">
        <ele>81</ele>
        <time>2012-02-11T13:22:29Z</time>
      </trkpt>
      <trkpt lat="47.21939" lon="0.0515">
        <ele>81</ele>
        <time>2012-02-11T13:22:34Z</time>
      </trkpt>
      <trkpt lat="47.21941" lon="0.05143">
        <ele>81</ele>
        <time>2012-02-11T13:22:39Z</time>
      </trkpt>
      <trkpt lat="47.21944" lon="0.05136">
        <ele>80</ele>
        <time>2012-02-11T13:22:44Z</time>
      </trkpt>
      <trkpt lat="47.21946" lon="0.0513">
        <ele>80</ele>
        <time>2012-02-11T13:22:49Z</time>
      </trkpt>
      <trkpt lat="47.21948" lon="0.05124">
        <ele>80</ele>
        <time>2012-02-11T13:22:54Z</time>
      </trkpt>
      <trkpt lat="47.21952" lon="0.0512">
        <ele>80</ele>
        <time>2012-02-11T13:22:59Z</time>
      </trkpt>
      <trkpt lat="47.21956" lon="0.05116">
        <ele>80</ele>
        <time>2012-02-11T13:23:04Z</time>
      </trkpt>
      <trkpt lat="47.2196" lon="0.0511">
        <ele>80</ele>
        <time>2012-02-11T13:23:09Z</time>
      </trkpt>
      <trkpt lat="47.21962" lon="0.05104">
        <ele>80</ele>
        <time>2012-02-11T13:23:13Z</time>
      </trkpt>
      <trkpt lat="47.21964" lon="0.05098">
        <ele>80</ele>
        <time>2012-02-11T13:23:17Z</time>
      </trkpt>
      <trkpt lat="47.21966" lon="0.05091">
        <ele>80</ele>
        <time>2012-02-11T13:23:21Z</time>
      </trkpt>
      <trkpt lat="47.21969" lon="0.05085">
        <ele>80</ele>
        <time>2012-02-11T13:23:25Z</time>
      </trkpt>
      <trkpt lat="47.21971" lon="0.05079">
        <ele>80</ele>
        <time>2012-02-11T13:23:29Z</time>
      </trkpt>
      <trkpt lat="47.21974" lon="0.05072">
        <ele>80</ele>
        <time>2012-02-11T13:23:33Z</time>
      </trkpt>
      <trkpt lat="47.21976" lon="0.05065">
        <ele>80</ele>
        <time>2012-02-11T13:23:37Z</time>
      </trkpt>
      <trkpt lat="47.21978" lon="0.05058">
        <ele>80</ele>
        <time>2012-02-11T13:23:41Z</time>
      </trkpt>
      <trkpt lat="47.2198" lon="0.05052">
        <ele>80</ele>
        <time>2012-02-11T13:23:45Z</time>
      </trkpt>
      <trkpt lat="47.21981" lon="0.05045">
        <ele>80</ele>
        <time>2012-02-11T13:23:49Z</time>
      </trkpt>
      <trkpt lat="47.21982" lon="0.05038">
        <ele>80</ele>
        <time>2012-02-11T13:23:53Z</time>
      </trkpt>
      <trkpt lat="47.21984" lon="0.05032">
        <ele>80</ele>
        <time>2012-02-11T13:23:57Z</time>
      </trkpt>
      <trkpt lat="47.21985" lon="0.05024">
        <ele>80</ele>
        <time>2012-02-11T13:24:01Z</time>
      </trkpt>
      <trkpt lat="47.21987" lon="0.05018">
        <ele>80</ele>
        <time>2012-02-11T13:24:05Z</time>
      </trkpt>
      <trkpt lat="47.2199" lon="0.05012">
        <ele>80</ele>
        <time>2012-02-11T13:24:09Z</time>
      </trkpt>
      <trkpt lat="47.21993" lon="0.05007">
        <ele>80</ele>
        <time>2012-02-11T13:24:13Z</time>
      </trkpt>
      <trkpt lat="47.21997" lon="0.05002">
        <ele>79</ele>
        <time>2012-02-11T13:24:17Z</time>
      </trkpt>
      <trkpt lat="47.22001" lon="0.04997">
        <ele>79</ele>
        <time>2012-02-11T13:24:22Z</time>
      </trkpt>
      <trkpt lat="47.22004" lon="0.04991">
        <ele>79</ele>
        <time>2012-02-11T13:24:27Z</time>
      </trkpt>
      <trkpt lat="47.22007" lon="0.04984">
        <ele>79</ele>
        <time>2012-02-11T13:24:31Z</time>
      </trkpt>
      <trkpt lat="47.2201" lon="0.04977">
        <ele>79</ele>
        <time>2012-02-11T13:24:35Z</time>
      </trkpt>
      <trkpt lat="47.22012" lon="0.04971">
        <ele>79</ele>
        <time>2012-02-11T13:24:39Z</time>
      </trkpt>
      <trkpt lat="47.22015" lon="0.04965">
        <ele>79</ele>
        <time>2012-02-11T13:24:43Z</time>
      </trkpt>
      <trkpt lat="47.22017" lon="0.04959">
        <ele>79</ele>
        <time>2012-02-11T13:24:47Z</time>
      </trkpt>
      <trkpt lat="47.2202" lon="0.04953">
        <ele>79</ele>
        <time>2012-02-11T13:24:51Z</time>
      </trkpt>
      <trkpt lat="47.22023" lon="0.04948">
        <ele>79</ele>
        <time>2012-02-11T13:24:55Z</time>
      </trkpt>
      <trkpt lat="47.22027" lon="0.04943">
        <ele>79</ele>
        <time>2012-02-11T13:25:00Z</time>
      </trkpt>
      <trkpt lat="47.22031" lon="0.04938">
        <ele>79</ele>
        <time>2012-02-11T13:25:05Z</time>
      </trkpt>
      <trkpt lat="47.22035" lon="0.04933">
        <ele>79</ele>
        <time>2012-02-11T13:25:10Z</time>
      </trkpt>
      <trkpt lat="47.2204" lon="0.04929">
        <ele>79</ele>
        <time>2012-02-11T13:25:15Z</time>
      </trkpt>
      <trkpt lat="47.22046" lon="0.04927">
        <ele>79</ele>
        <time>2012-02-11T13:25:20Z</time>
      </trkpt>
      <trkpt lat="47.22051" lon="0.04925">
        <ele>79</ele>
        <time>2012-02-11T13:25:25Z</time>
      </trkpt>
      <trkpt lat="47.22056" lon="0.04923">
        <ele>79</ele>
        <time>2012-02-11T13:25:29Z</time>
      </trkpt>
      <trkpt lat="47.2206" lon="0.04921">
        <ele>79</ele>
        <time>2012-02-11T13:25:33Z</time>
      </trkpt>
      <trkpt lat="47.22065" lon="0.04918">
        <ele>79</ele>
        <time>2012-02-11T13:25:37Z</time>
      </trkpt>
      <trkpt lat="47.22069" lon="0.04916">
        <ele>78</ele>
        <time>2012-02-11T13:25:41Z</time>
      </trkpt>
      <trkpt lat="47.22073" lon="0.04912">
        <ele>78</ele>
        <time>2012-02-11T13:25:45Z</time>
      </trkpt>
      <trkpt lat="47.22077" lon="0.04909">
        <ele>78</ele>
        <time>2012-02-11T13:25:49Z</time>
      </trkpt>
      <trkpt lat="47.22081" lon="0.04905">
        <ele>78</ele>
        <time>2012-02-11T13:25:53Z</time>
      </trkpt>
      <trkpt lat="47.22085" lon="0.04902">
        <ele>78</ele>
        <time>2012-02-11T13:25:57Z</time>
      </trkpt>
      <trkpt lat="47.22089" lon="0.04898">
        <ele>78</ele>
        <time>2012-02-11T13:26:01Z</time>
      </trkpt>
      <trkpt lat="47.22093" lon="0.04894">
        <ele>78</ele>
        <time>2012-02-11T13:26:06Z</time>
      </trkpt>
      <trkpt lat="47.22097" lon="0.0489">
        <ele>78</ele>
        <time>2012-02-11T13:26:10Z</time>
      </trkpt>
      <trkpt lat="47.22102" lon="0.04886">
        <ele>79</ele>
        <time>2012-02-11T13:26:14Z</time>
      </trkpt>
      <trkpt lat="47.22106" lon="0.04882">
        <ele>79</ele>
        <time>2012-02-11T13:26:18Z</time>
      </trkpt>
      <trkpt lat="47.22111" lon="0.04878">
        <ele>79</ele>
        <time>2012-02-11T13:26:22Z</time>
      </trkpt>
      <trkpt lat="47.22115" lon="0.04875">
        <ele>79</ele>
        <time>2012-02-11T13:26:26Z</time>
      </trkpt>
      <trkpt lat="47.22118" lon="0.0487">
        <ele>79</ele>
        <time>2012-02-11T13:26:30Z</time>
      </trkpt>
      <trkpt lat="47.22123" lon="0.04865">
        <ele>79</ele>
        <time>2012-02-11T13:26:35Z</time>
      </trkpt>
      <trkpt lat="47.22126" lon="0.04859">
        <ele>79</ele>
        <time>2012-02-11T13:26:40Z</time>
      </trkpt>
      <trkpt lat="47.2213" lon="0.04854">
        <ele>79</ele>
        <time>2012-02-11T13:26:45Z</time>
      </trkpt>
      <trkpt lat="47.22134" lon="0.04848">
        <ele>79</ele>
        <time>2012-02-11T13:26:50Z</time>
      </trkpt>
      <trkpt lat="47.22138" lon="0.04843">
        <ele>79</ele>
        <time>2012-02-11T13:26:55Z</time>
      </trkpt>
      <trkpt lat="47.22142" lon="0.04838">
        <ele>79</ele>
        <time>2012-02-11T13:27:00Z</time>
      </trkpt>
      <trkpt lat="47.22147" lon="0.04833">
        <ele>79</ele>
        <time>2012-02-11T13:27:05Z</time>
      </trkpt>
      <trkpt lat="47.2215" lon="0.04828">
        <ele>79</ele>
        <time>2012-02-11T13:27:12Z</time>
      </trkpt>
      <trkpt lat="47.22154" lon="0.04824">
        <ele>79</ele>
        <time>2012-02-11T13:27:24Z</time>
      </trkpt>
      <trkpt lat="47.22158" lon="0.04822">
        <ele>79</ele>
        <time>2012-02-11T13:27:34Z</time>
      </trkpt>
      <trkpt lat="47.22163" lon="0.04819">
        <ele>79</ele>
        <time>2012-02-11T13:27:38Z</time>
      </trkpt>
      <trkpt lat="47.22167" lon="0.04814">
        <ele>78</ele>
        <time>2012-02-11T13:27:43Z</time>
      </trkpt>
      <trkpt lat="47.22171" lon="0.0481">
        <ele>78</ele>
        <time>2012-02-11T13:27:47Z</time>
      </trkpt>
      <trkpt lat="47.22175" lon="0.04805">
        <ele>78</ele>
        <time>2012-02-11T13:27:51Z</time>
      </trkpt>
      <trkpt lat="47.22179" lon="0.04801">
        <ele>78</ele>
        <time>2012-02-11T13:27:57Z</time>
      </trkpt>
      <trkpt lat="47.22183" lon="0.04796">
        <ele>78</ele>
        <time>2012-02-11T13:28:03Z</time>
      </trkpt>
      <trkpt lat="47.22187" lon="0.04792">
        <ele>78</ele>
        <time>2012-02-11T13:28:08Z</time>
      </trkpt>
      <trkpt lat="47.22192" lon="0.04787">
        <ele>78</ele>
        <time>2012-02-11T13:28:13Z</time>
      </trkpt>
      <trkpt lat="47.22195" lon="0.04782">
        <ele>78</ele>
        <time>2012-02-11T13:28:17Z</time>
      </trkpt>
      <trkpt lat="47.22198" lon="0.04776">
        <ele>78</ele>
        <time>2012-02-11T13:28:21Z</time>
      </trkpt>
      <trkpt lat="47.22201" lon="0.0477">
        <ele>78</ele>
        <time>2012-02-11T13:28:26Z</time>
      </trkpt>
      <trkpt lat="47.22205" lon="0.04764">
        <ele>78</ele>
        <time>2012-02-11T13:28:32Z</time>
      </trkpt>
      <trkpt lat="47.22208" lon="0.04759">
        <ele>78</ele>
        <time>2012-02-11T13:28:36Z</time>
      </trkpt>
      <trkpt lat="47.22211" lon="0.04754">
        <ele>78</ele>
        <time>2012-02-11T13:28:40Z</time>
      </trkpt>
      <trkpt lat="47.22214" lon="0.04748">
        <ele>78</ele>
        <time>2012-02-11T13:28:45Z</time>
      </trkpt>
      <trkpt lat="47.22218" lon="0.04742">
        <ele>78</ele>
        <time>2012-02-11T13:28:50Z</time>
      </trkpt>
      <trkpt lat="47.22222" lon="0.04737">
        <ele>78</ele>
        <time>2012-02-11T13:28:55Z</time>
      </trkpt>
      <trkpt lat="47.22225" lon="0.04731">
        <ele>78</ele>
        <time>2012-02-11T13:29:00Z</time>
      </trkpt>
      <trkpt lat="47.22228" lon="0.04725">
        <ele>78</ele>
        <time>2012-02-11T13:29:05Z</time>
      </trkpt>
      <trkpt lat="47.22232" lon="0.04719">
        <ele>78</ele>
        <time>2012-02-11T13:29:10Z</time>
      </trkpt>
      <trkpt lat="47.22235" lon="0.04713">
        <ele>78</ele>
        <time>2012-02-11T13:29:14Z</time>
      </trkpt>
      <trkpt lat="47.22238" lon="0.04708">
        <ele>78</ele>
        <time>2012-02-11T13:29:18Z</time>
      </trkpt>
      <trkpt lat="47.22242" lon="0.04702">
        <ele>79</ele>
        <time>2012-02-11T13:29:23Z</time>
      </trkpt>
      <trkpt lat="47.22246" lon="0.04697">
        <ele>79</ele>
        <time>2012-02-11T13:29:30Z</time>
      </trkpt>
      <trkpt lat="47.22249" lon="0.04692">
        <ele>79</ele>
        <time>2012-02-11T13:29:36Z</time>
      </trkpt>
      <trkpt lat="47.22252" lon="0.04687">
        <ele>79</ele>
        <time>2012-02-11T13:29:41Z</time>
      </trkpt>
      <trkpt lat="47.22256" lon="0.04684">
        <ele>79</ele>
        <time>2012-02-11T13:29:49Z</time>
      </trkpt>
      <trkpt lat="47.2226" lon="0.0468">
        <ele>79</ele>
        <time>2012-02-11T13:30:05Z</time>
      </trkpt>
      <trkpt lat="47.22266" lon="0.04677">
        <ele>78</ele>
        <time>2012-02-11T13:30:10Z</time>
      </trkpt>
      <trkpt lat="47.22269" lon="0.04673">
        <ele>78</ele>
        <time>2012-02-11T13:30:14Z</time>
      </trkpt>
      <trkpt lat="47.22273" lon="0.04668">
        <ele>78</ele>
        <time>2012-02-11T13:30:19Z</time>
      </trkpt>
      <trkpt lat="47.22275" lon="0.04661">
        <ele>78</ele>
        <time>2012-02-11T13:30:24Z</time>
      </trkpt>
      <trkpt lat="47.22277" lon="0.04654">
        <ele>78</ele>
        <time>2012-02-11T13:30:29Z</time>
      </trkpt>
      <trkpt lat="47.22282" lon="0.04652">
        <ele>77</ele>
        <time>2012-02-11T13:30:48Z</time>
      </trkpt>
      <trkpt lat="47.22286" lon="0.0465">
        <ele>77</ele>
        <time>2012-02-11T13:30:55Z</time>
      </trkpt>
      <trkpt lat="47.22289" lon="0.04645">
        <ele>77</ele>
        <time>2012-02-11T13:31:00Z</time>
      </trkpt>
      <trkpt lat="47.22293" lon="0.0464">
        <ele>77</ele>
        <time>2012-02-11T13:31:05Z</time>
      </trkpt>
      <trkpt lat="47.22296" lon="0.04635">
        <ele>77</ele>
        <time>2012-02-11T13:31:09Z</time>
      </trkpt>
      <trkpt lat="47.223" lon="0.0463">
        <ele>77</ele>
        <time>2012-02-11T13:31:12Z</time>
      </trkpt>
      <trkpt lat="47.22304" lon="0.04625">
        <ele>77</ele>
        <time>2012-02-11T13:31:16Z</time>
      </trkpt>
      <trkpt lat="47.22309" lon="0.04621">
        <ele>77</ele>
        <time>2012-02-11T13:31:20Z</time>
      </trkpt>
      <trkpt lat="47.22312" lon="0.04615">
        <ele>77</ele>
        <time>2012-02-11T13:31:24Z</time>
      </trkpt>
      <trkpt lat="47.22316" lon="0.0461">
        <ele>77</ele>
        <time>2012-02-11T13:31:28Z</time>
      </trkpt>
      <trkpt lat="47.22319" lon="0.04603">
        <ele>77</ele>
        <time>2012-02-11T13:31:32Z</time>
      </trkpt>
      <trkpt lat="47.22322" lon="0.04598">
        <ele>77</ele>
        <time>2012-02-11T13:31:36Z</time>
      </trkpt>
      <trkpt lat="47.22326" lon="0.04593">
        <ele>77</ele>
        <time>2012-02-11T13:31:40Z</time>
      </trkpt>
      <trkpt lat="47.22329" lon="0.04588">
        <ele>77</ele>
        <time>2012-02-11T13:31:44Z</time>
      </trkpt>
      <trkpt lat="47.22332" lon="0.04582">
        <ele>77</ele>
        <time>2012-02-11T13:31:48Z</time>
      </trkpt>
      <trkpt lat="47.22335" lon="0.04577">
        <ele>77</ele>
        <time>2012-02-11T13:31:52Z</time>
      </trkpt>
      <trkpt lat="47.22339" lon="0.04572">
        <ele>77</ele>
        <time>2012-02-11T13:31:56Z</time>
      </trkpt>
      <trkpt lat="47.22343" lon="0.04568">
        <ele>77</ele>
        <time>2012-02-11T13:32:00Z</time>
      </trkpt>
      <trkpt lat="47.22347" lon="0.04563">
        <ele>77</ele>
        <time>2012-02-11T13:32:05Z</time>
      </trkpt>
      <trkpt lat="47.2235" lon="0.04557">
        <ele>77</ele>
        <time>2012-02-11T13:32:09Z</time>
      </trkpt>
      <trkpt lat="47.22352" lon="0.0455">
        <ele>77</ele>
        <time>2012-02-11T13:32:13Z</time>
      </trkpt>
      <trkpt lat="47.22354" lon="0.04544">
        <ele>77</ele>
        <time>2012-02-11T13:32:17Z</time>
      </trkpt>
      <trkpt lat="47.22356" lon="0.04538">
        <ele>77</ele>
        <time>2012-02-11T13:32:21Z</time>
      </trkpt>
      <trkpt lat="47.22358" lon="0.04531">
        <ele>77</ele>
        <time>2012-02-11T13:32:26Z</time>
      </trkpt>
      <trkpt lat="47.2236" lon="0.04524">
        <ele>77</ele>
        <time>2012-02-11T13:32:32Z</time>
      </trkpt>
      <trkpt lat="47.22362" lon="0.04518">
        <ele>77</ele>
        <time>2012-02-11T13:32:39Z</time>
      </trkpt>
      <trkpt lat="47.22366" lon="0.04515">
        <ele>78</ele>
        <time>2012-02-11T13:32:44Z</time>
      </trkpt>
      <trkpt lat="47.22371" lon="0.04511">
        <ele>78</ele>
        <time>2012-02-11T13:32:49Z</time>
      </trkpt>
      <trkpt lat="47.22375" lon="0.04506">
        <ele>78</ele>
        <time>2012-02-11T13:32:54Z</time>
      </trkpt>
      <trkpt lat="47.22379" lon="0.04501">
        <ele>78</ele>
        <time>2012-02-11T13:32:59Z</time>
      </trkpt>
      <trkpt lat="47.22382" lon="0.04495">
        <ele>78</ele>
        <time>2012-02-11T13:33:03Z</time>
      </trkpt>
      <trkpt lat="47.22384" lon="0.0449">
        <ele>78</ele>
        <time>2012-02-11T13:33:07Z</time>
      </trkpt>
      <trkpt lat="47.22387" lon="0.04484">
        <ele>78</ele>
        <time>2012-02-11T13:33:11Z</time>
      </trkpt>
      <trkpt lat="47.2239" lon="0.04478">
        <ele>77</ele>
        <time>2012-02-11T13:33:15Z</time>
      </trkpt>
      <trkpt lat="47.22392" lon="0.04472">
        <ele>77</ele>
        <time>2012-02-11T13:33:19Z</time>
      </trkpt>
      <trkpt lat="47.22394" lon="0.04466">
        <ele>77</ele>
        <time>2012-02-11T13:33:23Z</time>
      </trkpt>
      <trkpt lat="47.22396" lon="0.0446">
        <ele>77</ele>
        <time>2012-02-11T13:33:27Z</time>
      </trkpt>
      <trkpt lat="47.22398" lon="0.04454">
        <ele>77</ele>
        <time>2012-02-11T13:33:31Z</time>
      </trkpt>
      <trkpt lat="47.224" lon="0.04447">
        <ele>77</ele>
        <time>2012-02-11T13:33:35Z</time>
      </trkpt>
      <trkpt lat="47.22401" lon="0.0444">
        <ele>77</ele>
        <time>2012-02-11T13:33:39Z</time>
      </trkpt>
      <trkpt lat="47.22402" lon="0.04433">
        <ele>77</ele>
        <time>2012-02-11T13:33:43Z</time>
      </trkpt>
      <trkpt lat="47.22402" lon="0.04426">
        <ele>77</ele>
        <time>2012-02-11T13:33:46Z</time>
      </trkpt>
      <trkpt lat="47.22402" lon="0.04418">
        <ele>77</ele>
        <time>2012-02-11T13:33:50Z</time>
      </trkpt>
      <trkpt lat="47.22403" lon="0.0441">
        <ele>78</ele>
        <time>2012-02-11T13:33:54Z</time>
      </trkpt>
      <trkpt lat="47.22403" lon="0.04402">
        <ele>78</ele>
        <time>2012-02-11T13:33:58Z</time>
      </trkpt>
      <trkpt lat="47.22404" lon="0.04396">
        <ele>78</ele>
        <time>2012-02-11T13:34:02Z</time>
      </trkpt>
      <trkpt lat="47.22405" lon="0.04388">
        <ele>78</ele>
        <time>2012-02-11T13:34:06Z</time>
      </trkpt>
      <trkpt lat="47.22405" lon="0.0438">
        <ele>78</ele>
        <time>2012-02-11T13:34:11Z</time>
      </trkpt>
      <trkpt lat="47.22405" lon="0.04372">
        <ele>78</ele>
        <time>2012-02-11T13:34:16Z</time>
      </trkpt>
      <trkpt lat="47.22406" lon="0.04364">
        <ele>78</ele>
        <time>2012-02-11T13:34:21Z</time>
      </trkpt>
      <trkpt lat="47.22406" lon="0.04357">
        <ele>78</ele>
        <time>2012-02-11T13:34:25Z</time>
      </trkpt>
      <trkpt lat="47.22406" lon="0.0435">
        <ele>78</ele>
        <time>2012-02-11T13:34:29Z</time>
      </trkpt>
      <trkpt lat="47.22407" lon="0.04342">
        <ele>78</ele>
        <time>2012-02-11T13:34:34Z</time>
      </trkpt>
      <trkpt lat="47.22408" lon="0.04334">
        <ele>78</ele>
        <time>2012-02-11T13:34:39Z</time>
      </trkpt>
      <trkpt lat="47.22409" lon="0.04326">
        <ele>78</ele>
        <time>2012-02-11T13:34:44Z</time>
      </trkpt>
      <trkpt lat="47.2241" lon="0.04318">
        <ele>78</ele>
        <time>2012-02-11T13:34:49Z</time>
      </trkpt>
      <trkpt lat="47.22411" lon="0.04312">
        <ele>78</ele>
        <time>2012-02-11T13:34:53Z</time>
      </trkpt>
      <trkpt lat="47.22413" lon="0.04303">
        <ele>78</ele>
        <time>2012-02-11T13:34:58Z</time>
      </trkpt>
      <trkpt lat="47.22414" lon="0.04297">
        <ele>78</ele>
        <time>2012-02-11T13:35:02Z</time>
      </trkpt>
      <trkpt lat="47.22415" lon="0.0429">
        <ele>78</ele>
        <time>2012-02-11T13:35:06Z</time>
      </trkpt>
      <trkpt lat="47.22417" lon="0.04284">
        <ele>78</ele>
        <time>2012-02-11T13:35:10Z</time>
      </trkpt>
      <trkpt lat="47.2242" lon="0.04278">
        <ele>78</ele>
        <time>2012-02-11T13:35:14Z</time>
      </trkpt>
      <trkpt lat="47.22423" lon="0.04272">
        <ele>78</ele>
        <time>2012-02-11T13:35:18Z</time>
      </trkpt>
      <trkpt lat="47.22425" lon="0.04265">
        <ele>78</ele>
        <time>2012-02-11T13:35:22Z</time>
      </trkpt>
      <trkpt lat="47.22428" lon="0.04259">
        <ele>78</ele>
        <time>2012-02-11T13:35:26Z</time>
      </trkpt>
      <trkpt lat="47.22431" lon="0.04254">
        <ele>78</ele>
        <time>2012-02-11T13:35:30Z</time>
      </trkpt>
      <trkpt lat="47.22434" lon="0.04249">
        <ele>78</ele>
        <time>2012-02-11T13:35:34Z</time>
      </trkpt>
      <trkpt lat="47.22438" lon="0.04244">
        <ele>78</ele>
        <time>2012-02-11T13:35:38Z</time>
      </trkpt>
      <trkpt lat="47.22441" lon="0.04239">
        <ele>78</ele>
        <time>2012-02-11T13:35:42Z</time>
      </trkpt>
      <trkpt lat="47.22444" lon="0.04234">
        <ele>78</ele>
        <time>2012-02-11T13:35:46Z</time>
      </trkpt>
      <trkpt lat="47.22447" lon="0.04229">
        <ele>78</ele>
        <time>2012-02-11T13:35:50Z</time>
      </trkpt>
      <trkpt lat="47.2245" lon="0.04223">
        <ele>78</ele>
        <time>2012-02-11T13:35:54Z</time>
      </trkpt>
      <trkpt lat="47.22454" lon="0.04216">
        <ele>78</ele>
        <time>2012-02-11T13:35:58Z</time>
      </trkpt>
      <trkpt lat="47.22457" lon="0.0421">
        <ele>78</ele>
        <time>2012-02-11T13:36:02Z</time>
      </trkpt>
      <trkpt lat="47.22461" lon="0.04205">
        <ele>78</ele>
        <time>2012-02-11T13:36:06Z</time>
      </trkpt>
      <trkpt lat="47.22464" lon="0.042">
        <ele>78</ele>
        <time>2012-02-11T13:36:10Z</time>
      </trkpt>
      <trkpt lat="47.22467" lon="0.04194">
        <ele>79</ele>
        <time>2012-02-11T13:36:14Z</time>
      </trkpt>
      <trkpt lat="47.2247" lon="0.04188">
        <ele>79</ele>
        <time>2012-02-11T13:36:18Z</time>
      </trkpt>
      <trkpt lat="47.22473" lon="0.04182">
        <ele>79</ele>
        <time>2012-02-11T13:36:22Z</time>
      </trkpt>
      <trkpt lat="47.22476" lon="0.04176">
        <ele>79</ele>
        <time>2012-02-11T13:36:26Z</time>
      </trkpt>
      <trkpt lat="47.2248" lon="0.0417">
        <ele>79</ele>
        <time>2012-02-11T13:36:30Z</time>
      </trkpt>
      <trkpt lat="47.22482" lon="0.04164">
        <ele>79</ele>
        <time>2012-02-11T13:36:34Z</time>
      </trkpt>
      <trkpt lat="47.22485" lon="0.04158">
        <ele>79</ele>
        <time>2012-02-11T13:36:38Z</time>
      </trkpt>
      <trkpt lat="47.22489" lon="0.04153">
        <ele>79</ele>
        <time>2012-02-11T13:36:42Z</time>
      </trkpt>
      <trkpt lat="47.22492" lon="0.04147">
        <ele>79</ele>
        <time>2012-02-11T13:36:46Z</time>
      </trkpt>
      <trkpt lat="47.22495" lon="0.04142">
        <ele>79</ele>
        <time>2012-02-11T13:36:50Z</time>
      </trkpt>
      <trkpt lat="47.22498" lon="0.04137">
        <ele>79</ele>
        <time>2012-02-11T13:36:54Z</time>
      </trkpt>
      <trkpt lat="47.22501" lon="0.0413">
        <ele>79</ele>
        <time>2012-02-11T13:36:59Z</time>
      </trkpt>
      <trkpt lat="47.22504" lon="0.04125">
        <ele>79</ele>
        <time>2012-02-11T13:37:03Z</time>
      </trkpt>
      <trkpt lat="47.22506" lon="0.04119">
        <ele>79</ele>
        <time>2012-02-11T13:37:07Z</time>
      </trkpt>
      <trkpt lat="47.22509" lon="0.04113">
        <ele>79</ele>
        <time>2012-02-11T13:37:11Z</time>
      </trkpt>
      <trkpt lat="47.22512" lon="0.04106">
        <ele>79</ele>
        <time>2012-02-11T13:37:15Z</time>
      </trkpt>
      <trkpt lat="47.22515" lon="0.04101">
        <ele>79</ele>
        <time>2012-02-11T13:37:19Z</time>
      </trkpt>
      <trkpt lat="47.22519" lon="0.04096">
        <ele>79</ele>
        <time>2012-02-11T13:37:23Z</time>
      </trkpt>
      <trkpt lat="47.22522" lon="0.04091">
        <ele>79</ele>
        <time>2012-02-11T13:37:27Z</time>
      </trkpt>
      <trkpt lat="47.22526" lon="0.04086">
        <ele>79</ele>
        <time>2012-02-11T13:37:31Z</time>
      </trkpt>
      <trkpt lat="47.22528" lon="0.04081">
        <ele>79</ele>
        <time>2012-02-11T13:37:35Z</time>
      </trkpt>
      <trkpt lat="47.22532" lon="0.04075">
        <ele>79</ele>
        <time>2012-02-11T13:37:40Z</time>
      </trkpt>
      <trkpt lat="47.22534" lon="0.04069">
        <ele>79</ele>
        <time>2012-02-11T13:37:44Z</time>
      </trkpt>
      <trkpt lat="47.22537" lon="0.04064">
        <ele>79</ele>
        <time>2012-02-11T13:37:48Z</time>
      </trkpt>
      <trkpt lat="47.2254" lon="0.04059">
        <ele>79</ele>
        <time>2012-02-11T13:37:52Z</time>
      </trkpt>
      <trkpt lat="47.22544" lon="0.04055">
        <ele>79</ele>
        <time>2012-02-11T13:37:56Z</time>
      </trkpt>
      <trkpt lat="47.22548" lon="0.0405">
        <ele>79</ele>
        <time>2012-02-11T13:38:01Z</time>
      </trkpt>
      <trkpt lat="47.22552" lon="0.04045">
        <ele>79</ele>
        <time>2012-02-11T13:38:05Z</time>
      </trkpt>
      <trkpt lat="47.22555" lon="0.04039">
        <ele>79</ele>
        <time>2012-02-11T13:38:09Z</time>
      </trkpt>
      <trkpt lat="47.22557" lon="0.04033">
        <ele>79</ele>
        <time>2012-02-11T13:38:13Z</time>
      </trkpt>
      <trkpt lat="47.22559" lon="0.04027">
        <ele>79</ele>
        <time>2012-02-11T13:38:17Z</time>
      </trkpt>
      <trkpt lat="47.2256" lon="0.0402">
        <ele>79</ele>
        <time>2012-02-11T13:38:21Z</time>
      </trkpt>
      <trkpt lat="47.22561" lon="0.04013">
        <ele>79</ele>
        <time>2012-02-11T13:38:25Z</time>
      </trkpt>
      <trkpt lat="47.22564" lon="0.04007">
        <ele>79</ele>
        <time>2012-02-11T13:38:29Z</time>
      </trkpt>
      <trkpt lat="47.22561" lon="0.04">
        <ele>79</ele>
        <time>2012-02-11T13:38:47Z</time>
      </trkpt>
      <trkpt lat="47.22558" lon="0.03994">
        <ele>79</ele>
        <time>2012-02-11T13:38:53Z</time>
      </trkpt>
      <trkpt lat="47.22554" lon="0.03989">
        <ele>79</ele>
        <time>2012-02-11T13:38:58Z</time>
      </trkpt>
      <trkpt lat="47.22549" lon="0.03984">
        <ele>79</ele>
        <time>2012-02-11T13:39:02Z</time>
      </trkpt>
      <trkpt lat="47.22546" lon="0.03979">
        <ele>79</ele>
        <time>2012-02-11T13:39:05Z</time>
      </trkpt>
      <trkpt lat="47.22541" lon="0.03974">
        <ele>79</ele>
        <time>2012-02-11T13:39:09Z</time>
      </trkpt>
      <trkpt lat="47.22537" lon="0.03969">
        <ele>79</ele>
        <time>2012-02-11T13:39:13Z</time>
      </trkpt>
      <trkpt lat="47.22534" lon="0.03965">
        <ele>79</ele>
        <time>2012-02-11T13:39:16Z</time>
      </trkpt>
      <trkpt lat="47.22531" lon="0.0396">
        <ele>78</ele>
        <time>2012-02-11T13:39:19Z</time>
      </trkpt>
      <trkpt lat="47.22526" lon="0.03954">
        <ele>78</ele>
        <time>2012-02-11T13:39:23Z</time>
      </trkpt>
      <trkpt lat="47.22522" lon="0.03951">
        <ele>78</ele>
        <time>2012-02-11T13:39:27Z</time>
      </trkpt>
      <trkpt lat="47.22518" lon="0.03947">
        <ele>78</ele>
        <time>2012-02-11T13:39:32Z</time>
      </trkpt>
      <trkpt lat="47.22514" lon="0.03942">
        <ele>78</ele>
        <time>2012-02-11T13:39:37Z</time>
      </trkpt>
      <trkpt lat="47.2251" lon="0.03937">
        <ele>77</ele>
        <time>2012-02-11T13:39:42Z</time>
      </trkpt>
      <trkpt lat="47.22506" lon="0.03932">
        <ele>77</ele>
        <time>2012-02-11T13:39:47Z</time>
      </trkpt>
      <trkpt lat="47.22502" lon="0.03926">
        <ele>77</ele>
        <time>2012-02-11T13:39:52Z</time>
      </trkpt>
      <trkpt lat="47.22498" lon="0.03922">
        <ele>77</ele>
        <time>2012-02-11T13:39:56Z</time>
      </trkpt>
      <trkpt lat="47.22494" lon="0.03917">
        <ele>77</ele>
        <time>2012-02-11T13:40:01Z</time>
      </trkpt>
      <trkpt lat="47.2249" lon="0.03912">
        <ele>77</ele>
        <time>2012-02-11T13:40:06Z</time>
      </trkpt>
      <trkpt lat="47.22486" lon="0.03907">
        <ele>77</ele>
        <time>2012-02-11T13:40:11Z</time>
      </trkpt>
      <trkpt lat="47.22482" lon="0.03903">
        <ele>76</ele>
        <time>2012-02-11T13:40:16Z</time>
      </trkpt>
      <trkpt lat="47.22477" lon="0.03898">
        <ele>76</ele>
        <time>2012-02-11T13:40:21Z</time>
      </trkpt>
      <trkpt lat="47.22474" lon="0.03893">
        <ele>76</ele>
        <time>2012-02-11T13:40:26Z</time>
      </trkpt>
      <trkpt lat="47.22471" lon="0.03888">
        <ele>76</ele>
        <time>2012-02-11T13:40:31Z</time>
      </trkpt>
      <trkpt lat="47.22467" lon="0.03882">
        <ele>76</ele>
        <time>2012-02-11T13:40:36Z</time>
      </trkpt>
      <trkpt lat="47.22464" lon="0.03876">
        <ele>76</ele>
        <time>2012-02-11T13:40:41Z</time>
      </trkpt>
      <trkpt lat="47.2246" lon="0.0387">
        <ele>76</ele>
        <time>2012-02-11T13:40:46Z</time>
      </trkpt>
      <trkpt lat="47.22457" lon="0.03864">
        <ele>76</ele>
        <time>2012-02-11T13:40:51Z</time>
      </trkpt>
      <trkpt lat="47.22454" lon="0.03858">
        <ele>76</ele>
        <time>2012-02-11T13:40:55Z</time>
      </trkpt>
      <trkpt lat="47.22452" lon="0.03853">
        <ele>76</ele>
        <time>2012-02-11T13:40:59Z</time>
      </trkpt>
      <trkpt lat="47.22448" lon="0.03848">
        <ele>76</ele>
        <time>2012-02-11T13:41:03Z</time>
      </trkpt>
      <trkpt lat="47.22444" lon="0.03842">
        <ele>75</ele>
        <time>2012-02-11T13:41:08Z</time>
      </trkpt>
      <trkpt lat="47.2244" lon="0.03837">
        <ele>75</ele>
        <time>2012-02-11T13:41:13Z</time>
      </trkpt>
      <trkpt lat="47.22437" lon="0.03831">
        <ele>75</ele>
        <time>2012-02-11T13:41:18Z</time>
      </trkpt>
      <trkpt lat="47.22433" lon="0.03825">
        <ele>75</ele>
        <time>2012-02-11T13:41:23Z</time>
      </trkpt>
      <trkpt lat="47.2243" lon="0.0382">
        <ele>75</ele>
        <time>2012-02-11T13:41:28Z</time>
      </trkpt>
      <trkpt lat="47.22428" lon="0.03813">
        <ele>75</ele>
        <time>2012-02-11T13:41:37Z</time>
      </trkpt>
      <trkpt lat="47.22426" lon="0.03806">
        <ele>76</ele>
        <time>2012-02-11T13:41:43Z</time>
      </trkpt>
      <trkpt lat="47.22423" lon="0.038">
        <ele>76</ele>
        <time>2012-02-11T13:41:47Z</time>
      </trkpt>
      <trkpt lat="47.2242" lon="0.03795">
        <ele>76</ele>
        <time>2012-02-11T13:41:51Z</time>
      </trkpt>
      <trkpt lat="47.22417" lon="0.03789">
        <ele>76</ele>
        <time>2012-02-11T13:41:55Z</time>
      </trkpt>
      <trkpt lat="47.22413" lon="0.03783">
        <ele>76</ele>
        <time>2012-02-11T13:41:59Z</time>
      </trkpt>
      <trkpt lat="47.2241" lon="0.03778">
        <ele>76</ele>
        <time>2012-02-11T13:42:02Z</time>
      </trkpt>
      <trkpt lat="47.22406" lon="0.03772">
        <ele>76</ele>
        <time>2012-02-11T13:42:06Z</time>
      </trkpt>
      <trkpt lat="47.22402" lon="0.03767">
        <ele>76</ele>
        <time>2012-02-11T13:42:10Z</time>
      </trkpt>
      <trkpt lat="47.22398" lon="0.03761">
        <ele>76</ele>
        <time>2012-02-11T13:42:14Z</time>
      </trkpt>
      <trkpt lat="47.22395" lon="0.03755">
        <ele>76</ele>
        <time>2012-02-11T13:42:18Z</time>
      </trkpt>
      <trkpt lat="47.22391" lon="0.03749">
        <ele>76</ele>
        <time>2012-02-11T13:42:22Z</time>
      </trkpt>
      <trkpt lat="47.22387" lon="0.03743">
        <ele>76</ele>
        <time>2012-02-11T13:42:26Z</time>
      </trkpt>
      <trkpt lat="47.22384" lon="0.03737">
        <ele>76</ele>
        <time>2012-02-11T13:42:30Z</time>
      </trkpt>
      <trkpt lat="47.22381" lon="0.03732">
        <ele>76</ele>
        <time>2012-02-11T13:42:34Z</time>
      </trkpt>
      <trkpt lat="47.22378" lon="0.03727">
        <ele>76</ele>
        <time>2012-02-11T13:42:39Z</time>
      </trkpt>
      <trkpt lat="47.22374" lon="0.03722">
        <ele>76</ele>
        <time>2012-02-11T13:42:46Z</time>
      </trkpt>
      <trkpt lat="47.2237" lon="0.03716">
        <ele>76</ele>
        <time>2012-02-11T13:42:51Z</time>
      </trkpt>
      <trkpt lat="47.22367" lon="0.03711">
        <ele>76</ele>
        <time>2012-02-11T13:42:55Z</time>
      </trkpt>
      <trkpt lat="47.22364" lon="0.03706">
        <ele>76</ele>
        <time>2012-02-11T13:42:59Z</time>
      </trkpt>
      <trkpt lat="47.2236" lon="0.03702">
        <ele>76</ele>
        <time>2012-02-11T13:43:03Z</time>
      </trkpt>
      <trkpt lat="47.22357" lon="0.03697">
        <ele>76</ele>
        <time>2012-02-11T13:43:08Z</time>
      </trkpt>
      <trkpt lat="47.22354" lon="0.03691">
        <ele>76</ele>
        <time>2012-02-11T13:43:13Z</time>
      </trkpt>
      <trkpt lat="47.22351" lon="0.03686">
        <ele>76</ele>
        <time>2012-02-11T13:43:19Z</time>
      </trkpt>
      <trkpt lat="47.22348" lon="0.0368">
        <ele>76</ele>
        <time>2012-02-11T13:43:25Z</time>
      </trkpt>
      <trkpt lat="47.22346" lon="0.03673">
        <ele>76</ele>
        <time>2012-02-11T13:43:30Z</time>
      </trkpt>
      <trkpt lat="47.22343" lon="0.03666">
        <ele>77</ele>
        <time>2012-02-11T13:43:35Z</time>
      </trkpt>
      <trkpt lat="47.2234" lon="0.03661">
        <ele>77</ele>
        <time>2012-02-11T13:43:39Z</time>
      </trkpt>
      <trkpt lat="47.22337" lon="0.03655">
        <ele>77</ele>
        <time>2012-02-11T13:43:43Z</time>
      </trkpt>
      <trkpt lat="47.22333" lon="0.03649">
        <ele>77</ele>
        <time>2012-02-11T13:43:47Z</time>
      </trkpt>
      <trkpt lat="47.22329" lon="0.03644">
        <ele>77</ele>
        <time>2012-02-11T13:43:51Z</time>
      </trkpt>
      <trkpt lat="47.22325" lon="0.03639">
        <ele>77</ele>
        <time>2012-02-11T13:43:56Z</time>
      </trkpt>
      <trkpt lat="47.22322" lon="0.03633">
        <ele>77</ele>
        <time>2012-02-11T13:44:03Z</time>
      </trkpt>
      <trkpt lat="47.22318" lon="0.03629">
        <ele>77</ele>
        <time>2012-02-11T13:45:06Z</time>
      </trkpt>
      <trkpt lat="47.22316" lon="0.03621">
        <ele>77</ele>
        <time>2012-02-11T13:45:10Z</time>
      </trkpt>
      <trkpt lat="47.22313" lon="0.03613">
        <ele>77</ele>
        <time>2012-02-11T13:45:14Z</time>
      </trkpt>
      <trkpt lat="47.22311" lon="0.03606">
        <ele>78</ele>
        <time>2012-02-11T13:45:18Z</time>
      </trkpt>
      <trkpt lat="47.22308" lon="0.03599">
        <ele>78</ele>
        <time>2012-02-11T13:45:22Z</time>
      </trkpt>
      <trkpt lat="47.22305" lon="0.03594">
        <ele>78</ele>
        <time>2012-02-11T13:45:26Z</time>
      </trkpt>
      <trkpt lat="47.22301" lon="0.03588">
        <ele>79</ele>
        <time>2012-02-11T13:45:31Z</time>
      </trkpt>
      <trkpt lat="47.22298" lon="0.03582">
        <ele>79</ele>
        <time>2012-02-11T13:45:36Z</time>
      </trkpt>
      <trkpt lat="47.22296" lon="0.03574">
        <ele>79</ele>
        <time>2012-02-11T13:45:41Z</time>
      </trkpt>
      <trkpt lat="47.22293" lon="0.03568">
        <ele>79</ele>
        <time>2012-02-11T13:45:45Z</time>
      </trkpt>
      <trkpt lat="47.2229" lon="0.03563">
        <ele>79</ele>
        <time>2012-02-11T13:45:49Z</time>
      </trkpt>
      <trkpt lat="47.22287" lon="0.03557">
        <ele>80</ele>
        <time>2012-02-11T13:45:54Z</time>
      </trkpt>
      <trkpt lat="47.22284" lon="0.0355">
        <ele>80</ele>
        <time>2012-02-11T13:45:59Z</time>
      </trkpt>
      <trkpt lat="47.22282" lon="0.03543">
        <ele>80</ele>
        <time>2012-02-11T13:46:04Z</time>
      </trkpt>
      <trkpt lat="47.22279" lon="0.03537">
        <ele>80</ele>
        <time>2012-02-11T13:46:09Z</time>
      </trkpt>
      <trkpt lat="47.22275" lon="0.0353">
        <ele>80</ele>
        <time>2012-02-11T13:46:14Z</time>
      </trkpt>
      <trkpt lat="47.22272" lon="0.03524">
        <ele>81</ele>
        <time>2012-02-11T13:46:18Z</time>
      </trkpt>
      <trkpt lat="47.22268" lon="0.03517">
        <ele>81</ele>
        <time>2012-02-11T13:46:23Z</time>
      </trkpt>
      <trkpt lat="47.22265" lon="0.0351">
        <ele>81</ele>
        <time>2012-02-11T13:46:28Z</time>
      </trkpt>
      <trkpt lat="47.22262" lon="0.03503">
        <ele>81</ele>
        <time>2012-02-11T13:46:33Z</time>
      </trkpt>
      <trkpt lat="47.22259" lon="0.03497">
        <ele>81</ele>
        <time>2012-02-11T13:46:37Z</time>
      </trkpt>
      <trkpt lat="47.22257" lon="0.03491">
        <ele>81</ele>
        <time>2012-02-11T13:46:41Z</time>
      </trkpt>
      <trkpt lat="47.22254" lon="0.03486">
        <ele>81</ele>
        <time>2012-02-11T13:46:45Z</time>
      </trkpt>
      <trkpt lat="47.22251" lon="0.0348">
        <ele>81</ele>
        <time>2012-02-11T13:46:49Z</time>
      </trkpt>
      <trkpt lat="47.22247" lon="0.03475">
        <ele>81</ele>
        <time>2012-02-11T13:46:53Z</time>
      </trkpt>
      <trkpt lat="47.22244" lon="0.0347">
        <ele>81</ele>
        <time>2012-02-11T13:46:57Z</time>
      </trkpt>
      <trkpt lat="47.2224" lon="0.03466">
        <ele>81</ele>
        <time>2012-02-11T13:47:01Z</time>
      </trkpt>
      <trkpt lat="47.22235" lon="0.03461">
        <ele>81</ele>
        <time>2012-02-11T13:47:06Z</time>
      </trkpt>
      <trkpt lat="47.22231" lon="0.03458">
        <ele>81</ele>
        <time>2012-02-11T13:47:11Z</time>
      </trkpt>
      <trkpt lat="47.22226" lon="0.03456">
        <ele>81</ele>
        <time>2012-02-11T13:47:16Z</time>
      </trkpt>
      <trkpt lat="47.22221" lon="0.03456">
        <ele>81</ele>
        <time>2012-02-11T13:47:22Z</time>
      </trkpt>
      <trkpt lat="47.22216" lon="0.03459">
        <ele>81</ele>
        <time>2012-02-11T13:47:27Z</time>
      </trkpt>
      <trkpt lat="47.22211" lon="0.03464">
        <ele>81</ele>
        <time>2012-02-11T13:47:31Z</time>
      </trkpt>
      <trkpt lat="47.22207" lon="0.03469">
        <ele>81</ele>
        <time>2012-02-11T13:47:35Z</time>
      </trkpt>
      <trkpt lat="47.22204" lon="0.03475">
        <ele>81</ele>
        <time>2012-02-11T13:47:38Z</time>
      </trkpt>
      <trkpt lat="47.22201" lon="0.03481">
        <ele>81</ele>
        <time>2012-02-11T13:47:42Z</time>
      </trkpt>
      <trkpt lat="47.22198" lon="0.03487">
        <ele>81</ele>
        <time>2012-02-11T13:47:46Z</time>
      </trkpt>
      <trkpt lat="47.22197" lon="0.03493">
        <ele>81</ele>
        <time>2012-02-11T13:47:50Z</time>
      </trkpt>
      <trkpt lat="47.22196" lon="0.035">
        <ele>82</ele>
        <time>2012-02-11T13:47:54Z</time>
      </trkpt>
      <trkpt lat="47.22194" lon="0.03506">
        <ele>82</ele>
        <time>2012-02-11T13:47:58Z</time>
      </trkpt>
      <trkpt lat="47.22193" lon="0.03513">
        <ele>82</ele>
        <time>2012-02-11T13:48:02Z</time>
      </trkpt>
      <trkpt lat="47.22192" lon="0.0352">
        <ele>82</ele>
        <time>2012-02-11T13:48:07Z</time>
      </trkpt>
      <trkpt lat="47.2219" lon="0.03528">
        <ele>82</ele>
        <time>2012-02-11T13:48:12Z</time>
      </trkpt>
      <trkpt lat="47.22189" lon="0.03534">
        <ele>82</ele>
        <time>2012-02-11T13:48:16Z</time>
      </trkpt>
      <trkpt lat="47.22187" lon="0.03541">
        <ele>83</ele>
        <time>2012-02-11T13:48:20Z</time>
      </trkpt>
      <trkpt lat="47.22186" lon="0.03548">
        <ele>83</ele>
        <time>2012-02-11T13:48:24Z</time>
      </trkpt>
      <trkpt lat="47.22185" lon="0.03555">
        <ele>83</ele>
        <time>2012-02-11T13:48:29Z</time>
      </trkpt>
      <trkpt lat="47.22183" lon="0.03561">
        <ele>83</ele>
        <time>2012-02-11T13:48:34Z</time>
      </trkpt>
      <trkpt lat="47.22181" lon="0.03568">
        <ele>83</ele>
        <time>2012-02-11T13:48:39Z</time>
      </trkpt>
      <trkpt lat="47.2218" lon="0.03576">
        <ele>84</ele>
        <time>2012-02-11T13:48:44Z</time>
      </trkpt>
      <trkpt lat="47.22179" lon="0.03582">
        <ele>84</ele>
        <time>2012-02-11T13:48:49Z</time>
      </trkpt>
      <trkpt lat="47.22177" lon="0.03589">
        <ele>84</ele>
        <time>2012-02-11T13:48:54Z</time>
      </trkpt>
      <trkpt lat="47.22173" lon="0.03594">
        <ele>84</ele>
        <time>2012-02-11T13:49:00Z</time>
      </trkpt>
      <trkpt lat="47.22171" lon="0.036">
        <ele>84</ele>
        <time>2012-02-11T13:49:06Z</time>
      </trkpt>
      <trkpt lat="47.22169" lon="0.03607">
        <ele>84</ele>
        <time>2012-02-11T13:49:11Z</time>
      </trkpt>
      <trkpt lat="47.22167" lon="0.03613">
        <ele>85</ele>
        <time>2012-02-11T13:49:16Z</time>
      </trkpt>
      <trkpt lat="47.22164" lon="0.03619">
        <ele>85</ele>
        <time>2012-02-11T13:49:20Z</time>
      </trkpt>
      <trkpt lat="47.22161" lon="0.03626">
        <ele>85</ele>
        <time>2012-02-11T13:49:24Z</time>
      </trkpt>
      <trkpt lat="47.2216" lon="0.03633">
        <ele>86</ele>
        <time>2012-02-11T13:49:28Z</time>
      </trkpt>
      <trkpt lat="47.22158" lon="0.0364">
        <ele>86</ele>
        <time>2012-02-11T13:49:33Z</time>
      </trkpt>
      <trkpt lat="47.22156" lon="0.03646">
        <ele>86</ele>
        <time>2012-02-11T13:49:38Z</time>
      </trkpt>
      <trkpt lat="47.22152" lon="0.03652">
        <ele>87</ele>
        <time>2012-02-11T13:49:44Z</time>
      </trkpt>
      <trkpt lat="47.22149" lon="0.03657">
        <ele>87</ele>
        <time>2012-02-11T13:49:53Z</time>
      </trkpt>
      <trkpt lat="47.22148" lon="0.03664">
        <ele>88</ele>
        <time>2012-02-11T13:50:02Z</time>
      </trkpt>
      <trkpt lat="47.22147" lon="0.0367">
        <ele>88</ele>
        <time>2012-02-11T13:50:10Z</time>
      </trkpt>
      <trkpt lat="47.22145" lon="0.03677">
        <ele>88</ele>
        <time>2012-02-11T13:50:18Z</time>
      </trkpt>
      <trkpt lat="47.22145" lon="0.03684">
        <ele>89</ele>
        <time>2012-02-11T13:50:25Z</time>
      </trkpt>
      <trkpt lat="47.22145" lon="0.03691">
        <ele>89</ele>
        <time>2012-02-11T13:50:32Z</time>
      </trkpt>
      <trkpt lat="47.22149" lon="0.03695">
        <ele>89</ele>
        <time>2012-02-11T13:50:47Z</time>
      </trkpt>
      <trkpt lat="47.22145" lon="0.03698">
        <ele>89</ele>
        <time>2012-02-11T13:51:14Z</time>
      </trkpt>
      <trkpt lat="47.22142" lon="0.03693">
        <ele>89</ele>
        <time>2012-02-11T13:51:30Z</time>
      </trkpt>
      <trkpt lat="47.22142" lon="0.03686">
        <ele>90</ele>
        <time>2012-02-11T13:51:49Z</time>
      </trkpt>
      <trkpt lat="47.22142" lon="0.03679">
        <ele>90</ele>
        <time>2012-02-11T13:51:58Z</time>
      </trkpt>
      <trkpt lat="47.22139" lon="0.03684">
        <ele>92</ele>
        <time>2012-02-11T13:52:22Z</time>
      </trkpt>
      <trkpt lat="47.22135" lon="0.03687">
        <ele>92</ele>
        <time>2012-02-11T13:52:44Z</time>
      </trkpt>
      <trkpt lat="47.2213" lon="0.03685">
        <ele>92</ele>
        <time>2012-02-11T13:52:58Z</time>
      </trkpt>
      <trkpt lat="47.22128" lon="0.0369">
        <ele>94</ele>
        <time>2012-02-11T13:54:40Z</time>
      </trkpt>
      <trkpt lat="47.22125" lon="0.03697">
        <ele>95</ele>
        <time>2012-02-11T13:55:26Z</time>
      </trkpt>
      <trkpt lat="47.22124" lon="0.03704">
        <ele>96</ele>
        <time>2012-02-11T13:55:31Z</time>
      </trkpt>
      <trkpt lat="47.22122" lon="0.03711">
        <ele>96</ele>
        <time>2012-02-11T13:55:36Z</time>
      </trkpt>
      <trkpt lat="47.22122" lon="0.03718">
        <ele>97</ele>
        <time>2012-02-11T13:55:40Z</time>
      </trkpt>
      <trkpt lat="47.22121" lon="0.03725">
        <ele>97</ele>
        <time>2012-02-11T13:55:47Z</time>
      </trkpt>
      <trkpt lat="47.2212" lon="0.03732">
        <ele>98</ele>
        <time>2012-02-11T13:55:52Z</time>
      </trkpt>
      <trkpt lat="47.22118" lon="0.03738">
        <ele>98</ele>
        <time>2012-02-11T13:55:56Z</time>
      </trkpt>
      <trkpt lat="47.22117" lon="0.03746">
        <ele>99</ele>
        <time>2012-02-11T13:56:01Z</time>
      </trkpt>
      <trkpt lat="47.22115" lon="0.03752">
        <ele>99</ele>
        <time>2012-02-11T13:56:06Z</time>
      </trkpt>
      <trkpt lat="47.22113" lon="0.03759">
        <ele>100</ele>
        <time>2012-02-11T13:56:11Z</time>
      </trkpt>
      <trkpt lat="47.22111" lon="0.03765">
        <ele>100</ele>
        <time>2012-02-11T13:56:16Z</time>
      </trkpt>
      <trkpt lat="47.22109" lon="0.03772">
        <ele>101</ele>
        <time>2012-02-11T13:56:21Z</time>
      </trkpt>
      <trkpt lat="47.22106" lon="0.03778">
        <ele>101</ele>
        <time>2012-02-11T13:56:26Z</time>
      </trkpt>
      <trkpt lat="47.22104" lon="0.03784">
        <ele>101</ele>
        <time>2012-02-11T13:56:31Z</time>
      </trkpt>
      <trkpt lat="47.22102" lon="0.0379">
        <ele>102</ele>
        <time>2012-02-11T13:56:36Z</time>
      </trkpt>
      <trkpt lat="47.221" lon="0.03796">
        <ele>102</ele>
        <time>2012-02-11T13:56:41Z</time>
      </trkpt>
      <trkpt lat="47.22098" lon="0.03803">
        <ele>102</ele>
        <time>2012-02-11T13:56:46Z</time>
      </trkpt>
      <trkpt lat="47.22095" lon="0.03809">
        <ele>102</ele>
        <time>2012-02-11T13:56:51Z</time>
      </trkpt>
      <trkpt lat="47.22092" lon="0.03815">
        <ele>102</ele>
        <time>2012-02-11T13:56:56Z</time>
      </trkpt>
      <trkpt lat="47.22088" lon="0.03821">
        <ele>103</ele>
        <time>2012-02-11T13:57:01Z</time>
      </trkpt>
      <trkpt lat="47.22085" lon="0.03826">
        <ele>103</ele>
        <time>2012-02-11T13:57:06Z</time>
      </trkpt>
      <trkpt lat="47.22081" lon="0.03831">
        <ele>103</ele>
        <time>2012-02-11T13:57:11Z</time>
      </trkpt>
      <trkpt lat="47.22078" lon="0.03836">
        <ele>103</ele>
        <time>2012-02-11T13:57:16Z</time>
      </trkpt>
      <trkpt lat="47.22075" lon="0.03842">
        <ele>103</ele>
        <time>2012-02-11T13:57:21Z</time>
      </trkpt>
      <trkpt lat="47.22072" lon="0.03847">
        <ele>103</ele>
        <time>2012-02-11T13:57:26Z</time>
      </trkpt>
      <trkpt lat="47.2207" lon="0.03853">
        <ele>103</ele>
        <time>2012-02-11T13:57:32Z</time>
      </trkpt>
      <trkpt lat="47.22068" lon="0.0386">
        <ele>103</ele>
        <time>2012-02-11T13:57:39Z</time>
      </trkpt>
      <trkpt lat="47.22065" lon="0.03866">
        <ele>103</ele>
        <time>2012-02-11T13:57:45Z</time>
      </trkpt>
      <trkpt lat="47.22061" lon="0.0387">
        <ele>104</ele>
        <time>2012-02-11T13:57:50Z</time>
      </trkpt>
      <trkpt lat="47.22057" lon="0.03872">
        <ele>104</ele>
        <time>2012-02-11T13:57:55Z</time>
      </trkpt>
      <trkpt lat="47.22052" lon="0.03873">
        <ele>104</ele>
        <time>2012-02-11T13:58:00Z</time>
      </trkpt>
      <trkpt lat="47.22047" lon="0.03875">
        <ele>104</ele>
        <time>2012-02-11T13:58:05Z</time>
      </trkpt>
      <trkpt lat="47.22043" lon="0.03877">
        <ele>104</ele>
        <time>2012-02-11T13:58:10Z</time>
      </trkpt>
      <trkpt lat="47.22038" lon="0.03878">
        <ele>104</ele>
        <time>2012-02-11T13:58:15Z</time>
      </trkpt>
      <trkpt lat="47.22033" lon="0.03879">
        <ele>104</ele>
        <time>2012-02-11T13:58:19Z</time>
      </trkpt>
      <trkpt lat="47.22027" lon="0.0388">
        <ele>104</ele>
        <time>2012-02-11T13:58:24Z</time>
      </trkpt>
      <trkpt lat="47.22022" lon="0.03882">
        <ele>104</ele>
        <time>2012-02-11T13:58:29Z</time>
      </trkpt>
      <trkpt lat="47.22017" lon="0.03884">
        <ele>104</ele>
        <time>2012-02-11T13:58:33Z</time>
      </trkpt>
      <trkpt lat="47.22013" lon="0.03884">
        <ele>104</ele>
        <time>2012-02-11T13:58:38Z</time>
      </trkpt>
      <trkpt lat="47.2201" lon="0.03878">
        <ele>104</ele>
        <time>2012-02-11T13:59:23Z</time>
      </trkpt>
      <trkpt lat="47.22005" lon="0.03876">
        <ele>104</ele>
        <time>2012-02-11T13:59:27Z</time>
      </trkpt>
      <trkpt lat="47.22" lon="0.03874">
        <ele>104</ele>
        <time>2012-02-11T13:59:32Z</time>
      </trkpt>
      <trkpt lat="47.21995" lon="0.03872">
        <ele>104</ele>
        <time>2012-02-11T13:59:36Z</time>
      </trkpt>
      <trkpt lat="47.2199" lon="0.03871">
        <ele>103</ele>
        <time>2012-02-11T13:59:41Z</time>
      </trkpt>
      <trkpt lat="47.21984" lon="0.03871">
        <ele>103</ele>
        <time>2012-02-11T13:59:46Z</time>
      </trkpt>
      <trkpt lat="47.2198" lon="0.0387">
        <ele>103</ele>
        <time>2012-02-11T13:59:51Z</time>
      </trkpt>
      <trkpt lat="47.21975" lon="0.03869">
        <ele>103</ele>
        <time>2012-02-11T13:59:56Z</time>
      </trkpt>
      <trkpt lat="47.2197" lon="0.03867">
        <ele>103</ele>
        <time>2012-02-11T14:00:01Z</time>
      </trkpt>
      <trkpt lat="47.21965" lon="0.03866">
        <ele>103</ele>
        <time>2012-02-11T14:00:06Z</time>
      </trkpt>
      <trkpt lat="47.2196" lon="0.03865">
        <ele>102</ele>
        <time>2012-02-11T14:00:11Z</time>
      </trkpt>
      <trkpt lat="47.21956" lon="0.03865">
        <ele>103</ele>
        <time>2012-02-11T14:00:15Z</time>
      </trkpt>
      <trkpt lat="47.21951" lon="0.03865">
        <ele>103</ele>
        <time>2012-02-11T14:00:19Z</time>
      </trkpt>
      <trkpt lat="47.21946" lon="0.03864">
        <ele>103</ele>
        <time>2012-02-11T14:00:23Z</time>
      </trkpt>
      <trkpt lat="47.21942" lon="0.03864">
        <ele>103</ele>
        <time>2012-02-11T14:00:27Z</time>
      </trkpt>
      <trkpt lat="47.21936" lon="0.03864">
        <ele>103</ele>
        <time>2012-02-11T14:00:32Z</time>
      </trkpt>
      <trkpt lat="47.2193" lon="0.03864">
        <ele>103</ele>
        <time>2012-02-11T14:00:37Z</time>
      </trkpt>
      <trkpt lat="47.21925" lon="0.03862">
        <ele>103</ele>
        <time>2012-02-11T14:00:42Z</time>
      </trkpt>
      <trkpt lat="47.2192" lon="0.03861">
        <ele>103</ele>
        <time>2012-02-11T14:00:46Z</time>
      </trkpt>
      <trkpt lat="47.21915" lon="0.03859">
        <ele>104</ele>
        <time>2012-02-11T14:00:51Z</time>
      </trkpt>
      <trkpt lat="47.2191" lon="0.03856">
        <ele>104</ele>
        <time>2012-02-11T14:00:56Z</time>
      </trkpt>
      <trkpt lat="47.21905" lon="0.03853">
        <ele>104</ele>
        <time>2012-02-11T14:01:01Z</time>
      </trkpt>
      <trkpt lat="47.219" lon="0.0385">
        <ele>104</ele>
        <time>2012-02-11T14:01:06Z</time>
      </trkpt>
      <trkpt lat="47.21895" lon="0.03848">
        <ele>104</ele>
        <time>2012-02-11T14:01:11Z</time>
      </trkpt>
      <trkpt lat="47.2189" lon="0.03846">
        <ele>104</ele>
        <time>2012-02-11T14:01:20Z</time>
      </trkpt>
      <trkpt lat="47.21885" lon="0.03845">
        <ele>105</ele>
        <time>2012-02-11T14:01:44Z</time>
      </trkpt>
      <trkpt lat="47.21881" lon="0.03843">
        <ele>105</ele>
        <time>2012-02-11T14:02:13Z</time>
      </trkpt>
      <trkpt lat="47.21876" lon="0.0384">
        <ele>106</ele>
        <time>2012-02-11T14:02:18Z</time>
      </trkpt>
      <trkpt lat="47.21872" lon="0.03837">
        <ele>106</ele>
        <time>2012-02-11T14:02:22Z</time>
      </trkpt>
      <trkpt lat="47.21867" lon="0.03834">
        <ele>106</ele>
        <time>2012-02-11T14:02:26Z</time>
      </trkpt>
      <trkpt lat="47.21863" lon="0.0383">
        <ele>106</ele>
        <time>2012-02-11T14:02:31Z</time>
      </trkpt>
      <trkpt lat="47.21858" lon="0.03826">
        <ele>107</ele>
        <time>2012-02-11T14:02:36Z</time>
      </trkpt>
      <trkpt lat="47.21853" lon="0.03822">
        <ele>107</ele>
        <time>2012-02-11T14:02:41Z</time>
      </trkpt>
      <trkpt lat="47.21848" lon="0.03819">
        <ele>107</ele>
        <time>2012-02-11T14:02:46Z</time>
      </trkpt>
      <trkpt lat="47.21843" lon="0.03815">
        <ele>107</ele>
        <time>2012-02-11T14:02:51Z</time>
      </trkpt>
      <trkpt lat="47.21838" lon="0.03812">
        <ele>108</ele>
        <time>2012-02-11T14:02:56Z</time>
      </trkpt>
      <trkpt lat="47.21833" lon="0.0381">
        <ele>108</ele>
        <time>2012-02-11T14:03:01Z</time>
      </trkpt>
      <trkpt lat="47.21827" lon="0.03807">
        <ele>108</ele>
        <time>2012-02-11T14:03:06Z</time>
      </trkpt>
      <trkpt lat="47.21823" lon="0.03805">
        <ele>108</ele>
        <time>2012-02-11T14:03:10Z</time>
      </trkpt>
      <trkpt lat="47.21819" lon="0.03803">
        <ele>108</ele>
        <time>2012-02-11T14:03:14Z</time>
      </trkpt>
      <trkpt lat="47.21814" lon="0.03802">
        <ele>109</ele>
        <time>2012-02-11T14:03:18Z</time>
      </trkpt>
      <trkpt lat="47.21809" lon="0.038">
        <ele>109</ele>
        <time>2012-02-11T14:03:22Z</time>
      </trkpt>
      <trkpt lat="47.21805" lon="0.038">
        <ele>109</ele>
        <time>2012-02-11T14:03:26Z</time>
      </trkpt>
      <trkpt lat="47.218" lon="0.03798">
        <ele>109</ele>
        <time>2012-02-11T14:03:30Z</time>
      </trkpt>
      <trkpt lat="47.21795" lon="0.03796">
        <ele>109</ele>
        <time>2012-02-11T14:03:34Z</time>
      </trkpt>
      <trkpt lat="47.21791" lon="0.03794">
        <ele>109</ele>
        <time>2012-02-11T14:03:38Z</time>
      </trkpt>
      <trkpt lat="47.21786" lon="0.03791">
        <ele>110</ele>
        <time>2012-02-11T14:03:42Z</time>
      </trkpt>
      <trkpt lat="47.21782" lon="0.03788">
        <ele>110</ele>
        <time>2012-02-11T14:03:47Z</time>
      </trkpt>
      <trkpt lat="47.21776" lon="0.03784">
        <ele>110</ele>
        <time>2012-02-11T14:03:52Z</time>
      </trkpt>
      <trkpt lat="47.21772" lon="0.0378">
        <ele>110</ele>
        <time>2012-02-11T14:03:56Z</time>
      </trkpt>
      <trkpt lat="47.21768" lon="0.03777">
        <ele>110</ele>
        <time>2012-02-11T14:04:00Z</time>
      </trkpt>
      <trkpt lat="47.21763" lon="0.03774">
        <ele>110</ele>
        <time>2012-02-11T14:04:04Z</time>
      </trkpt>
      <trkpt lat="47.21759" lon="0.03771">
        <ele>110</ele>
        <time>2012-02-11T14:04:08Z</time>
      </trkpt>
      <trkpt lat="47.21755" lon="0.03768">
        <ele>110</ele>
        <time>2012-02-11T14:04:12Z</time>
      </trkpt>
      <trkpt lat="47.2175" lon="0.03766">
        <ele>110</ele>
        <time>2012-02-11T14:04:16Z</time>
      </trkpt>
      <trkpt lat="47.21745" lon="0.03762">
        <ele>110</ele>
        <time>2012-02-11T14:04:21Z</time>
      </trkpt>
      <trkpt lat="47.21741" lon="0.0376">
        <ele>110</ele>
        <time>2012-02-11T14:04:25Z</time>
      </trkpt>
      <trkpt lat="47.21736" lon="0.03757">
        <ele>111</ele>
        <time>2012-02-11T14:04:29Z</time>
      </trkpt>
      <trkpt lat="47.21732" lon="0.03754">
        <ele>111</ele>
        <time>2012-02-11T14:04:33Z</time>
      </trkpt>
      <trkpt lat="47.21728" lon="0.03751">
        <ele>111</ele>
        <time>2012-02-11T14:04:37Z</time>
      </trkpt>
      <trkpt lat="47.21724" lon="0.03748">
        <ele>111</ele>
        <time>2012-02-11T14:04:41Z</time>
      </trkpt>
      <trkpt lat="47.2172" lon="0.03746">
        <ele>111</ele>
        <time>2012-02-11T14:04:45Z</time>
      </trkpt>
      <trkpt lat="47.21715" lon="0.03743">
        <ele>111</ele>
        <time>2012-02-11T14:04:49Z</time>
      </trkpt>
      <trkpt lat="47.2171" lon="0.0374">
        <ele>111</ele>
        <time>2012-02-11T14:04:53Z</time>
      </trkpt>
      <trkpt lat="47.21706" lon="0.03738">
        <ele>112</ele>
        <time>2012-02-11T14:04:57Z</time>
      </trkpt>
      <trkpt lat="47.21701" lon="0.03735">
        <ele>112</ele>
        <time>2012-02-11T14:05:01Z</time>
      </trkpt>
      <trkpt lat="47.21697" lon="0.03733">
        <ele>112</ele>
        <time>2012-02-11T14:05:05Z</time>
      </trkpt>
      <trkpt lat="47.21692" lon="0.0373">
        <ele>112</ele>
        <time>2012-02-11T14:05:09Z</time>
      </trkpt>
      <trkpt lat="47.21688" lon="0.03728">
        <ele>112</ele>
        <time>2012-02-11T14:05:13Z</time>
      </trkpt>
      <trkpt lat="47.21683" lon="0.03725">
        <ele>112</ele>
        <time>2012-02-11T14:05:17Z</time>
      </trkpt>
      <trkpt lat="47.21679" lon="0.03722">
        <ele>112</ele>
        <time>2012-02-11T14:05:21Z</time>
      </trkpt>
      <trkpt lat="47.21674" lon="0.03719">
        <ele>112</ele>
        <time>2012-02-11T14:05:26Z</time>
      </trkpt>
      <trkpt lat="47.21669" lon="0.03716">
        <ele>112</ele>
        <time>2012-02-11T14:05:31Z</time>
      </trkpt>
      <trkpt lat="47.21664" lon="0.03714">
        <ele>112</ele>
        <time>2012-02-11T14:05:36Z</time>
      </trkpt>
      <trkpt lat="47.21659" lon="0.03711">
        <ele>112</ele>
        <time>2012-02-11T14:05:41Z</time>
      </trkpt>
      <trkpt lat="47.21656" lon="0.03706">
        <ele>113</ele>
        <time>2012-02-11T14:06:01Z</time>
      </trkpt>
      <trkpt lat="47.21654" lon="0.03698">
        <ele>113</ele>
        <time>2012-02-11T14:06:06Z</time>
      </trkpt>
      <trkpt lat="47.21654" lon="0.03691">
        <ele>113</ele>
        <time>2012-02-11T14:06:10Z</time>
      </trkpt>
      <trkpt lat="47.21653" lon="0.03684">
        <ele>113</ele>
        <time>2012-02-11T14:06:14Z</time>
      </trkpt>
      <trkpt lat="47.2165" lon="0.03679">
        <ele>113</ele>
        <time>2012-02-11T14:06:19Z</time>
      </trkpt>
      <trkpt lat="47.21645" lon="0.03676">
        <ele>114</ele>
        <time>2012-02-11T14:06:24Z</time>
      </trkpt>
      <trkpt lat="47.2164" lon="0.03672">
        <ele>114</ele>
        <time>2012-02-11T14:06:29Z</time>
      </trkpt>
      <trkpt lat="47.21636" lon="0.0367">
        <ele>114</ele>
        <time>2012-02-11T14:06:33Z</time>
      </trkpt>
      <trkpt lat="47.21631" lon="0.03668">
        <ele>114</ele>
        <time>2012-02-11T14:06:37Z</time>
      </trkpt>
      <trkpt lat="47.21626" lon="0.03666">
        <ele>114</ele>
        <time>2012-02-11T14:06:41Z</time>
      </trkpt>
      <trkpt lat="47.21622" lon="0.03664">
        <ele>114</ele>
        <time>2012-02-11T14:06:45Z</time>
      </trkpt>
      <trkpt lat="47.21617" lon="0.03661">
        <ele>114</ele>
        <time>2012-02-11T14:06:49Z</time>
      </trkpt>
      <trkpt lat="47.21612" lon="0.03658">
        <ele>115</ele>
        <time>2012-02-11T14:06:53Z</time>
      </trkpt>
      <trkpt lat="47.21608" lon="0.03656">
        <ele>115</ele>
        <time>2012-02-11T14:06:57Z</time>
      </trkpt>
      <trkpt lat="47.21603" lon="0.03655">
        <ele>115</ele>
        <time>2012-02-11T14:07:01Z</time>
      </trkpt>
      <trkpt lat="47.21598" lon="0.03653">
        <ele>115</ele>
        <time>2012-02-11T14:07:06Z</time>
      </trkpt>
      <trkpt lat="47.21594" lon="0.03651">
        <ele>115</ele>
        <time>2012-02-11T14:07:10Z</time>
      </trkpt>
      <trkpt lat="47.21589" lon="0.03649">
        <ele>115</ele>
        <time>2012-02-11T14:07:14Z</time>
      </trkpt>
      <trkpt lat="47.21585" lon="0.03646">
        <ele>116</ele>
        <time>2012-02-11T14:07:18Z</time>
      </trkpt>
      <trkpt lat="47.21581" lon="0.03644">
        <ele>116</ele>
        <time>2012-02-11T14:07:22Z</time>
      </trkpt>
      <trkpt lat="47.21576" lon="0.03642">
        <ele>116</ele>
        <time>2012-02-11T14:07:26Z</time>
      </trkpt>
      <trkpt lat="47.21571" lon="0.03641">
        <ele>116</ele>
        <time>2012-02-11T14:07:30Z</time>
      </trkpt>
      <trkpt lat="47.21567" lon="0.0364">
        <ele>116</ele>
        <time>2012-02-11T14:07:34Z</time>
      </trkpt>
      <trkpt lat="47.21561" lon="0.03638">
        <ele>116</ele>
        <time>2012-02-11T14:07:39Z</time>
      </trkpt>
      <trkpt lat="47.21556" lon="0.03637">
        <ele>117</ele>
        <time>2012-02-11T14:07:44Z</time>
      </trkpt>
      <trkpt lat="47.21551" lon="0.03634">
        <ele>117</ele>
        <time>2012-02-11T14:07:50Z</time>
      </trkpt>
      <trkpt lat="47.21547" lon="0.03632">
        <ele>117</ele>
        <time>2012-02-11T14:07:55Z</time>
      </trkpt>
      <trkpt lat="47.21542" lon="0.0363">
        <ele>117</ele>
        <time>2012-02-11T14:08:00Z</time>
      </trkpt>
      <trkpt lat="47.21537" lon="0.03628">
        <ele>118</ele>
        <time>2012-02-11T14:08:05Z</time>
      </trkpt>
      <trkpt lat="47.21532" lon="0.03626">
        <ele>118</ele>
        <time>2012-02-11T14:08:10Z</time>
      </trkpt>
      <trkpt lat="47.21527" lon="0.03624">
        <ele>118</ele>
        <time>2012-02-11T14:08:15Z</time>
      </trkpt>
      <trkpt lat="47.21522" lon="0.03623">
        <ele>118</ele>
        <time>2012-02-11T14:08:20Z</time>
      </trkpt>
      <trkpt lat="47.21518" lon="0.03621">
        <ele>118</ele>
        <time>2012-02-11T14:08:25Z</time>
      </trkpt>
      <trkpt lat="47.21513" lon="0.03619">
        <ele>118</ele>
        <time>2012-02-11T14:08:30Z</time>
      </trkpt>
      <trkpt lat="47.21509" lon="0.03617">
        <ele>118</ele>
        <time>2012-02-11T14:08:35Z</time>
      </trkpt>
      <trkpt lat="47.21504" lon="0.03616">
        <ele>118</ele>
        <time>2012-02-11T14:08:40Z</time>
      </trkpt>
      <trkpt lat="47.21499" lon="0.03614">
        <ele>119</ele>
        <time>2012-02-11T14:08:45Z</time>
      </trkpt>
      <trkpt lat="47.21495" lon="0.03612">
        <ele>119</ele>
        <time>2012-02-11T14:08:50Z</time>
      </trkpt>
      <trkpt lat="47.2149" lon="0.03612">
        <ele>119</ele>
        <time>2012-02-11T14:08:55Z</time>
      </trkpt>
      <trkpt lat="47.21485" lon="0.03612">
        <ele>119</ele>
        <time>2012-02-11T14:09:00Z</time>
      </trkpt>
      <trkpt lat="47.2148" lon="0.0361">
        <ele>119</ele>
        <time>2012-02-11T14:09:05Z</time>
      </trkpt>
      <trkpt lat="47.21475" lon="0.03609">
        <ele>119</ele>
        <time>2012-02-11T14:09:10Z</time>
      </trkpt>
      <trkpt lat="47.2147" lon="0.03607">
        <ele>119</ele>
        <time>2012-02-11T14:09:15Z</time>
      </trkpt>
      <trkpt lat="47.21464" lon="0.03605">
        <ele>120</ele>
        <time>2012-02-11T14:09:20Z</time>
      </trkpt>
      <trkpt lat="47.2146" lon="0.03603">
        <ele>120</ele>
        <time>2012-02-11T14:09:25Z</time>
      </trkpt>
      <trkpt lat="47.21455" lon="0.036">
        <ele>120</ele>
        <time>2012-02-11T14:09:30Z</time>
      </trkpt>
      <trkpt lat="47.2145" lon="0.03597">
        <ele>120</ele>
        <time>2012-02-11T14:09:36Z</time>
      </trkpt>
      <trkpt lat="47.21445" lon="0.03596">
        <ele>120</ele>
        <time>2012-02-11T14:09:46Z</time>
      </trkpt>
      <trkpt lat="47.2144" lon="0.03594">
        <ele>120</ele>
        <time>2012-02-11T14:09:51Z</time>
      </trkpt>
      <trkpt lat="47.21435" lon="0.03592">
        <ele>120</ele>
        <time>2012-02-11T14:09:56Z</time>
      </trkpt>
      <trkpt lat="47.2143" lon="0.0359">
        <ele>121</ele>
        <time>2012-02-11T14:10:01Z</time>
      </trkpt>
      <trkpt lat="47.21425" lon="0.03588">
        <ele>121</ele>
        <time>2012-02-11T14:10:06Z</time>
      </trkpt>
      <trkpt lat="47.2142" lon="0.03587">
        <ele>121</ele>
        <time>2012-02-11T14:10:11Z</time>
      </trkpt>
      <trkpt lat="47.21415" lon="0.03586">
        <ele>121</ele>
        <time>2012-02-11T14:10:16Z</time>
      </trkpt>
      <trkpt lat="47.2141" lon="0.03584">
        <ele>121</ele>
        <time>2012-02-11T14:10:21Z</time>
      </trkpt>
      <trkpt lat="47.21404" lon="0.03581">
        <ele>121</ele>
        <time>2012-02-11T14:10:26Z</time>
      </trkpt>
      <trkpt lat="47.214" lon="0.03578">
        <ele>121</ele>
        <time>2012-02-11T14:10:31Z</time>
      </trkpt>
      <trkpt lat="47.21399" lon="0.0357">
        <ele>122</ele>
        <time>2012-02-11T14:10:36Z</time>
      </trkpt>
      <trkpt lat="47.21398" lon="0.03562">
        <ele>122</ele>
        <time>2012-02-11T14:10:41Z</time>
      </trkpt>
      <trkpt lat="47.21399" lon="0.03554">
        <ele>122</ele>
        <time>2012-02-11T14:10:46Z</time>
      </trkpt>
      <trkpt lat="47.21399" lon="0.03547">
        <ele>122</ele>
        <time>2012-02-11T14:10:50Z</time>
      </trkpt>
      <trkpt lat="47.214" lon="0.03539">
        <ele>122</ele>
        <time>2012-02-11T14:10:55Z</time>
      </trkpt>
      <trkpt lat="47.21401" lon="0.03531">
        <ele>123</ele>
        <time>2012-02-11T14:11:00Z</time>
      </trkpt>
      <trkpt lat="47.21402" lon="0.03523">
        <ele>123</ele>
        <time>2012-02-11T14:11:05Z</time>
      </trkpt>
      <trkpt lat="47.21402" lon="0.03516">
        <ele>123</ele>
        <time>2012-02-11T14:11:09Z</time>
      </trkpt>
      <trkpt lat="47.21403" lon="0.0351">
        <ele>123</ele>
        <time>2012-02-11T14:11:13Z</time>
      </trkpt>
      <trkpt lat="47.21403" lon="0.03503">
        <ele>123</ele>
        <time>2012-02-11T14:11:17Z</time>
      </trkpt>
      <trkpt lat="47.21404" lon="0.03495">
        <ele>123</ele>
        <time>2012-02-11T14:11:22Z</time>
      </trkpt>
      <trkpt lat="47.21404" lon="0.03488">
        <ele>123</ele>
        <time>2012-02-11T14:11:26Z</time>
      </trkpt>
      <trkpt lat="47.21404" lon="0.03481">
        <ele>123</ele>
        <time>2012-02-11T14:11:30Z</time>
      </trkpt>
      <trkpt lat="47.21404" lon="0.03474">
        <ele>123</ele>
        <time>2012-02-11T14:11:34Z</time>
      </trkpt>
      <trkpt lat="47.21405" lon="0.03467">
        <ele>123</ele>
        <time>2012-02-11T14:11:38Z</time>
      </trkpt>
      <trkpt lat="47.21405" lon="0.0346">
        <ele>123</ele>
        <time>2012-02-11T14:11:42Z</time>
      </trkpt>
      <trkpt lat="47.21405" lon="0.03453">
        <ele>123</ele>
        <time>2012-02-11T14:11:46Z</time>
      </trkpt>
      <trkpt lat="47.21406" lon="0.03446">
        <ele>123</ele>
        <time>2012-02-11T14:11:50Z</time>
      </trkpt>
      <trkpt lat="47.21406" lon="0.03439">
        <ele>123</ele>
        <time>2012-02-11T14:11:54Z</time>
      </trkpt>
      <trkpt lat="47.21407" lon="0.03432">
        <ele>123</ele>
        <time>2012-02-11T14:11:58Z</time>
      </trkpt>
      <trkpt lat="47.21408" lon="0.03425">
        <ele>123</ele>
        <time>2012-02-11T14:12:02Z</time>
      </trkpt>
      <trkpt lat="47.2141" lon="0.03418">
        <ele>123</ele>
        <time>2012-02-11T14:12:06Z</time>
      </trkpt>
      <trkpt lat="47.21411" lon="0.03411">
        <ele>123</ele>
        <time>2012-02-11T14:12:11Z</time>
      </trkpt>
      <trkpt lat="47.21412" lon="0.03404">
        <ele>123</ele>
        <time>2012-02-11T14:12:15Z</time>
      </trkpt>
      <trkpt lat="47.21412" lon="0.03396">
        <ele>123</ele>
        <time>2012-02-11T14:12:20Z</time>
      </trkpt>
      <trkpt lat="47.21413" lon="0.03388">
        <ele>123</ele>
        <time>2012-02-11T14:12:25Z</time>
      </trkpt>
      <trkpt lat="47.21414" lon="0.0338">
        <ele>123</ele>
        <time>2012-02-11T14:12:30Z</time>
      </trkpt>
      <trkpt lat="47.21414" lon="0.03372">
        <ele>123</ele>
        <time>2012-02-11T14:12:35Z</time>
      </trkpt>
      <trkpt lat="47.21413" lon="0.03365">
        <ele>123</ele>
        <time>2012-02-11T14:12:40Z</time>
      </trkpt>
      <trkpt lat="47.21408" lon="0.03366">
        <ele>123</ele>
        <time>2012-02-11T14:12:51Z</time>
      </trkpt>
      <trkpt lat="47.21404" lon="0.03372">
        <ele>123</ele>
        <time>2012-02-11T14:12:55Z</time>
      </trkpt>
      <trkpt lat="47.214" lon="0.03377">
        <ele>123</ele>
        <time>2012-02-11T14:12:59Z</time>
      </trkpt>
      <trkpt lat="47.21396" lon="0.03382">
        <ele>123</ele>
        <time>2012-02-11T14:13:03Z</time>
      </trkpt>
      <trkpt lat="47.21392" lon="0.03387">
        <ele>123</ele>
        <time>2012-02-11T14:13:07Z</time>
      </trkpt>
      <trkpt lat="47.21387" lon="0.03391">
        <ele>123</ele>
        <time>2012-02-11T14:13:11Z</time>
      </trkpt>
      <trkpt lat="47.21383" lon="0.03393">
        <ele>123</ele>
        <time>2012-02-11T14:13:15Z</time>
      </trkpt>
      <trkpt lat="47.21378" lon="0.03394">
        <ele>123</ele>
        <time>2012-02-11T14:13:20Z</time>
      </trkpt>
      <trkpt lat="47.21372" lon="0.03396">
        <ele>123</ele>
        <time>2012-02-11T14:13:25Z</time>
      </trkpt>
      <trkpt lat="47.21367" lon="0.03399">
        <ele>123</ele>
        <time>2012-02-11T14:13:30Z</time>
      </trkpt>
      <trkpt lat="47.21362" lon="0.03401">
        <ele>123</ele>
        <time>2012-02-11T14:13:35Z</time>
      </trkpt>
      <trkpt lat="47.21357" lon="0.03403">
        <ele>123</ele>
        <time>2012-02-11T14:13:40Z</time>
      </trkpt>
      <trkpt lat="47.21352" lon="0.03405">
        <ele>123</ele>
        <time>2012-02-11T14:13:44Z</time>
      </trkpt>
      <trkpt lat="47.21348" lon="0.03407">
        <ele>123</ele>
        <time>2012-02-11T14:13:48Z</time>
      </trkpt>
      <trkpt lat="47.21343" lon="0.03409">
        <ele>123</ele>
        <time>2012-02-11T14:13:52Z</time>
      </trkpt>
      <trkpt lat="47.21339" lon="0.0341">
        <ele>123</ele>
        <time>2012-02-11T14:13:56Z</time>
      </trkpt>
      <trkpt lat="47.21334" lon="0.03412">
        <ele>123</ele>
        <time>2012-02-11T14:14:00Z</time>
      </trkpt>
      <trkpt lat="47.2133" lon="0.03414">
        <ele>123</ele>
        <time>2012-02-11T14:14:04Z</time>
      </trkpt>
      <trkpt lat="47.21325" lon="0.03415">
        <ele>123</ele>
        <time>2012-02-11T14:14:08Z</time>
      </trkpt>
      <trkpt lat="47.2132" lon="0.03416">
        <ele>123</ele>
        <time>2012-02-11T14:14:12Z</time>
      </trkpt>
      <trkpt lat="47.21315" lon="0.03417">
        <ele>123</ele>
        <time>2012-02-11T14:14:16Z</time>
      </trkpt>
      <trkpt lat="47.21311" lon="0.03418">
        <ele>123</ele>
        <time>2012-02-11T14:14:20Z</time>
      </trkpt>
      <trkpt lat="47.21306" lon="0.03419">
        <ele>123</ele>
        <time>2012-02-11T14:14:24Z</time>
      </trkpt>
      <trkpt lat="47.21301" lon="0.0342">
        <ele>123</ele>
        <time>2012-02-11T14:14:28Z</time>
      </trkpt>
      <trkpt lat="47.21296" lon="0.03419">
        <ele>123</ele>
        <time>2012-02-11T14:14:33Z</time>
      </trkpt>
      <trkpt lat="47.21291" lon="0.03418">
        <ele>123</ele>
        <time>2012-02-11T14:14:37Z</time>
      </trkpt>
      <trkpt lat="47.21286" lon="0.03417">
        <ele>123</ele>
        <time>2012-02-11T14:14:41Z</time>
      </trkpt>
      <trkpt lat="47.21282" lon="0.03416">
        <ele>123</ele>
        <time>2012-02-11T14:14:45Z</time>
      </trkpt>
      <trkpt lat="47.21277" lon="0.03415">
        <ele>123</ele>
        <time>2012-02-11T14:14:49Z</time>
      </trkpt>
      <trkpt lat="47.21272" lon="0.03414">
        <ele>123</ele>
        <time>2012-02-11T14:14:53Z</time>
      </trkpt>
      <trkpt lat="47.21268" lon="0.03412">
        <ele>123</ele>
        <time>2012-02-11T14:14:57Z</time>
      </trkpt>
      <trkpt lat="47.21263" lon="0.0341">
        <ele>123</ele>
        <time>2012-02-11T14:15:01Z</time>
      </trkpt>
      <trkpt lat="47.21258" lon="0.03408">
        <ele>123</ele>
        <time>2012-02-11T14:15:05Z</time>
      </trkpt>
      <trkpt lat="47.21254" lon="0.03406">
        <ele>123</ele>
        <time>2012-02-11T14:15:09Z</time>
      </trkpt>
      <trkpt lat="47.21249" lon="0.03404">
        <ele>123</ele>
        <time>2012-02-11T14:15:13Z</time>
      </trkpt>
      <trkpt lat="47.21245" lon="0.03402">
        <ele>123</ele>
        <time>2012-02-11T14:15:17Z</time>
      </trkpt>
      <trkpt lat="47.2124" lon="0.03399">
        <ele>123</ele>
        <time>2012-02-11T14:15:22Z</time>
      </trkpt>
      <trkpt lat="47.21235" lon="0.03396">
        <ele>123</ele>
        <time>2012-02-11T14:15:26Z</time>
      </trkpt>
      <trkpt lat="47.2123" lon="0.03394">
        <ele>123</ele>
        <time>2012-02-11T14:15:31Z</time>
      </trkpt>
      <trkpt lat="47.21225" lon="0.03392">
        <ele>123</ele>
        <time>2012-02-11T14:15:36Z</time>
      </trkpt>
      <trkpt lat="47.2122" lon="0.0339">
        <ele>123</ele>
        <time>2012-02-11T14:15:40Z</time>
      </trkpt>
      <trkpt lat="47.21216" lon="0.03388">
        <ele>123</ele>
        <time>2012-02-11T14:15:44Z</time>
      </trkpt>
      <trkpt lat="47.21211" lon="0.03386">
        <ele>123</ele>
        <time>2012-02-11T14:15:48Z</time>
      </trkpt>
      <trkpt lat="47.21207" lon="0.03384">
        <ele>123</ele>
        <time>2012-02-11T14:15:52Z</time>
      </trkpt>
      <trkpt lat="47.21202" lon="0.03382">
        <ele>123</ele>
        <time>2012-02-11T14:15:56Z</time>
      </trkpt>
      <trkpt lat="47.21197" lon="0.0338">
        <ele>122</ele>
        <time>2012-02-11T14:16:00Z</time>
      </trkpt>
      <trkpt lat="47.21193" lon="0.03378">
        <ele>122</ele>
        <time>2012-02-11T14:16:04Z</time>
      </trkpt>
      <trkpt lat="47.21188" lon="0.03376">
        <ele>122</ele>
        <time>2012-02-11T14:16:08Z</time>
      </trkpt>
      <trkpt lat="47.21183" lon="0.03375">
        <ele>122</ele>
        <time>2012-02-11T14:16:12Z</time>
      </trkpt>
      <trkpt lat="47.21178" lon="0.03374">
        <ele>122</ele>
        <time>2012-02-11T14:16:16Z</time>
      </trkpt>
      <trkpt lat="47.21173" lon="0.03374">
        <ele>122</ele>
        <time>2012-02-11T14:16:20Z</time>
      </trkpt>
      <trkpt lat="47.21168" lon="0.03372">
        <ele>122</ele>
        <time>2012-02-11T14:16:24Z</time>
      </trkpt>
      <trkpt lat="47.21163" lon="0.03371">
        <ele>122</ele>
        <time>2012-02-11T14:16:28Z</time>
      </trkpt>
      <trkpt lat="47.21158" lon="0.0337">
        <ele>122</ele>
        <time>2012-02-11T14:16:32Z</time>
      </trkpt>
      <trkpt lat="47.21153" lon="0.03369">
        <ele>122</ele>
        <time>2012-02-11T14:16:36Z</time>
      </trkpt>
      <trkpt lat="47.21149" lon="0.03369">
        <ele>122</ele>
        <time>2012-02-11T14:16:40Z</time>
      </trkpt>
      <trkpt lat="47.21144" lon="0.03368">
        <ele>122</ele>
        <time>2012-02-11T14:16:44Z</time>
      </trkpt>
      <trkpt lat="47.21139" lon="0.03368">
        <ele>122</ele>
        <time>2012-02-11T14:16:48Z</time>
      </trkpt>
      <trkpt lat="47.21135" lon="0.03367">
        <ele>122</ele>
        <time>2012-02-11T14:16:52Z</time>
      </trkpt>
      <trkpt lat="47.2113" lon="0.03367">
        <ele>122</ele>
        <time>2012-02-11T14:16:57Z</time>
      </trkpt>
      <trkpt lat="47.21124" lon="0.03366">
        <ele>122</ele>
        <time>2012-02-11T14:17:02Z</time>
      </trkpt>
      <trkpt lat="47.21119" lon="0.03366">
        <ele>122</ele>
        <time>2012-02-11T14:17:07Z</time>
      </trkpt>
      <trkpt lat="47.21114" lon="0.03366">
        <ele>122</ele>
        <time>2012-02-11T14:17:12Z</time>
      </trkpt>
      <trkpt lat="47.21109" lon="0.03367">
        <ele>122</ele>
        <time>2012-02-11T14:17:17Z</time>
      </trkpt>
      <trkpt lat="47.21104" lon="0.03369">
        <ele>122</ele>
        <time>2012-02-11T14:17:22Z</time>
      </trkpt>
      <trkpt lat="47.21098" lon="0.03371">
        <ele>122</ele>
        <time>2012-02-11T14:17:27Z</time>
      </trkpt>
      <trkpt lat="47.21094" lon="0.03373">
        <ele>122</ele>
        <time>2012-02-11T14:17:31Z</time>
      </trkpt>
      <trkpt lat="47.21089" lon="0.03375">
        <ele>122</ele>
        <time>2012-02-11T14:17:35Z</time>
      </trkpt>
      <trkpt lat="47.21084" lon="0.03378">
        <ele>122</ele>
        <time>2012-02-11T14:17:40Z</time>
      </trkpt>
      <trkpt lat="47.21079" lon="0.0338">
        <ele>122</ele>
        <time>2012-02-11T14:17:45Z</time>
      </trkpt>
      <trkpt lat="47.21074" lon="0.03383">
        <ele>122</ele>
        <time>2012-02-11T14:17:49Z</time>
      </trkpt>
      <trkpt lat="47.2107" lon="0.03385">
        <ele>122</ele>
        <time>2012-02-11T14:17:53Z</time>
      </trkpt>
      <trkpt lat="47.21065" lon="0.03388">
        <ele>122</ele>
        <time>2012-02-11T14:17:57Z</time>
      </trkpt>
      <trkpt lat="47.21061" lon="0.03391">
        <ele>123</ele>
        <time>2012-02-11T14:18:01Z</time>
      </trkpt>
      <trkpt lat="47.21057" lon="0.03394">
        <ele>123</ele>
        <time>2012-02-11T14:18:05Z</time>
      </trkpt>
      <trkpt lat="47.21052" lon="0.03398">
        <ele>123</ele>
        <time>2012-02-11T14:18:10Z</time>
      </trkpt>
      <trkpt lat="47.21048" lon="0.03403">
        <ele>123</ele>
        <time>2012-02-11T14:18:15Z</time>
      </trkpt>
      <trkpt lat="47.21044" lon="0.03407">
        <ele>123</ele>
        <time>2012-02-11T14:18:19Z</time>
      </trkpt>
      <trkpt lat="47.21041" lon="0.03412">
        <ele>123</ele>
        <time>2012-02-11T14:18:23Z</time>
      </trkpt>
      <trkpt lat="47.21037" lon="0.03417">
        <ele>123</ele>
        <time>2012-02-11T14:18:27Z</time>
      </trkpt>
      <trkpt lat="47.21034" lon="0.03422">
        <ele>123</ele>
        <time>2012-02-11T14:18:31Z</time>
      </trkpt>
      <trkpt lat="47.2103" lon="0.03427">
        <ele>123</ele>
        <time>2012-02-11T14:18:35Z</time>
      </trkpt>
      <trkpt lat="47.21027" lon="0.03433">
        <ele>123</ele>
        <time>2012-02-11T14:18:40Z</time>
      </trkpt>
      <trkpt lat="47.21023" lon="0.03439">
        <ele>123</ele>
        <time>2012-02-11T14:18:45Z</time>
      </trkpt>
      <trkpt lat="47.2102" lon="0.03444">
        <ele>123</ele>
        <time>2012-02-11T14:18:50Z</time>
      </trkpt>
      <trkpt lat="47.21016" lon="0.0345">
        <ele>123</ele>
        <time>2012-02-11T14:18:55Z</time>
      </trkpt>
      <trkpt lat="47.21013" lon="0.03456">
        <ele>123</ele>
        <time>2012-02-11T14:19:00Z</time>
      </trkpt>
      <trkpt lat="47.21009" lon="0.03461">
        <ele>123</ele>
        <time>2012-02-11T14:19:05Z</time>
      </trkpt>
      <trkpt lat="47.21006" lon="0.03466">
        <ele>123</ele>
        <time>2012-02-11T14:19:10Z</time>
      </trkpt>
      <trkpt lat="47.21002" lon="0.03472">
        <ele>123</ele>
        <time>2012-02-11T14:19:15Z</time>
      </trkpt>
      <trkpt lat="47.20998" lon="0.03477">
        <ele>123</ele>
        <time>2012-02-11T14:19:20Z</time>
      </trkpt>
      <trkpt lat="47.20994" lon="0.03482">
        <ele>123</ele>
        <time>2012-02-11T14:19:25Z</time>
      </trkpt>
      <trkpt lat="47.2099" lon="0.03488">
        <ele>123</ele>
        <time>2012-02-11T14:19:30Z</time>
      </trkpt>
      <trkpt lat="47.20986" lon="0.03494">
        <ele>123</ele>
        <time>2012-02-11T14:19:35Z</time>
      </trkpt>
      <trkpt lat="47.20982" lon="0.03499">
        <ele>123</ele>
        <time>2012-02-11T14:19:40Z</time>
      </trkpt>
      <trkpt lat="47.20979" lon="0.03504">
        <ele>123</ele>
        <time>2012-02-11T14:19:44Z</time>
      </trkpt>
      <trkpt lat="47.20976" lon="0.03509">
        <ele>123</ele>
        <time>2012-02-11T14:19:48Z</time>
      </trkpt>
      <trkpt lat="47.20972" lon="0.03513">
        <ele>123</ele>
        <time>2012-02-11T14:19:52Z</time>
      </trkpt>
      <trkpt lat="47.20969" lon="0.03518">
        <ele>123</ele>
        <time>2012-02-11T14:19:56Z</time>
      </trkpt>
      <trkpt lat="47.20965" lon="0.03523">
        <ele>123</ele>
        <time>2012-02-11T14:20:00Z</time>
      </trkpt>
      <trkpt lat="47.20961" lon="0.03528">
        <ele>123</ele>
        <time>2012-02-11T14:20:04Z</time>
      </trkpt>
      <trkpt lat="47.20958" lon="0.03532">
        <ele>123</ele>
        <time>2012-02-11T14:20:08Z</time>
      </trkpt>
      <trkpt lat="47.20955" lon="0.03537">
        <ele>123</ele>
        <time>2012-02-11T14:20:12Z</time>
      </trkpt>
      <trkpt lat="47.2095" lon="0.03542">
        <ele>123</ele>
        <time>2012-02-11T14:20:17Z</time>
      </trkpt>
      <trkpt lat="47.20946" lon="0.03547">
        <ele>123</ele>
        <time>2012-02-11T14:20:22Z</time>
      </trkpt>
      <trkpt lat="47.20942" lon="0.03553">
        <ele>123</ele>
        <time>2012-02-11T14:20:27Z</time>
      </trkpt>
      <trkpt lat="47.20939" lon="0.03557">
        <ele>123</ele>
        <time>2012-02-11T14:20:31Z</time>
      </trkpt>
      <trkpt lat="47.20935" lon="0.03562">
        <ele>123</ele>
        <time>2012-02-11T14:20:35Z</time>
      </trkpt>
      <trkpt lat="47.20932" lon="0.03568">
        <ele>123</ele>
        <time>2012-02-11T14:20:39Z</time>
      </trkpt>
      <trkpt lat="47.20928" lon="0.03572">
        <ele>123</ele>
        <time>2012-02-11T14:20:43Z</time>
      </trkpt>
      <trkpt lat="47.20924" lon="0.03577">
        <ele>123</ele>
        <time>2012-02-11T14:20:47Z</time>
      </trkpt>
      <trkpt lat="47.20921" lon="0.03582">
        <ele>123</ele>
        <time>2012-02-11T14:20:51Z</time>
      </trkpt>
      <trkpt lat="47.20917" lon="0.03586">
        <ele>123</ele>
        <time>2012-02-11T14:20:55Z</time>
      </trkpt>
      <trkpt lat="47.20913" lon="0.03591">
        <ele>123</ele>
        <time>2012-02-11T14:20:59Z</time>
      </trkpt>
      <trkpt lat="47.2091" lon="0.03596">
        <ele>123</ele>
        <time>2012-02-11T14:21:03Z</time>
      </trkpt>
      <trkpt lat="47.20907" lon="0.03601">
        <ele>123</ele>
        <time>2012-02-11T14:21:07Z</time>
      </trkpt>
      <trkpt lat="47.20903" lon="0.03607">
        <ele>123</ele>
        <time>2012-02-11T14:21:12Z</time>
      </trkpt>
      <trkpt lat="47.209" lon="0.03612">
        <ele>123</ele>
        <time>2012-02-11T14:21:17Z</time>
      </trkpt>
      <trkpt lat="47.20896" lon="0.03618">
        <ele>123</ele>
        <time>2012-02-11T14:21:22Z</time>
      </trkpt>
      <trkpt lat="47.20892" lon="0.03624">
        <ele>123</ele>
        <time>2012-02-11T14:21:27Z</time>
      </trkpt>
      <trkpt lat="47.20889" lon="0.03629">
        <ele>124</ele>
        <time>2012-02-11T14:21:31Z</time>
      </trkpt>
      <trkpt lat="47.20886" lon="0.03635">
        <ele>124</ele>
        <time>2012-02-11T14:21:36Z</time>
      </trkpt>
      <trkpt lat="47.20882" lon="0.03641">
        <ele>124</ele>
        <time>2012-02-11T14:21:41Z</time>
      </trkpt>
      <trkpt lat="47.20879" lon="0.03648">
        <ele>124</ele>
        <time>2012-02-11T14:21:46Z</time>
      </trkpt>
      <trkpt lat="47.20876" lon="0.03653">
        <ele>124</ele>
        <time>2012-02-11T14:21:50Z</time>
      </trkpt>
      <trkpt lat="47.20872" lon="0.03658">
        <ele>124</ele>
        <time>2012-02-11T14:21:55Z</time>
      </trkpt>
      <trkpt lat="47.20868" lon="0.03662">
        <ele>124</ele>
        <time>2012-02-11T14:22:57Z</time>
      </trkpt>
      <trkpt lat="47.20864" lon="0.03668">
        <ele>124</ele>
        <time>2012-02-11T14:23:02Z</time>
      </trkpt>
      <trkpt lat="47.2086" lon="0.03674">
        <ele>125</ele>
        <time>2012-02-11T14:23:07Z</time>
      </trkpt>
      <trkpt lat="47.20857" lon="0.03681">
        <ele>125</ele>
        <time>2012-02-11T14:23:12Z</time>
      </trkpt>
      <trkpt lat="47.20854" lon="0.03687">
        <ele>125</ele>
        <time>2012-02-11T14:23:17Z</time>
      </trkpt>
      <trkpt lat="47.20851" lon="0.03692">
        <ele>125</ele>
        <time>2012-02-11T14:23:22Z</time>
      </trkpt>
      <trkpt lat="47.20848" lon="0.03697">
        <ele>125</ele>
        <time>2012-02-11T14:23:27Z</time>
      </trkpt>
      <trkpt lat="47.20845" lon="0.03703">
        <ele>125</ele>
        <time>2012-02-11T14:23:33Z</time>
      </trkpt>
      <trkpt lat="47.20842" lon="0.03709">
        <ele>125</ele>
        <time>2012-02-11T14:23:51Z</time>
      </trkpt>
      <trkpt lat="47.20844" lon="0.03716">
        <ele>125</ele>
        <time>2012-02-11T14:24:53Z</time>
      </trkpt>
      <trkpt lat="47.20847" lon="0.03722">
        <ele>125</ele>
        <time>2012-02-11T14:24:58Z</time>
      </trkpt>
      <trkpt lat="47.2085" lon="0.03727">
        <ele>125</ele>
        <time>2012-02-11T14:25:03Z</time>
      </trkpt>
      <trkpt lat="47.20854" lon="0.03732">
        <ele>125</ele>
        <time>2012-02-11T14:25:09Z</time>
      </trkpt>
      <trkpt lat="47.20858" lon="0.03736">
        <ele>125</ele>
        <time>2012-02-11T14:25:15Z</time>
      </trkpt>
      <trkpt lat="47.20861" lon="0.03741">
        <ele>125</ele>
        <time>2012-02-11T14:25:21Z</time>
      </trkpt>
      <trkpt lat="47.20864" lon="0.03746">
        <ele>125</ele>
        <time>2012-02-11T14:25:27Z</time>
      </trkpt>
      <trkpt lat="47.20868" lon="0.0375">
        <ele>125</ele>
        <time>2012-02-11T14:25:34Z</time>
      </trkpt>
      <trkpt lat="47.20872" lon="0.03753">
        <ele>125</ele>
        <time>2012-02-11T14:25:39Z</time>
      </trkpt>
      <trkpt lat="47.20877" lon="0.03756">
        <ele>125</ele>
        <time>2012-02-11T14:25:44Z</time>
      </trkpt>
      <trkpt lat="47.20882" lon="0.03759">
        <ele>125</ele>
        <time>2012-02-11T14:25:49Z</time>
      </trkpt>
      <trkpt lat="47.20887" lon="0.03762">
        <ele>125</ele>
        <time>2012-02-11T14:25:54Z</time>
      </trkpt>
      <trkpt lat="47.20891" lon="0.03765">
        <ele>124</ele>
        <time>2012-02-11T14:25:59Z</time>
      </trkpt>
      <trkpt lat="47.20896" lon="0.03768">
        <ele>124</ele>
        <time>2012-02-11T14:26:04Z</time>
      </trkpt>
      <trkpt lat="47.20901" lon="0.03772">
        <ele>124</ele>
        <time>2012-02-11T14:26:09Z</time>
      </trkpt>
      <trkpt lat="47.20905" lon="0.03776">
        <ele>124</ele>
        <time>2012-02-11T14:26:13Z</time>
      </trkpt>
      <trkpt lat="47.20909" lon="0.0378">
        <ele>124</ele>
        <time>2012-02-11T14:26:17Z</time>
      </trkpt>
      <trkpt lat="47.20912" lon="0.03785">
        <ele>124</ele>
        <time>2012-02-11T14:26:21Z</time>
      </trkpt>
      <trkpt lat="47.20916" lon="0.03789">
        <ele>124</ele>
        <time>2012-02-11T14:26:25Z</time>
      </trkpt>
      <trkpt lat="47.20919" lon="0.03793">
        <ele>124</ele>
        <time>2012-02-11T14:26:29Z</time>
      </trkpt>
      <trkpt lat="47.20923" lon="0.03797">
        <ele>124</ele>
        <time>2012-02-11T14:26:33Z</time>
      </trkpt>
      <trkpt lat="47.20927" lon="0.03801">
        <ele>123</ele>
        <time>2012-02-11T14:26:37Z</time>
      </trkpt>
      <trkpt lat="47.2093" lon="0.03805">
        <ele>123</ele>
        <time>2012-02-11T14:26:41Z</time>
      </trkpt>
      <trkpt lat="47.20934" lon="0.03809">
        <ele>123</ele>
        <time>2012-02-11T14:26:45Z</time>
      </trkpt>
      <trkpt lat="47.20938" lon="0.03813">
        <ele>123</ele>
        <time>2012-02-11T14:26:49Z</time>
      </trkpt>
      <trkpt lat="47.20942" lon="0.03816">
        <ele>123</ele>
        <time>2012-02-11T14:26:53Z</time>
      </trkpt>
      <trkpt lat="47.20947" lon="0.03819">
        <ele>123</ele>
        <time>2012-02-11T14:26:57Z</time>
      </trkpt>
      <trkpt lat="47.20951" lon="0.03823">
        <ele>123</ele>
        <time>2012-02-11T14:27:01Z</time>
      </trkpt>
      <trkpt lat="47.20955" lon="0.03826">
        <ele>123</ele>
        <time>2012-02-11T14:27:05Z</time>
      </trkpt>
      <trkpt lat="47.20958" lon="0.0383">
        <ele>123</ele>
        <time>2012-02-11T14:27:09Z</time>
      </trkpt>
      <trkpt lat="47.20962" lon="0.03834">
        <ele>123</ele>
        <time>2012-02-11T14:27:14Z</time>
      </trkpt>
      <trkpt lat="47.20967" lon="0.03838">
        <ele>123</ele>
        <time>2012-02-11T14:27:24Z</time>
      </trkpt>
      <trkpt lat="47.20971" lon="0.03842">
        <ele>123</ele>
        <time>2012-02-11T14:27:29Z</time>
      </trkpt>
      <trkpt lat="47.20975" lon="0.03846">
        <ele>123</ele>
        <time>2012-02-11T14:27:34Z</time>
      </trkpt>
      <trkpt lat="47.20979" lon="0.0385">
        <ele>123</ele>
        <time>2012-02-11T14:27:39Z</time>
      </trkpt>
      <trkpt lat="47.20983" lon="0.03854">
        <ele>123</ele>
        <time>2012-02-11T14:27:44Z</time>
      </trkpt>
      <trkpt lat="47.20988" lon="0.03858">
        <ele>122</ele>
        <time>2012-02-11T14:27:49Z</time>
      </trkpt>
      <trkpt lat="47.20992" lon="0.03863">
        <ele>122</ele>
        <time>2012-02-11T14:27:54Z</time>
      </trkpt>
      <trkpt lat="47.20996" lon="0.03867">
        <ele>122</ele>
        <time>2012-02-11T14:27:59Z</time>
      </trkpt>
      <trkpt lat="47.21" lon="0.03872">
        <ele>122</ele>
        <time>2012-02-11T14:28:04Z</time>
      </trkpt>
      <trkpt lat="47.21004" lon="0.03878">
        <ele>122</ele>
        <time>2012-02-11T14:28:09Z</time>
      </trkpt>
      <trkpt lat="47.21008" lon="0.03883">
        <ele>122</ele>
        <time>2012-02-11T14:28:14Z</time>
      </trkpt>
      <trkpt lat="47.21012" lon="0.03886">
        <ele>122</ele>
        <time>2012-02-11T14:28:18Z</time>
      </trkpt>
      <trkpt lat="47.21017" lon="0.03891">
        <ele>122</ele>
        <time>2012-02-11T14:28:23Z</time>
      </trkpt>
      <trkpt lat="47.21021" lon="0.03897">
        <ele>122</ele>
        <time>2012-02-11T14:28:28Z</time>
      </trkpt>
      <trkpt lat="47.21024" lon="0.039">
        <ele>122</ele>
        <time>2012-02-11T14:28:32Z</time>
      </trkpt>
      <trkpt lat="47.21028" lon="0.03904">
        <ele>122</ele>
        <time>2012-02-11T14:28:36Z</time>
      </trkpt>
      <trkpt lat="47.21032" lon="0.03908">
        <ele>122</ele>
        <time>2012-02-11T14:28:40Z</time>
      </trkpt>
      <trkpt lat="47.21036" lon="0.03912">
        <ele>122</ele>
        <time>2012-02-11T14:28:44Z</time>
      </trkpt>
      <trkpt lat="47.2104" lon="0.03915">
        <ele>122</ele>
        <time>2012-02-11T14:28:48Z</time>
      </trkpt>
      <trkpt lat="47.21044" lon="0.03919">
        <ele>122</ele>
        <time>2012-02-11T14:28:52Z</time>
      </trkpt>
      <trkpt lat="47.21047" lon="0.03924">
        <ele>122</ele>
        <time>2012-02-11T14:28:56Z</time>
      </trkpt>
      <trkpt lat="47.21051" lon="0.03928">
        <ele>122</ele>
        <time>2012-02-11T14:29:00Z</time>
      </trkpt>
      <trkpt lat="47.21055" lon="0.03932">
        <ele>122</ele>
        <time>2012-02-11T14:29:04Z</time>
      </trkpt>
      <trkpt lat="47.21058" lon="0.03936">
        <ele>122</ele>
        <time>2012-02-11T14:29:08Z</time>
      </trkpt>
      <trkpt lat="47.21062" lon="0.0394">
        <ele>122</ele>
        <time>2012-02-11T14:29:12Z</time>
      </trkpt>
      <trkpt lat="47.21066" lon="0.03944">
        <ele>122</ele>
        <time>2012-02-11T14:29:16Z</time>
      </trkpt>
      <trkpt lat="47.2107" lon="0.03948">
        <ele>122</ele>
        <time>2012-02-11T14:29:20Z</time>
      </trkpt>
      <trkpt lat="47.21073" lon="0.03952">
        <ele>122</ele>
        <time>2012-02-11T14:29:24Z</time>
      </trkpt>
      <trkpt lat="47.21077" lon="0.03956">
        <ele>122</ele>
        <time>2012-02-11T14:29:28Z</time>
      </trkpt>
      <trkpt lat="47.2108" lon="0.03961">
        <ele>122</ele>
        <time>2012-02-11T14:29:32Z</time>
      </trkpt>
      <trkpt lat="47.21084" lon="0.03965">
        <ele>122</ele>
        <time>2012-02-11T14:29:36Z</time>
      </trkpt>
      <trkpt lat="47.21088" lon="0.03969">
        <ele>122</ele>
        <time>2012-02-11T14:29:40Z</time>
      </trkpt>
      <trkpt lat="47.21091" lon="0.03973">
        <ele>122</ele>
        <time>2012-02-11T14:29:44Z</time>
      </trkpt>
      <trkpt lat="47.21094" lon="0.03978">
        <ele>122</ele>
        <time>2012-02-11T14:29:48Z</time>
      </trkpt>
      <trkpt lat="47.21097" lon="0.03983">
        <ele>122</ele>
        <time>2012-02-11T14:29:52Z</time>
      </trkpt>
      <trkpt lat="47.21101" lon="0.03988">
        <ele>122</ele>
        <time>2012-02-11T14:29:57Z</time>
      </trkpt>
      <trkpt lat="47.21105" lon="0.03994">
        <ele>122</ele>
        <time>2012-02-11T14:30:02Z</time>
      </trkpt>
      <trkpt lat="47.21109" lon="0.03999">
        <ele>122</ele>
        <time>2012-02-11T14:30:07Z</time>
      </trkpt>
      <trkpt lat="47.21112" lon="0.04005">
        <ele>122</ele>
        <time>2012-02-11T14:30:12Z</time>
      </trkpt>
      <trkpt lat="47.21116" lon="0.04011">
        <ele>122</ele>
        <time>2012-02-11T14:30:17Z</time>
      </trkpt>
      <trkpt lat="47.2112" lon="0.04016">
        <ele>122</ele>
        <time>2012-02-11T14:30:22Z</time>
      </trkpt>
      <trkpt lat="47.21123" lon="0.04021">
        <ele>122</ele>
        <time>2012-02-11T14:30:26Z</time>
      </trkpt>
      <trkpt lat="47.21127" lon="0.04025">
        <ele>122</ele>
        <time>2012-02-11T14:30:30Z</time>
      </trkpt>
      <trkpt lat="47.21131" lon="0.04029">
        <ele>122</ele>
        <time>2012-02-11T14:30:34Z</time>
      </trkpt>
      <trkpt lat="47.21135" lon="0.04034">
        <ele>122</ele>
        <time>2012-02-11T14:30:38Z</time>
      </trkpt>
      <trkpt lat="47.21139" lon="0.04037">
        <ele>122</ele>
        <time>2012-02-11T14:30:42Z</time>
      </trkpt>
      <trkpt lat="47.21144" lon="0.0404">
        <ele>122</ele>
        <time>2012-02-11T14:30:46Z</time>
      </trkpt>
      <trkpt lat="47.21148" lon="0.04044">
        <ele>122</ele>
        <time>2012-02-11T14:30:50Z</time>
      </trkpt>
      <trkpt lat="47.21152" lon="0.04048">
        <ele>122</ele>
        <time>2012-02-11T14:30:54Z</time>
      </trkpt>
      <trkpt lat="47.21156" lon="0.04051">
        <ele>122</ele>
        <time>2012-02-11T14:30:58Z</time>
      </trkpt>
      <trkpt lat="47.21161" lon="0.04054">
        <ele>122</ele>
        <time>2012-02-11T14:31:02Z</time>
      </trkpt>
      <trkpt lat="47.21165" lon="0.04058">
        <ele>122</ele>
        <time>2012-02-11T14:31:06Z</time>
      </trkpt>
      <trkpt lat="47.21169" lon="0.04061">
        <ele>122</ele>
        <time>2012-02-11T14:31:10Z</time>
      </trkpt>
      <trkpt lat="47.21173" lon="0.04064">
        <ele>122</ele>
        <time>2012-02-11T14:31:14Z</time>
      </trkpt>
      <trkpt lat="47.21178" lon="0.04067">
        <ele>122</ele>
        <time>2012-02-11T14:31:18Z</time>
      </trkpt>
      <trkpt lat="47.21182" lon="0.0407">
        <ele>122</ele>
        <time>2012-02-11T14:31:22Z</time>
      </trkpt>
      <trkpt lat="47.21186" lon="0.04073">
        <ele>122</ele>
        <time>2012-02-11T14:31:26Z</time>
      </trkpt>
      <trkpt lat="47.2119" lon="0.04076">
        <ele>122</ele>
        <time>2012-02-11T14:31:30Z</time>
      </trkpt>
      <trkpt lat="47.21195" lon="0.04079">
        <ele>122</ele>
        <time>2012-02-11T14:31:34Z</time>
      </trkpt>
      <trkpt lat="47.21199" lon="0.04081">
        <ele>122</ele>
        <time>2012-02-11T14:31:38Z</time>
      </trkpt>
      <trkpt lat="47.21202" lon="0.04086">
        <ele>122</ele>
        <time>2012-02-11T14:32:33Z</time>
      </trkpt>
      <trkpt lat="47.21205" lon="0.04091">
        <ele>122</ele>
        <time>2012-02-11T14:32:39Z</time>
      </trkpt>
      <trkpt lat="47.2121" lon="0.04095">
        <ele>122</ele>
        <time>2012-02-11T14:32:44Z</time>
      </trkpt>
      <trkpt lat="47.21214" lon="0.04098">
        <ele>122</ele>
        <time>2012-02-11T14:32:48Z</time>
      </trkpt>
      <trkpt lat="47.21218" lon="0.041">
        <ele>122</ele>
        <time>2012-02-11T14:32:52Z</time>
      </trkpt>
      <trkpt lat="47.21223" lon="0.04102">
        <ele>122</ele>
        <time>2012-02-11T14:32:56Z</time>
      </trkpt>
      <trkpt lat="47.21227" lon="0.04105">
        <ele>122</ele>
        <time>2012-02-11T14:33:00Z</time>
      </trkpt>
      <trkpt lat="47.21232" lon="0.04108">
        <ele>122</ele>
        <time>2012-02-11T14:33:04Z</time>
      </trkpt>
      <trkpt lat="47.21237" lon="0.0411">
        <ele>122</ele>
        <time>2012-02-11T14:33:08Z</time>
      </trkpt>
      <trkpt lat="47.21242" lon="0.04112">
        <ele>122</ele>
        <time>2012-02-11T14:33:12Z</time>
      </trkpt>
      <trkpt lat="47.21247" lon="0.04114">
        <ele>122</ele>
        <time>2012-02-11T14:33:16Z</time>
      </trkpt>
      <trkpt lat="47.21252" lon="0.04116">
        <ele>122</ele>
        <time>2012-02-11T14:33:20Z</time>
      </trkpt>
      <trkpt lat="47.21257" lon="0.04117">
        <ele>122</ele>
        <time>2012-02-11T14:33:24Z</time>
      </trkpt>
      <trkpt lat="47.21262" lon="0.04118">
        <ele>122</ele>
        <time>2012-02-11T14:33:28Z</time>
      </trkpt>
      <trkpt lat="47.21267" lon="0.04118">
        <ele>122</ele>
        <time>2012-02-11T14:33:32Z</time>
      </trkpt>
      <trkpt lat="47.21273" lon="0.04119">
        <ele>122</ele>
        <time>2012-02-11T14:33:36Z</time>
      </trkpt>
      <trkpt lat="47.21278" lon="0.04119">
        <ele>122</ele>
        <time>2012-02-11T14:33:40Z</time>
      </trkpt>
      <trkpt lat="47.21283" lon="0.04119">
        <ele>122</ele>
        <time>2012-02-11T14:33:44Z</time>
      </trkpt>
      <trkpt lat="47.21288" lon="0.04119">
        <ele>122</ele>
        <time>2012-02-11T14:33:48Z</time>
      </trkpt>
      <trkpt lat="47.21292" lon="0.0412">
        <ele>122</ele>
        <time>2012-02-11T14:33:52Z</time>
      </trkpt>
      <trkpt lat="47.21297" lon="0.0412">
        <ele>122</ele>
        <time>2012-02-11T14:33:56Z</time>
      </trkpt>
      <trkpt lat="47.21301" lon="0.0412">
        <ele>122</ele>
        <time>2012-02-11T14:34:00Z</time>
      </trkpt>
      <trkpt lat="47.21306" lon="0.04121">
        <ele>122</ele>
        <time>2012-02-11T14:34:04Z</time>
      </trkpt>
      <trkpt lat="47.2131" lon="0.04122">
        <ele>122</ele>
        <time>2012-02-11T14:34:08Z</time>
      </trkpt>
      <trkpt lat="47.21316" lon="0.04123">
        <ele>122</ele>
        <time>2012-02-11T14:34:13Z</time>
      </trkpt>
      <trkpt lat="47.2132" lon="0.04124">
        <ele>122</ele>
        <time>2012-02-11T14:34:17Z</time>
      </trkpt>
      <trkpt lat="47.21325" lon="0.04126">
        <ele>122</ele>
        <time>2012-02-11T14:34:21Z</time>
      </trkpt>
      <trkpt lat="47.2133" lon="0.04128">
        <ele>122</ele>
        <time>2012-02-11T14:34:25Z</time>
      </trkpt>
      <trkpt lat="47.21334" lon="0.04131">
        <ele>122</ele>
        <time>2012-02-11T14:34:29Z</time>
      </trkpt>
      <trkpt lat="47.21338" lon="0.04134">
        <ele>122</ele>
        <time>2012-02-11T14:34:33Z</time>
      </trkpt>
      <trkpt lat="47.21342" lon="0.04138">
        <ele>122</ele>
        <time>2012-02-11T14:34:38Z</time>
      </trkpt>
      <trkpt lat="47.21345" lon="0.04144">
        <ele>122</ele>
        <time>2012-02-11T14:34:52Z</time>
      </trkpt>
      <trkpt lat="47.21348" lon="0.0415">
        <ele>122</ele>
        <time>2012-02-11T14:35:04Z</time>
      </trkpt>
      <trkpt lat="47.21349" lon="0.04156">
        <ele>122</ele>
        <time>2012-02-11T14:35:17Z</time>
      </trkpt>
      <trkpt lat="47.21352" lon="0.04163">
        <ele>121</ele>
        <time>2012-02-11T14:35:25Z</time>
      </trkpt>
      <trkpt lat="47.21353" lon="0.0417">
        <ele>121</ele>
        <time>2012-02-11T14:35:30Z</time>
      </trkpt>
      <trkpt lat="47.21355" lon="0.04177">
        <ele>121</ele>
        <time>2012-02-11T14:35:35Z</time>
      </trkpt>
      <trkpt lat="47.21357" lon="0.04185">
        <ele>121</ele>
        <time>2012-02-11T14:35:40Z</time>
      </trkpt>
      <trkpt lat="47.21358" lon="0.04192">
        <ele>121</ele>
        <time>2012-02-11T14:35:44Z</time>
      </trkpt>
      <trkpt lat="47.21358" lon="0.04198">
        <ele>122</ele>
        <time>2012-02-11T14:35:48Z</time>
      </trkpt>
      <trkpt lat="47.21359" lon="0.04205">
        <ele>122</ele>
        <time>2012-02-11T14:35:52Z</time>
      </trkpt>
      <trkpt lat="47.2136" lon="0.04212">
        <ele>122</ele>
        <time>2012-02-11T14:35:56Z</time>
      </trkpt>
      <trkpt lat="47.21361" lon="0.04218">
        <ele>122</ele>
        <time>2012-02-11T14:36:00Z</time>
      </trkpt>
      <trkpt lat="47.21362" lon="0.04225">
        <ele>122</ele>
        <time>2012-02-11T14:36:04Z</time>
      </trkpt>
      <trkpt lat="47.21362" lon="0.04232">
        <ele>122</ele>
        <time>2012-02-11T14:36:08Z</time>
      </trkpt>
      <trkpt lat="47.21363" lon="0.0424">
        <ele>122</ele>
        <time>2012-02-11T14:36:12Z</time>
      </trkpt>
      <trkpt lat="47.21364" lon="0.04247">
        <ele>122</ele>
        <time>2012-02-11T14:36:16Z</time>
      </trkpt>
      <trkpt lat="47.21364" lon="0.04254">
        <ele>122</ele>
        <time>2012-02-11T14:36:20Z</time>
      </trkpt>
      <trkpt lat="47.21365" lon="0.0426">
        <ele>122</ele>
        <time>2012-02-11T14:36:24Z</time>
      </trkpt>
      <trkpt lat="47.21365" lon="0.04267">
        <ele>122</ele>
        <time>2012-02-11T14:36:28Z</time>
      </trkpt>
      <trkpt lat="47.21365" lon="0.04274">
        <ele>122</ele>
        <time>2012-02-11T14:36:32Z</time>
      </trkpt>
      <trkpt lat="47.21366" lon="0.04282">
        <ele>122</ele>
        <time>2012-02-11T14:36:36Z</time>
      </trkpt>
      <trkpt lat="47.21366" lon="0.04289">
        <ele>122</ele>
        <time>2012-02-11T14:36:40Z</time>
      </trkpt>
      <trkpt lat="47.21367" lon="0.04295">
        <ele>122</ele>
        <time>2012-02-11T14:36:44Z</time>
      </trkpt>
      <trkpt lat="47.21367" lon="0.04302">
        <ele>122</ele>
        <time>2012-02-11T14:36:48Z</time>
      </trkpt>
      <trkpt lat="47.21368" lon="0.04309">
        <ele>122</ele>
        <time>2012-02-11T14:36:52Z</time>
      </trkpt>
      <trkpt lat="47.21369" lon="0.04316">
        <ele>123</ele>
        <time>2012-02-11T14:36:56Z</time>
      </trkpt>
      <trkpt lat="47.21369" lon="0.04323">
        <ele>123</ele>
        <time>2012-02-11T14:37:00Z</time>
      </trkpt>
      <trkpt lat="47.21369" lon="0.04331">
        <ele>123</ele>
        <time>2012-02-11T14:37:04Z</time>
      </trkpt>
      <trkpt lat="47.2137" lon="0.04338">
        <ele>123</ele>
        <time>2012-02-11T14:37:08Z</time>
      </trkpt>
      <trkpt lat="47.2137" lon="0.04345">
        <ele>123</ele>
        <time>2012-02-11T14:37:12Z</time>
      </trkpt>
      <trkpt lat="47.21371" lon="0.04352">
        <ele>123</ele>
        <time>2012-02-11T14:37:16Z</time>
      </trkpt>
      <trkpt lat="47.21372" lon="0.0436">
        <ele>123</ele>
        <time>2012-02-11T14:37:20Z</time>
      </trkpt>
      <trkpt lat="47.21373" lon="0.04367">
        <ele>123</ele>
        <time>2012-02-11T14:37:24Z</time>
      </trkpt>
      <trkpt lat="47.21374" lon="0.04374">
        <ele>123</ele>
        <time>2012-02-11T14:37:28Z</time>
      </trkpt>
      <trkpt lat="47.21375" lon="0.0438">
        <ele>123</ele>
        <time>2012-02-11T14:37:32Z</time>
      </trkpt>
      <trkpt lat="47.21376" lon="0.04387">
        <ele>123</ele>
        <time>2012-02-11T14:37:36Z</time>
      </trkpt>
      <trkpt lat="47.21377" lon="0.04394">
        <ele>123</ele>
        <time>2012-02-11T14:37:40Z</time>
      </trkpt>
      <trkpt lat="47.21379" lon="0.04401">
        <ele>123</ele>
        <time>2012-02-11T14:37:44Z</time>
      </trkpt>
      <trkpt lat="47.2138" lon="0.04407">
        <ele>123</ele>
        <time>2012-02-11T14:37:48Z</time>
      </trkpt>
      <trkpt lat="47.21381" lon="0.04414">
        <ele>123</ele>
        <time>2012-02-11T14:37:52Z</time>
      </trkpt>
      <trkpt lat="47.21382" lon="0.04422">
        <ele>123</ele>
        <time>2012-02-11T14:37:56Z</time>
      </trkpt>
      <trkpt lat="47.21383" lon="0.04428">
        <ele>123</ele>
        <time>2012-02-11T14:38:00Z</time>
      </trkpt>
      <trkpt lat="47.21385" lon="0.04435">
        <ele>123</ele>
        <time>2012-02-11T14:38:04Z</time>
      </trkpt>
      <trkpt lat="47.21386" lon="0.04442">
        <ele>123</ele>
        <time>2012-02-11T14:38:08Z</time>
      </trkpt>
      <trkpt lat="47.21386" lon="0.04449">
        <ele>123</ele>
        <time>2012-02-11T14:38:12Z</time>
      </trkpt>
      <trkpt lat="47.21388" lon="0.04456">
        <ele>123</ele>
        <time>2012-02-11T14:38:16Z</time>
      </trkpt>
      <trkpt lat="47.21388" lon="0.04463">
        <ele>123</ele>
        <time>2012-02-11T14:38:20Z</time>
      </trkpt>
      <trkpt lat="47.2139" lon="0.0447">
        <ele>123</ele>
        <time>2012-02-11T14:38:24Z</time>
      </trkpt>
      <trkpt lat="47.21391" lon="0.04477">
        <ele>123</ele>
        <time>2012-02-11T14:38:28Z</time>
      </trkpt>
      <trkpt lat="47.21392" lon="0.04483">
        <ele>123</ele>
        <time>2012-02-11T14:38:32Z</time>
      </trkpt>
      <trkpt lat="47.21394" lon="0.0449">
        <ele>123</ele>
        <time>2012-02-11T14:38:36Z</time>
      </trkpt>
      <trkpt lat="47.21395" lon="0.04497">
        <ele>123</ele>
        <time>2012-02-11T14:38:40Z</time>
      </trkpt>
      <trkpt lat="47.21396" lon="0.04504">
        <ele>123</ele>
        <time>2012-02-11T14:38:44Z</time>
      </trkpt>
      <trkpt lat="47.21397" lon="0.0451">
        <ele>123</ele>
        <time>2012-02-11T14:38:48Z</time>
      </trkpt>
      <trkpt lat="47.21398" lon="0.04517">
        <ele>123</ele>
        <time>2012-02-11T14:38:52Z</time>
      </trkpt>
      <trkpt lat="47.214" lon="0.04524">
        <ele>123</ele>
        <time>2012-02-11T14:38:56Z</time>
      </trkpt>
      <trkpt lat="47.21402" lon="0.04531">
        <ele>123</ele>
        <time>2012-02-11T14:39:00Z</time>
      </trkpt>
      <trkpt lat="47.21404" lon="0.04537">
        <ele>123</ele>
        <time>2012-02-11T14:39:04Z</time>
      </trkpt>
      <trkpt lat="47.21406" lon="0.04543">
        <ele>123</ele>
        <time>2012-02-11T14:39:08Z</time>
      </trkpt>
      <trkpt lat="47.21408" lon="0.04548">
        <ele>123</ele>
        <time>2012-02-11T14:39:12Z</time>
      </trkpt>
      <trkpt lat="47.21411" lon="0.04554">
        <ele>123</ele>
        <time>2012-02-11T14:39:16Z</time>
      </trkpt>
      <trkpt lat="47.21415" lon="0.04559">
        <ele>123</ele>
        <time>2012-02-11T14:39:21Z</time>
      </trkpt>
      <trkpt lat="47.21418" lon="0.04564">
        <ele>123</ele>
        <time>2012-02-11T14:39:25Z</time>
      </trkpt>
      <trkpt lat="47.21421" lon="0.04569">
        <ele>123</ele>
        <time>2012-02-11T14:39:29Z</time>
      </trkpt>
      <trkpt lat="47.21424" lon="0.04574">
        <ele>123</ele>
        <time>2012-02-11T14:39:33Z</time>
      </trkpt>
      <trkpt lat="47.21427" lon="0.0458">
        <ele>123</ele>
        <time>2012-02-11T14:39:37Z</time>
      </trkpt>
      <trkpt lat="47.21431" lon="0.04585">
        <ele>123</ele>
        <time>2012-02-11T14:39:41Z</time>
      </trkpt>
      <trkpt lat="47.21434" lon="0.0459">
        <ele>123</ele>
        <time>2012-02-11T14:39:45Z</time>
      </trkpt>
      <trkpt lat="47.21438" lon="0.04594">
        <ele>123</ele>
        <time>2012-02-11T14:39:49Z</time>
      </trkpt>
      <trkpt lat="47.21442" lon="0.04598">
        <ele>123</ele>
        <time>2012-02-11T14:39:53Z</time>
      </trkpt>
      <trkpt lat="47.21446" lon="0.04602">
        <ele>123</ele>
        <time>2012-02-11T14:39:57Z</time>
      </trkpt>
      <trkpt lat="47.2145" lon="0.04606">
        <ele>123</ele>
        <time>2012-02-11T14:40:01Z</time>
      </trkpt>
      <trkpt lat="47.21454" lon="0.0461">
        <ele>123</ele>
        <time>2012-02-11T14:40:05Z</time>
      </trkpt>
      <trkpt lat="47.21459" lon="0.04613">
        <ele>123</ele>
        <time>2012-02-11T14:40:09Z</time>
      </trkpt>
      <trkpt lat="47.21463" lon="0.04616">
        <ele>123</ele>
        <time>2012-02-11T14:40:13Z</time>
      </trkpt>
      <trkpt lat="47.21467" lon="0.0462">
        <ele>123</ele>
        <time>2012-02-11T14:40:17Z</time>
      </trkpt>
      <trkpt lat="47.21471" lon="0.04623">
        <ele>123</ele>
        <time>2012-02-11T14:40:21Z</time>
      </trkpt>
      <trkpt lat="47.21475" lon="0.04628">
        <ele>122</ele>
        <time>2012-02-11T14:40:25Z</time>
      </trkpt>
      <trkpt lat="47.21479" lon="0.04632">
        <ele>122</ele>
        <time>2012-02-11T14:40:29Z</time>
      </trkpt>
      <trkpt lat="47.21483" lon="0.04636">
        <ele>122</ele>
        <time>2012-02-11T14:40:33Z</time>
      </trkpt>
      <trkpt lat="47.21487" lon="0.04641">
        <ele>122</ele>
        <time>2012-02-11T14:40:37Z</time>
      </trkpt>
      <trkpt lat="47.2149" lon="0.04646">
        <ele>122</ele>
        <time>2012-02-11T14:40:41Z</time>
      </trkpt>
      <trkpt lat="47.21494" lon="0.0465">
        <ele>122</ele>
        <time>2012-02-11T14:40:45Z</time>
      </trkpt>
      <trkpt lat="47.21498" lon="0.04654">
        <ele>122</ele>
        <time>2012-02-11T14:40:49Z</time>
      </trkpt>
      <trkpt lat="47.21502" lon="0.04658">
        <ele>122</ele>
        <time>2012-02-11T14:40:53Z</time>
      </trkpt>
      <trkpt lat="47.21506" lon="0.04663">
        <ele>122</ele>
        <time>2012-02-11T14:40:57Z</time>
      </trkpt>
      <trkpt lat="47.2151" lon="0.04667">
        <ele>122</ele>
        <time>2012-02-11T14:41:01Z</time>
      </trkpt>
      <trkpt lat="47.21513" lon="0.04671">
        <ele>121</ele>
        <time>2012-02-11T14:41:05Z</time>
      </trkpt>
      <trkpt lat="47.21518" lon="0.04674">
        <ele>121</ele>
        <time>2012-02-11T14:41:09Z</time>
      </trkpt>
      <trkpt lat="47.21522" lon="0.04678">
        <ele>121</ele>
        <time>2012-02-11T14:41:13Z</time>
      </trkpt>
      <trkpt lat="47.21525" lon="0.04682">
        <ele>121</ele>
        <time>2012-02-11T14:41:17Z</time>
      </trkpt>
      <trkpt lat="47.2153" lon="0.04684">
        <ele>121</ele>
        <time>2012-02-11T14:41:21Z</time>
      </trkpt>
      <trkpt lat="47.21534" lon="0.04687">
        <ele>121</ele>
        <time>2012-02-11T14:41:25Z</time>
      </trkpt>
      <trkpt lat="47.21539" lon="0.0469">
        <ele>121</ele>
        <time>2012-02-11T14:41:29Z</time>
      </trkpt>
      <trkpt lat="47.21543" lon="0.04693">
        <ele>120</ele>
        <time>2012-02-11T14:41:33Z</time>
      </trkpt>
      <trkpt lat="47.21547" lon="0.04697">
        <ele>120</ele>
        <time>2012-02-11T14:41:37Z</time>
      </trkpt>
      <trkpt lat="47.21551" lon="0.04701">
        <ele>120</ele>
        <time>2012-02-11T14:41:41Z</time>
      </trkpt>
      <trkpt lat="47.21555" lon="0.04704">
        <ele>120</ele>
        <time>2012-02-11T14:41:45Z</time>
      </trkpt>
      <trkpt lat="47.2156" lon="0.04708">
        <ele>120</ele>
        <time>2012-02-11T14:41:49Z</time>
      </trkpt>
      <trkpt lat="47.21564" lon="0.04711">
        <ele>119</ele>
        <time>2012-02-11T14:41:53Z</time>
      </trkpt>
      <trkpt lat="47.21569" lon="0.04715">
        <ele>119</ele>
        <time>2012-02-11T14:41:57Z</time>
      </trkpt>
      <trkpt lat="47.21573" lon="0.04718">
        <ele>119</ele>
        <time>2012-02-11T14:42:01Z</time>
      </trkpt>
      <trkpt lat="47.21577" lon="0.04722">
        <ele>119</ele>
        <time>2012-02-11T14:42:05Z</time>
      </trkpt>
      <trkpt lat="47.21581" lon="0.04726">
        <ele>119</ele>
        <time>2012-02-11T14:42:09Z</time>
      </trkpt>
      <trkpt lat="47.21585" lon="0.04731">
        <ele>119</ele>
        <time>2012-02-11T14:42:13Z</time>
      </trkpt>
      <trkpt lat="47.21588" lon="0.04735">
        <ele>119</ele>
        <time>2012-02-11T14:42:17Z</time>
      </trkpt>
      <trkpt lat="47.21592" lon="0.04738">
        <ele>119</ele>
        <time>2012-02-11T14:42:21Z</time>
      </trkpt>
      <trkpt lat="47.21596" lon="0.04742">
        <ele>119</ele>
        <time>2012-02-11T14:42:25Z</time>
      </trkpt>
      <trkpt lat="47.216" lon="0.04746">
        <ele>119</ele>
        <time>2012-02-11T14:42:30Z</time>
      </trkpt>
      <trkpt lat="47.21605" lon="0.0475">
        <ele>119</ele>
        <time>2012-02-11T14:42:35Z</time>
      </trkpt>
      <trkpt lat="47.21609" lon="0.04754">
        <ele>119</ele>
        <time>2012-02-11T14:42:39Z</time>
      </trkpt>
      <trkpt lat="47.21612" lon="0.04758">
        <ele>119</ele>
        <time>2012-02-11T14:42:43Z</time>
      </trkpt>
      <trkpt lat="47.21616" lon="0.04762">
        <ele>119</ele>
        <time>2012-02-11T14:42:47Z</time>
      </trkpt>
      <trkpt lat="47.2162" lon="0.04767">
        <ele>119</ele>
        <time>2012-02-11T14:42:52Z</time>
      </trkpt>
      <trkpt lat="47.21623" lon="0.04772">
        <ele>119</ele>
        <time>2012-02-11T14:42:57Z</time>
      </trkpt>
      <trkpt lat="47.21627" lon="0.04776">
        <ele>119</ele>
        <time>2012-02-11T14:43:49Z</time>
      </trkpt>
      <trkpt lat="47.21628" lon="0.04783">
        <ele>119</ele>
        <time>2012-02-11T14:43:57Z</time>
      </trkpt>
      <trkpt lat="47.21629" lon="0.0479">
        <ele>119</ele>
        <time>2012-02-11T14:44:03Z</time>
      </trkpt>
      <trkpt lat="47.21628" lon="0.04797">
        <ele>119</ele>
        <time>2012-02-11T14:44:18Z</time>
      </trkpt>
      <trkpt lat="47.21627" lon="0.04804">
        <ele>119</ele>
        <time>2012-02-11T14:44:24Z</time>
      </trkpt>
      <trkpt lat="47.21626" lon="0.04811">
        <ele>119</ele>
        <time>2012-02-11T14:44:28Z</time>
      </trkpt>
      <trkpt lat="47.21625" lon="0.04818">
        <ele>120</ele>
        <time>2012-02-11T14:44:33Z</time>
      </trkpt>
      <trkpt lat="47.21624" lon="0.04826">
        <ele>120</ele>
        <time>2012-02-11T14:44:38Z</time>
      </trkpt>
      <trkpt lat="47.21624" lon="0.04832">
        <ele>120</ele>
        <time>2012-02-11T14:44:43Z</time>
      </trkpt>
      <trkpt lat="47.21624" lon="0.04839">
        <ele>120</ele>
        <time>2012-02-11T14:44:48Z</time>
      </trkpt>
      <trkpt lat="47.21623" lon="0.04846">
        <ele>120</ele>
        <time>2012-02-11T14:44:53Z</time>
      </trkpt>
      <trkpt lat="47.21622" lon="0.04854">
        <ele>120</ele>
        <time>2012-02-11T14:44:58Z</time>
      </trkpt>
      <trkpt lat="47.21621" lon="0.04862">
        <ele>120</ele>
        <time>2012-02-11T14:45:03Z</time>
      </trkpt>
      <trkpt lat="47.2162" lon="0.04869">
        <ele>120</ele>
        <time>2012-02-11T14:45:08Z</time>
      </trkpt>
      <trkpt lat="47.2162" lon="0.04876">
        <ele>120</ele>
        <time>2012-02-11T14:45:13Z</time>
      </trkpt>
      <trkpt lat="47.21619" lon="0.04883">
        <ele>120</ele>
        <time>2012-02-11T14:45:18Z</time>
      </trkpt>
      <trkpt lat="47.21617" lon="0.0489">
        <ele>120</ele>
        <time>2012-02-11T14:45:23Z</time>
      </trkpt>
      <trkpt lat="47.21616" lon="0.04897">
        <ele>120</ele>
        <time>2012-02-11T14:45:28Z</time>
      </trkpt>
      <trkpt lat="47.21615" lon="0.04905">
        <ele>120</ele>
        <time>2012-02-11T14:45:33Z</time>
      </trkpt>
      <trkpt lat="47.21613" lon="0.04912">
        <ele>120</ele>
        <time>2012-02-11T14:45:38Z</time>
      </trkpt>
      <trkpt lat="47.21612" lon="0.04919">
        <ele>120</ele>
        <time>2012-02-11T14:45:43Z</time>
      </trkpt>
      <trkpt lat="47.21609" lon="0.04926">
        <ele>120</ele>
        <time>2012-02-11T14:45:48Z</time>
      </trkpt>
      <trkpt lat="47.21607" lon="0.04932">
        <ele>120</ele>
        <time>2012-02-11T14:45:53Z</time>
      </trkpt>
      <trkpt lat="47.21604" lon="0.04939">
        <ele>120</ele>
        <time>2012-02-11T14:45:58Z</time>
      </trkpt>
      <trkpt lat="47.21602" lon="0.04946">
        <ele>120</ele>
        <time>2012-02-11T14:46:03Z</time>
      </trkpt>
      <trkpt lat="47.21599" lon="0.04953">
        <ele>119</ele>
        <time>2012-02-11T14:46:08Z</time>
      </trkpt>
      <trkpt lat="47.21597" lon="0.0496">
        <ele>119</ele>
        <time>2012-02-11T14:46:13Z</time>
      </trkpt>
      <trkpt lat="47.21594" lon="0.04967">
        <ele>119</ele>
        <time>2012-02-11T14:46:18Z</time>
      </trkpt>
      <trkpt lat="47.21592" lon="0.04974">
        <ele>119</ele>
        <time>2012-02-11T14:46:23Z</time>
      </trkpt>
      <trkpt lat="47.21591" lon="0.0498">
        <ele>119</ele>
        <time>2012-02-11T14:46:27Z</time>
      </trkpt>
      <trkpt lat="47.21589" lon="0.04987">
        <ele>119</ele>
        <time>2012-02-11T14:46:31Z</time>
      </trkpt>
      <trkpt lat="47.21587" lon="0.04994">
        <ele>119</ele>
        <time>2012-02-11T14:46:36Z</time>
      </trkpt>
      <trkpt lat="47.21584" lon="0.05001">
        <ele>119</ele>
        <time>2012-02-11T14:46:41Z</time>
      </trkpt>
      <trkpt lat="47.21582" lon="0.05007">
        <ele>119</ele>
        <time>2012-02-11T14:46:46Z</time>
      </trkpt>
      <trkpt lat="47.2158" lon="0.05014">
        <ele>119</ele>
        <time>2012-02-11T14:46:51Z</time>
      </trkpt>
      <trkpt lat="47.21578" lon="0.0502">
        <ele>118</ele>
        <time>2012-02-11T14:46:56Z</time>
      </trkpt>
      <trkpt lat="47.21577" lon="0.05027">
        <ele>118</ele>
        <time>2012-02-11T14:47:07Z</time>
      </trkpt>
      <trkpt lat="47.21575" lon="0.05033">
        <ele>118</ele>
        <time>2012-02-11T14:47:11Z</time>
      </trkpt>
      <trkpt lat="47.21573" lon="0.05041">
        <ele>118</ele>
        <time>2012-02-11T14:47:19Z</time>
      </trkpt>
      <trkpt lat="47.2157" lon="0.05048">
        <ele>117</ele>
        <time>2012-02-11T14:47:23Z</time>
      </trkpt>
      <trkpt lat="47.21568" lon="0.05055">
        <ele>117</ele>
        <time>2012-02-11T14:47:28Z</time>
      </trkpt>
      <trkpt lat="47.21566" lon="0.0506">
        <ele>116</ele>
        <time>2012-02-11T14:47:34Z</time>
      </trkpt>
      <trkpt lat="47.21564" lon="0.05066">
        <ele>116</ele>
        <time>2012-02-11T14:47:39Z</time>
      </trkpt>
      <trkpt lat="47.21561" lon="0.05072">
        <ele>116</ele>
        <time>2012-02-11T14:47:43Z</time>
      </trkpt>
      <trkpt lat="47.21558" lon="0.05078">
        <ele>115</ele>
        <time>2012-02-11T14:47:47Z</time>
      </trkpt>
      <trkpt lat="47.21555" lon="0.05084">
        <ele>115</ele>
        <time>2012-02-11T14:47:53Z</time>
      </trkpt>
      <trkpt lat="47.21552" lon="0.0509">
        <ele>114</ele>
        <time>2012-02-11T14:47:59Z</time>
      </trkpt>
      <trkpt lat="47.21549" lon="0.05096">
        <ele>114</ele>
        <time>2012-02-11T14:48:04Z</time>
      </trkpt>
      <trkpt lat="47.21547" lon="0.05102">
        <ele>114</ele>
        <time>2012-02-11T14:48:09Z</time>
      </trkpt>
      <trkpt lat="47.21544" lon="0.05108">
        <ele>114</ele>
        <time>2012-02-11T14:48:14Z</time>
      </trkpt>
      <trkpt lat="47.21541" lon="0.05114">
        <ele>113</ele>
        <time>2012-02-11T14:48:19Z</time>
      </trkpt>
      <trkpt lat="47.21538" lon="0.0512">
        <ele>113</ele>
        <time>2012-02-11T14:48:24Z</time>
      </trkpt>
      <trkpt lat="47.21535" lon="0.05125">
        <ele>113</ele>
        <time>2012-02-11T14:48:29Z</time>
      </trkpt>
      <trkpt lat="47.21532" lon="0.05131">
        <ele>113</ele>
        <time>2012-02-11T14:48:33Z</time>
      </trkpt>
      <trkpt lat="47.21529" lon="0.05138">
        <ele>112</ele>
        <time>2012-02-11T14:48:37Z</time>
      </trkpt>
      <trkpt lat="47.21526" lon="0.05145">
        <ele>112</ele>
        <time>2012-02-11T14:48:41Z</time>
      </trkpt>
      <trkpt lat="47.21524" lon="0.05151">
        <ele>112</ele>
        <time>2012-02-11T14:48:45Z</time>
      </trkpt>
      <trkpt lat="47.21521" lon="0.05158">
        <ele>111</ele>
        <time>2012-02-11T14:48:50Z</time>
      </trkpt>
      <trkpt lat="47.21517" lon="0.05163">
        <ele>111</ele>
        <time>2012-02-11T14:48:55Z</time>
      </trkpt>
      <trkpt lat="47.21514" lon="0.05169">
        <ele>111</ele>
        <time>2012-02-11T14:49:00Z</time>
      </trkpt>
      <trkpt lat="47.21511" lon="0.05176">
        <ele>111</ele>
        <time>2012-02-11T14:49:05Z</time>
      </trkpt>
      <trkpt lat="47.21508" lon="0.05183">
        <ele>110</ele>
        <time>2012-02-11T14:49:10Z</time>
      </trkpt>
      <trkpt lat="47.21505" lon="0.05189">
        <ele>110</ele>
        <time>2012-02-11T14:49:15Z</time>
      </trkpt>
      <trkpt lat="47.21503" lon="0.05196">
        <ele>109</ele>
        <time>2012-02-11T14:49:20Z</time>
      </trkpt>
      <trkpt lat="47.21499" lon="0.05201">
        <ele>109</ele>
        <time>2012-02-11T14:49:25Z</time>
      </trkpt>
      <trkpt lat="47.21497" lon="0.05206">
        <ele>109</ele>
        <time>2012-02-11T14:49:30Z</time>
      </trkpt>
      <trkpt lat="47.21495" lon="0.05214">
        <ele>108</ele>
        <time>2012-02-11T14:49:35Z</time>
      </trkpt>
      <trkpt lat="47.21493" lon="0.05221">
        <ele>108</ele>
        <time>2012-02-11T14:49:39Z</time>
      </trkpt>
      <trkpt lat="47.21492" lon="0.05228">
        <ele>108</ele>
        <time>2012-02-11T14:49:43Z</time>
      </trkpt>
      <trkpt lat="47.2149" lon="0.05235">
        <ele>108</ele>
        <time>2012-02-11T14:49:48Z</time>
      </trkpt>
      <trkpt lat="47.21489" lon="0.05243">
        <ele>107</ele>
        <time>2012-02-11T14:49:53Z</time>
      </trkpt>
      <trkpt lat="47.21487" lon="0.05251">
        <ele>107</ele>
        <time>2012-02-11T14:49:58Z</time>
      </trkpt>
      <trkpt lat="47.21485" lon="0.05256">
        <ele>107</ele>
        <time>2012-02-11T14:50:02Z</time>
      </trkpt>
      <trkpt lat="47.21483" lon="0.05263">
        <ele>106</ele>
        <time>2012-02-11T14:50:07Z</time>
      </trkpt>
      <trkpt lat="47.21481" lon="0.0527">
        <ele>106</ele>
        <time>2012-02-11T14:50:13Z</time>
      </trkpt>
      <trkpt lat="47.21482" lon="0.05263">
        <ele>105</ele>
        <time>2012-02-11T14:50:26Z</time>
      </trkpt>
      <trkpt lat="47.21484" lon="0.05257">
        <ele>104</ele>
        <time>2012-02-11T14:50:55Z</time>
      </trkpt>
      <trkpt lat="47.21489" lon="0.05259">
        <ele>102</ele>
        <time>2012-02-11T14:51:25Z</time>
      </trkpt>
      <trkpt lat="47.21493" lon="0.05264">
        <ele>101</ele>
        <time>2012-02-11T14:51:29Z</time>
      </trkpt>
      <trkpt lat="47.21498" lon="0.05269">
        <ele>100</ele>
        <time>2012-02-11T14:51:33Z</time>
      </trkpt>
      <trkpt lat="47.21502" lon="0.05274">
        <ele>98</ele>
        <time>2012-02-11T14:51:38Z</time>
      </trkpt>
      <trkpt lat="47.21506" lon="0.05279">
        <ele>97</ele>
        <time>2012-02-11T14:51:43Z</time>
      </trkpt>
      <trkpt lat="47.2151" lon="0.05282">
        <ele>96</ele>
        <time>2012-02-11T14:51:48Z</time>
      </trkpt>
      <trkpt lat="47.21515" lon="0.05287">
        <ele>95</ele>
        <time>2012-02-11T14:51:53Z</time>
      </trkpt>
      <trkpt lat="47.21519" lon="0.05291">
        <ele>94</ele>
        <time>2012-02-11T14:51:58Z</time>
      </trkpt>
      <trkpt lat="47.21523" lon="0.05295">
        <ele>94</ele>
        <time>2012-02-11T14:52:02Z</time>
      </trkpt>
      <trkpt lat="47.21527" lon="0.05298">
        <ele>93</ele>
        <time>2012-02-11T14:52:06Z</time>
      </trkpt>
      <trkpt lat="47.21531" lon="0.05303">
        <ele>92</ele>
        <time>2012-02-11T14:52:11Z</time>
      </trkpt>
      <trkpt lat="47.21535" lon="0.05308">
        <ele>92</ele>
        <time>2012-02-11T14:52:16Z</time>
      </trkpt>
      <trkpt lat="47.21538" lon="0.05312">
        <ele>91</ele>
        <time>2012-02-11T14:52:21Z</time>
      </trkpt>
      <trkpt lat="47.21543" lon="0.05315">
        <ele>90</ele>
        <time>2012-02-11T14:52:26Z</time>
      </trkpt>
      <trkpt lat="47.21547" lon="0.05318">
        <ele>90</ele>
        <time>2012-02-11T14:52:31Z</time>
      </trkpt>
      <trkpt lat="47.21549" lon="0.05324">
        <ele>89</ele>
        <time>2012-02-11T14:52:38Z</time>
      </trkpt>
      <trkpt lat="47.21548" lon="0.05331">
        <ele>88</ele>
        <time>2012-02-11T14:52:46Z</time>
      </trkpt>
      <trkpt lat="47.21545" lon="0.05337">
        <ele>88</ele>
        <time>2012-02-11T14:52:51Z</time>
      </trkpt>
      <trkpt lat="47.21542" lon="0.05342">
        <ele>87</ele>
        <time>2012-02-11T14:52:56Z</time>
      </trkpt>
      <trkpt lat="47.21539" lon="0.05347">
        <ele>87</ele>
        <time>2012-02-11T14:53:01Z</time>
      </trkpt>
      <trkpt lat="47.21535" lon="0.05352">
        <ele>86</ele>
        <time>2012-02-11T14:53:07Z</time>
      </trkpt>
      <trkpt lat="47.21532" lon="0.05358">
        <ele>86</ele>
        <time>2012-02-11T14:53:13Z</time>
      </trkpt>
      <trkpt lat="47.21529" lon="0.05364">
        <ele>86</ele>
        <time>2012-02-11T14:53:19Z</time>
      </trkpt>
      <trkpt lat="47.21527" lon="0.05372">
        <ele>85</ele>
        <time>2012-02-11T14:53:24Z</time>
      </trkpt>
      <trkpt lat="47.21526" lon="0.0538">
        <ele>85</ele>
        <time>2012-02-11T14:53:28Z</time>
      </trkpt>
      <trkpt lat="47.21525" lon="0.05388">
        <ele>85</ele>
        <time>2012-02-11T14:53:32Z</time>
      </trkpt>
      <trkpt lat="47.21526" lon="0.05396">
        <ele>85</ele>
        <time>2012-02-11T14:53:36Z</time>
      </trkpt>
      <trkpt lat="47.21525" lon="0.05403">
        <ele>85</ele>
        <time>2012-02-11T14:53:40Z</time>
      </trkpt>
      <trkpt lat="47.21525" lon="0.0541">
        <ele>84</ele>
        <time>2012-02-11T14:53:45Z</time>
      </trkpt>
      <trkpt lat="47.21526" lon="0.05418">
        <ele>84</ele>
        <time>2012-02-11T14:53:50Z</time>
      </trkpt>
      <trkpt lat="47.21527" lon="0.05425">
        <ele>84</ele>
        <time>2012-02-11T14:53:55Z</time>
      </trkpt>
      <trkpt lat="47.21528" lon="0.05432">
        <ele>84</ele>
        <time>2012-02-11T14:54:00Z</time>
      </trkpt>
      <trkpt lat="47.21529" lon="0.05438">
        <ele>83</ele>
        <time>2012-02-11T14:54:05Z</time>
      </trkpt>
      <trkpt lat="47.2153" lon="0.05445">
        <ele>83</ele>
        <time>2012-02-11T14:54:10Z</time>
      </trkpt>
      <trkpt lat="47.21531" lon="0.05452">
        <ele>83</ele>
        <time>2012-02-11T14:54:15Z</time>
      </trkpt>
      <trkpt lat="47.21533" lon="0.05459">
        <ele>83</ele>
        <time>2012-02-11T14:54:21Z</time>
      </trkpt>
      <trkpt lat="47.21537" lon="0.05464">
        <ele>83</ele>
        <time>2012-02-11T14:54:27Z</time>
      </trkpt>
      <trkpt lat="47.21541" lon="0.05467">
        <ele>83</ele>
        <time>2012-02-11T14:54:32Z</time>
      </trkpt>
      <trkpt lat="47.21545" lon="0.05472">
        <ele>83</ele>
        <time>2012-02-11T14:54:37Z</time>
      </trkpt>
      <trkpt lat="47.2155" lon="0.05476">
        <ele>83</ele>
        <time>2012-02-11T14:54:42Z</time>
      </trkpt>
      <trkpt lat="47.21554" lon="0.0548">
        <ele>83</ele>
        <time>2012-02-11T14:54:46Z</time>
      </trkpt>
      <trkpt lat="47.21558" lon="0.05483">
        <ele>83</ele>
        <time>2012-02-11T14:54:50Z</time>
      </trkpt>
      <trkpt lat="47.21563" lon="0.05486">
        <ele>83</ele>
        <time>2012-02-11T14:54:54Z</time>
      </trkpt>
      <trkpt lat="47.21568" lon="0.05488">
        <ele>83</ele>
        <time>2012-02-11T14:54:58Z</time>
      </trkpt>
      <trkpt lat="47.21573" lon="0.0549">
        <ele>83</ele>
        <time>2012-02-11T14:55:02Z</time>
      </trkpt>
      <trkpt lat="47.21578" lon="0.05491">
        <ele>83</ele>
        <time>2012-02-11T14:55:06Z</time>
      </trkpt>
      <trkpt lat="47.21583" lon="0.05492">
        <ele>83</ele>
        <time>2012-02-11T14:55:10Z</time>
      </trkpt>
      <trkpt lat="47.21589" lon="0.05493">
        <ele>83</ele>
        <time>2012-02-11T14:55:14Z</time>
      </trkpt>
      <trkpt lat="47.21594" lon="0.05493">
        <ele>83</ele>
        <time>2012-02-11T14:55:18Z</time>
      </trkpt>
      <trkpt lat="47.21599" lon="0.05493">
        <ele>83</ele>
        <time>2012-02-11T14:55:22Z</time>
      </trkpt>
      <trkpt lat="47.21603" lon="0.05492">
        <ele>83</ele>
        <time>2012-02-11T14:55:26Z</time>
      </trkpt>
      <trkpt lat="47.21608" lon="0.05492">
        <ele>83</ele>
        <time>2012-02-11T14:55:30Z</time>
      </trkpt>
      <trkpt lat="47.21612" lon="0.05492">
        <ele>83</ele>
        <time>2012-02-11T14:55:34Z</time>
      </trkpt>
      <trkpt lat="47.21617" lon="0.05491">
        <ele>83</ele>
        <time>2012-02-11T14:55:39Z</time>
      </trkpt>
      <trkpt lat="47.21622" lon="0.05494">
        <ele>82</ele>
        <time>2012-02-11T14:55:45Z</time>
      </trkpt>
      <trkpt lat="47.21624" lon="0.055">
        <ele>82</ele>
        <time>2012-02-11T14:55:51Z</time>
      </trkpt>
      <trkpt lat="47.21626" lon="0.05507">
        <ele>82</ele>
        <time>2012-02-11T14:55:56Z</time>
      </trkpt>
      <trkpt lat="47.21626" lon="0.05514">
        <ele>82</ele>
        <time>2012-02-11T14:56:01Z</time>
      </trkpt>
      <trkpt lat="47.21625" lon="0.05522">
        <ele>82</ele>
        <time>2012-02-11T14:56:06Z</time>
      </trkpt>
      <trkpt lat="47.21624" lon="0.05529">
        <ele>81</ele>
        <time>2012-02-11T14:56:10Z</time>
      </trkpt>
      <trkpt lat="47.21622" lon="0.05536">
        <ele>81</ele>
        <time>2012-02-11T14:56:14Z</time>
      </trkpt>
      <trkpt lat="47.2162" lon="0.05543">
        <ele>81</ele>
        <time>2012-02-11T14:56:18Z</time>
      </trkpt>
      <trkpt lat="47.21618" lon="0.0555">
        <ele>81</ele>
        <time>2012-02-11T14:56:22Z</time>
      </trkpt>
      <trkpt lat="47.21617" lon="0.05557">
        <ele>81</ele>
        <time>2012-02-11T14:56:26Z</time>
      </trkpt>
      <trkpt lat="47.21616" lon="0.05565">
        <ele>81</ele>
        <time>2012-02-11T14:56:30Z</time>
      </trkpt>
      <trkpt lat="47.21616" lon="0.05573">
        <ele>81</ele>
        <time>2012-02-11T14:56:34Z</time>
      </trkpt>
      <trkpt lat="47.21615" lon="0.0558">
        <ele>80</ele>
        <time>2012-02-11T14:56:38Z</time>
      </trkpt>
      <trkpt lat="47.21615" lon="0.05587">
        <ele>80</ele>
        <time>2012-02-11T14:56:42Z</time>
      </trkpt>
      <trkpt lat="47.21615" lon="0.05594">
        <ele>80</ele>
        <time>2012-02-11T14:56:46Z</time>
      </trkpt>
      <trkpt lat="47.21614" lon="0.05601">
        <ele>80</ele>
        <time>2012-02-11T14:56:50Z</time>
      </trkpt>
      <trkpt lat="47.21612" lon="0.05608">
        <ele>80</ele>
        <time>2012-02-11T14:56:54Z</time>
      </trkpt>
      <trkpt lat="47.21612" lon="0.05615">
        <ele>80</ele>
        <time>2012-02-11T14:56:59Z</time>
      </trkpt>
      <trkpt lat="47.21611" lon="0.05622">
        <ele>80</ele>
        <time>2012-02-11T14:57:03Z</time>
      </trkpt>
      <trkpt lat="47.2161" lon="0.05629">
        <ele>80</ele>
        <time>2012-02-11T14:57:07Z</time>
      </trkpt>
      <trkpt lat="47.2161" lon="0.05636">
        <ele>80</ele>
        <time>2012-02-11T14:57:12Z</time>
      </trkpt>
      <trkpt lat="47.21609" lon="0.05644">
        <ele>80</ele>
        <time>2012-02-11T14:57:17Z</time>
      </trkpt>
      <trkpt lat="47.21609" lon="0.05651">
        <ele>80</ele>
        <time>2012-02-11T14:57:22Z</time>
      </trkpt>
      <trkpt lat="47.21608" lon="0.05658">
        <ele>80</ele>
        <time>2012-02-11T14:57:28Z</time>
      </trkpt>
      <trkpt lat="47.21608" lon="0.05666">
        <ele>80</ele>
        <time>2012-02-11T14:57:34Z</time>
      </trkpt>
      <trkpt lat="47.21609" lon="0.05672">
        <ele>80</ele>
        <time>2012-02-11T14:57:41Z</time>
      </trkpt>
      <trkpt lat="47.2161" lon="0.0568">
        <ele>80</ele>
        <time>2012-02-11T14:57:50Z</time>
      </trkpt>
      <trkpt lat="47.2161" lon="0.05687">
        <ele>80</ele>
        <time>2012-02-11T14:57:56Z</time>
      </trkpt>
      <trkpt lat="47.21611" lon="0.05695">
        <ele>80</ele>
        <time>2012-02-11T14:58:02Z</time>
      </trkpt>
      <trkpt lat="47.21612" lon="0.05702">
        <ele>80</ele>
        <time>2012-02-11T14:58:08Z</time>
      </trkpt>
      <trkpt lat="47.21613" lon="0.05709">
        <ele>80</ele>
        <time>2012-02-11T14:58:13Z</time>
      </trkpt>
      <trkpt lat="47.21614" lon="0.05716">
        <ele>80</ele>
        <time>2012-02-11T14:58:18Z</time>
      </trkpt>
      <trkpt lat="47.21612" lon="0.05724">
        <ele>80</ele>
        <time>2012-02-11T14:58:24Z</time>
      </trkpt>
      <trkpt lat="47.21612" lon="0.05731">
        <ele>80</ele>
        <time>2012-02-11T14:58:31Z</time>
      </trkpt>
      <trkpt lat="47.21611" lon="0.05738">
        <ele>80</ele>
        <time>2012-02-11T14:58:37Z</time>
      </trkpt>
      <trkpt lat="47.21611" lon="0.05745">
        <ele>80</ele>
        <time>2012-02-11T14:58:54Z</time>
      </trkpt>
      <trkpt lat="47.21608" lon="0.0575">
        <ele>81</ele>
        <time>2012-02-11T14:59:15Z</time>
      </trkpt>
      <trkpt lat="47.21603" lon="0.05753">
        <ele>81</ele>
        <time>2012-02-11T14:59:29Z</time>
      </trkpt>
      <trkpt lat="47.21598" lon="0.05752">
        <ele>81</ele>
        <time>2012-02-11T14:59:38Z</time>
      </trkpt>
      <trkpt lat="47.21594" lon="0.05751">
        <ele>81</ele>
        <time>2012-02-11T14:59:44Z</time>
      </trkpt>
      <trkpt lat="47.21589" lon="0.05751">
        <ele>81</ele>
        <time>2012-02-11T14:59:50Z</time>
      </trkpt>
      <trkpt lat="47.21584" lon="0.05751">
        <ele>81</ele>
        <time>2012-02-11T14:59:56Z</time>
      </trkpt>
      <trkpt lat="47.21579" lon="0.05753">
        <ele>81</ele>
        <time>2012-02-11T15:00:02Z</time>
      </trkpt>
      <trkpt lat="47.21574" lon="0.05752">
        <ele>81</ele>
        <time>2012-02-11T15:00:08Z</time>
      </trkpt>
      <trkpt lat="47.21569" lon="0.05752">
        <ele>81</ele>
        <time>2012-02-11T15:00:14Z</time>
      </trkpt>
      <trkpt lat="47.21564" lon="0.05753">
        <ele>81</ele>
        <time>2012-02-11T15:00:20Z</time>
      </trkpt>
      <trkpt lat="47.2156" lon="0.05756">
        <ele>81</ele>
        <time>2012-02-11T15:00:26Z</time>
      </trkpt>
      <trkpt lat="47.21555" lon="0.0576">
        <ele>81</ele>
        <time>2012-02-11T15:00:32Z</time>
      </trkpt>
      <trkpt lat="47.21551" lon="0.05763">
        <ele>81</ele>
        <time>2012-02-11T15:00:38Z</time>
      </trkpt>
      <trkpt lat="47.21546" lon="0.05765">
        <ele>81</ele>
        <time>2012-02-11T15:00:45Z</time>
      </trkpt>
      <trkpt lat="47.21541" lon="0.05766">
        <ele>82</ele>
        <time>2012-02-11T15:00:50Z</time>
      </trkpt>
      <trkpt lat="47.21536" lon="0.05767">
        <ele>82</ele>
        <time>2012-02-11T15:00:55Z</time>
      </trkpt>
      <trkpt lat="47.21532" lon="0.05765">
        <ele>82</ele>
        <time>2012-02-11T15:01:01Z</time>
      </trkpt>
      <trkpt lat="47.21527" lon="0.05764">
        <ele>82</ele>
        <time>2012-02-11T15:01:07Z</time>
      </trkpt>
      <trkpt lat="47.21523" lon="0.0576">
        <ele>82</ele>
        <time>2012-02-11T15:01:20Z</time>
      </trkpt>
      <trkpt lat="47.2152" lon="0.05754">
        <ele>83</ele>
        <time>2012-02-11T15:01:36Z</time>
      </trkpt>
      <trkpt lat="47.21515" lon="0.0575">
        <ele>83</ele>
        <time>2012-02-11T15:01:41Z</time>
      </trkpt>
      <trkpt lat="47.21511" lon="0.05746">
        <ele>83</ele>
        <time>2012-02-11T15:01:46Z</time>
      </trkpt>
      <trkpt lat="47.21507" lon="0.05742">
        <ele>84</ele>
        <time>2012-02-11T15:01:51Z</time>
      </trkpt>
      <trkpt lat="47.21502" lon="0.05739">
        <ele>84</ele>
        <time>2012-02-11T15:01:56Z</time>
      </trkpt>
      <trkpt lat="47.21497" lon="0.05736">
        <ele>84</ele>
        <time>2012-02-11T15:02:01Z</time>
      </trkpt>
      <trkpt lat="47.21492" lon="0.05733">
        <ele>84</ele>
        <time>2012-02-11T15:02:06Z</time>
      </trkpt>
      <trkpt lat="47.21487" lon="0.05731">
        <ele>85</ele>
        <time>2012-02-11T15:02:12Z</time>
      </trkpt>
      <trkpt lat="47.21483" lon="0.0573">
        <ele>85</ele>
        <time>2012-02-11T15:02:17Z</time>
      </trkpt>
      <trkpt lat="47.21478" lon="0.05729">
        <ele>86</ele>
        <time>2012-02-11T15:02:23Z</time>
      </trkpt>
      <trkpt lat="47.21473" lon="0.05726">
        <ele>87</ele>
        <time>2012-02-11T15:02:29Z</time>
      </trkpt>
      <trkpt lat="47.21469" lon="0.05722">
        <ele>88</ele>
        <time>2012-02-11T15:02:35Z</time>
      </trkpt>
      <trkpt lat="47.21465" lon="0.05717">
        <ele>89</ele>
        <time>2012-02-11T15:02:40Z</time>
      </trkpt>
      <trkpt lat="47.21462" lon="0.05712">
        <ele>89</ele>
        <time>2012-02-11T15:02:45Z</time>
      </trkpt>
      <trkpt lat="47.21458" lon="0.05707">
        <ele>90</ele>
        <time>2012-02-11T15:02:50Z</time>
      </trkpt>
      <trkpt lat="47.21454" lon="0.05701">
        <ele>90</ele>
        <time>2012-02-11T15:02:55Z</time>
      </trkpt>
      <trkpt lat="47.2145" lon="0.05694">
        <ele>90</ele>
        <time>2012-02-11T15:03:00Z</time>
      </trkpt>
      <trkpt lat="47.21447" lon="0.05688">
        <ele>91</ele>
        <time>2012-02-11T15:03:05Z</time>
      </trkpt>
      <trkpt lat="47.21443" lon="0.05682">
        <ele>91</ele>
        <time>2012-02-11T15:03:10Z</time>
      </trkpt>
      <trkpt lat="47.2144" lon="0.05677">
        <ele>91</ele>
        <time>2012-02-11T15:03:15Z</time>
      </trkpt>
      <trkpt lat="47.21437" lon="0.05671">
        <ele>92</ele>
        <time>2012-02-11T15:03:20Z</time>
      </trkpt>
      <trkpt lat="47.21434" lon="0.05666">
        <ele>92</ele>
        <time>2012-02-11T15:03:25Z</time>
      </trkpt>
      <trkpt lat="47.21431" lon="0.0566">
        <ele>93</ele>
        <time>2012-02-11T15:03:31Z</time>
      </trkpt>
      <trkpt lat="47.21428" lon="0.05655">
        <ele>93</ele>
        <time>2012-02-11T15:03:36Z</time>
      </trkpt>
      <trkpt lat="47.21424" lon="0.0565">
        <ele>93</ele>
        <time>2012-02-11T15:03:41Z</time>
      </trkpt>
      <trkpt lat="47.2142" lon="0.05645">
        <ele>93</ele>
        <time>2012-02-11T15:03:45Z</time>
      </trkpt>
      <trkpt lat="47.21416" lon="0.0564">
        <ele>93</ele>
        <time>2012-02-11T15:03:49Z</time>
      </trkpt>
      <trkpt lat="47.21412" lon="0.05637">
        <ele>94</ele>
        <time>2012-02-11T15:03:53Z</time>
      </trkpt>
      <trkpt lat="47.21408" lon="0.05633">
        <ele>94</ele>
        <time>2012-02-11T15:03:57Z</time>
      </trkpt>
      <trkpt lat="47.21404" lon="0.0563">
        <ele>94</ele>
        <time>2012-02-11T15:04:01Z</time>
      </trkpt>
      <trkpt lat="47.21399" lon="0.05626">
        <ele>94</ele>
        <time>2012-02-11T15:04:06Z</time>
      </trkpt>
      <trkpt lat="47.21394" lon="0.05622">
        <ele>94</ele>
        <time>2012-02-11T15:04:11Z</time>
      </trkpt>
      <trkpt lat="47.21389" lon="0.05618">
        <ele>94</ele>
        <time>2012-02-11T15:04:16Z</time>
      </trkpt>
      <trkpt lat="47.21385" lon="0.05615">
        <ele>94</ele>
        <time>2012-02-11T15:04:21Z</time>
      </trkpt>
      <trkpt lat="47.2138" lon="0.05612">
        <ele>95</ele>
        <time>2012-02-11T15:04:26Z</time>
      </trkpt>
      <trkpt lat="47.21375" lon="0.0561">
        <ele>95</ele>
        <time>2012-02-11T15:04:31Z</time>
      </trkpt>
      <trkpt lat="47.21371" lon="0.05607">
        <ele>95</ele>
        <time>2012-02-11T15:04:35Z</time>
      </trkpt>
      <trkpt lat="47.21366" lon="0.05604">
        <ele>95</ele>
        <time>2012-02-11T15:04:39Z</time>
      </trkpt>
      <trkpt lat="47.21362" lon="0.05602">
        <ele>95</ele>
        <time>2012-02-11T15:04:43Z</time>
      </trkpt>
      <trkpt lat="47.21358" lon="0.05599">
        <ele>96</ele>
        <time>2012-02-11T15:04:47Z</time>
      </trkpt>
      <trkpt lat="47.21354" lon="0.05594">
        <ele>96</ele>
        <time>2012-02-11T15:04:54Z</time>
      </trkpt>
      <trkpt lat="47.21351" lon="0.0559">
        <ele>97</ele>
        <time>2012-02-11T15:05:12Z</time>
      </trkpt>
      <trkpt lat="47.21346" lon="0.05589">
        <ele>97</ele>
        <time>2012-02-11T15:05:22Z</time>
      </trkpt>
      <trkpt lat="47.21341" lon="0.05587">
        <ele>97</ele>
        <time>2012-02-11T15:05:27Z</time>
      </trkpt>
      <trkpt lat="47.21337" lon="0.05587">
        <ele>98</ele>
        <time>2012-02-11T15:05:36Z</time>
      </trkpt>
      <trkpt lat="47.21331" lon="0.05587">
        <ele>98</ele>
        <time>2012-02-11T15:05:41Z</time>
      </trkpt>
      <trkpt lat="47.21327" lon="0.05583">
        <ele>98</ele>
        <time>2012-02-11T15:05:46Z</time>
      </trkpt>
      <trkpt lat="47.21324" lon="0.05577">
        <ele>98</ele>
        <time>2012-02-11T15:05:51Z</time>
      </trkpt>
      <trkpt lat="47.2132" lon="0.05572">
        <ele>98</ele>
        <time>2012-02-11T15:05:56Z</time>
      </trkpt>
      <trkpt lat="47.21315" lon="0.05566">
        <ele>99</ele>
        <time>2012-02-11T15:06:01Z</time>
      </trkpt>
      <trkpt lat="47.21311" lon="0.05561">
        <ele>99</ele>
        <time>2012-02-11T15:06:06Z</time>
      </trkpt>
      <trkpt lat="47.21307" lon="0.05556">
        <ele>99</ele>
        <time>2012-02-11T15:06:11Z</time>
      </trkpt>
      <trkpt lat="47.21303" lon="0.05551">
        <ele>99</ele>
        <time>2012-02-11T15:06:16Z</time>
      </trkpt>
      <trkpt lat="47.21299" lon="0.05545">
        <ele>100</ele>
        <time>2012-02-11T15:06:28Z</time>
      </trkpt>
      <trkpt lat="47.21294" lon="0.05543">
        <ele>101</ele>
        <time>2012-02-11T15:06:33Z</time>
      </trkpt>
      <trkpt lat="47.21289" lon="0.05542">
        <ele>101</ele>
        <time>2012-02-11T15:06:38Z</time>
      </trkpt>
      <trkpt lat="47.21284" lon="0.0554">
        <ele>102</ele>
        <time>2012-02-11T15:06:43Z</time>
      </trkpt>
      <trkpt lat="47.21278" lon="0.05538">
        <ele>102</ele>
        <time>2012-02-11T15:06:48Z</time>
      </trkpt>
      <trkpt lat="47.21273" lon="0.05536">
        <ele>103</ele>
        <time>2012-02-11T15:06:52Z</time>
      </trkpt>
      <trkpt lat="47.21268" lon="0.05535">
        <ele>103</ele>
        <time>2012-02-11T15:06:56Z</time>
      </trkpt>
      <trkpt lat="47.21263" lon="0.05534">
        <ele>104</ele>
        <time>2012-02-11T15:07:00Z</time>
      </trkpt>
      <trkpt lat="47.21258" lon="0.05533">
        <ele>104</ele>
        <time>2012-02-11T15:07:04Z</time>
      </trkpt>
      <trkpt lat="47.21254" lon="0.05531">
        <ele>104</ele>
        <time>2012-02-11T15:07:08Z</time>
      </trkpt>
      <trkpt lat="47.21249" lon="0.0553">
        <ele>105</ele>
        <time>2012-02-11T15:07:12Z</time>
      </trkpt>
      <trkpt lat="47.21245" lon="0.05528">
        <ele>105</ele>
        <time>2012-02-11T15:07:16Z</time>
      </trkpt>
      <trkpt lat="47.2124" lon="0.05527">
        <ele>105</ele>
        <time>2012-02-11T15:07:20Z</time>
      </trkpt>
      <trkpt lat="47.21235" lon="0.05524">
        <ele>106</ele>
        <time>2012-02-11T15:07:25Z</time>
      </trkpt>
      <trkpt lat="47.21231" lon="0.0552">
        <ele>106</ele>
        <time>2012-02-11T15:07:29Z</time>
      </trkpt>
      <trkpt lat="47.21227" lon="0.05516">
        <ele>106</ele>
        <time>2012-02-11T15:07:33Z</time>
      </trkpt>
      <trkpt lat="47.21224" lon="0.0551">
        <ele>106</ele>
        <time>2012-02-11T15:07:37Z</time>
      </trkpt>
      <trkpt lat="47.21222" lon="0.05503">
        <ele>106</ele>
        <time>2012-02-11T15:07:42Z</time>
      </trkpt>
      <trkpt lat="47.21218" lon="0.05497">
        <ele>106</ele>
        <time>2012-02-11T15:07:47Z</time>
      </trkpt>
      <trkpt lat="47.21214" lon="0.05493">
        <ele>106</ele>
        <time>2012-02-11T15:07:53Z</time>
      </trkpt>
      <trkpt lat="47.2121" lon="0.05496">
        <ele>106</ele>
        <time>2012-02-11T15:08:01Z</time>
      </trkpt>
      <trkpt lat="47.21207" lon="0.05502">
        <ele>106</ele>
        <time>2012-02-11T15:08:07Z</time>
      </trkpt>
      <trkpt lat="47.21203" lon="0.05507">
        <ele>107</ele>
        <time>2012-02-11T15:08:12Z</time>
      </trkpt>
      <trkpt lat="47.212" lon="0.05513">
        <ele>107</ele>
        <time>2012-02-11T15:08:17Z</time>
      </trkpt>
      <trkpt lat="47.21197" lon="0.05519">
        <ele>107</ele>
        <time>2012-02-11T15:08:22Z</time>
      </trkpt>
      <trkpt lat="47.21195" lon="0.05525">
        <ele>107</ele>
        <time>2012-02-11T15:08:27Z</time>
      </trkpt>
      <trkpt lat="47.21193" lon="0.05531">
        <ele>107</ele>
        <time>2012-02-11T15:08:32Z</time>
      </trkpt>
      <trkpt lat="47.21192" lon="0.05537">
        <ele>107</ele>
        <time>2012-02-11T15:08:37Z</time>
      </trkpt>
      <trkpt lat="47.2119" lon="0.05544">
        <ele>107</ele>
        <time>2012-02-11T15:08:43Z</time>
      </trkpt>
      <trkpt lat="47.21186" lon="0.0555">
        <ele>107</ele>
        <time>2012-02-11T15:08:49Z</time>
      </trkpt>
      <trkpt lat="47.21184" lon="0.05556">
        <ele>107</ele>
        <time>2012-02-11T15:08:55Z</time>
      </trkpt>
      <trkpt lat="47.21181" lon="0.05562">
        <ele>108</ele>
        <time>2012-02-11T15:09:01Z</time>
      </trkpt>
      <trkpt lat="47.21178" lon="0.05568">
        <ele>108</ele>
        <time>2012-02-11T15:09:06Z</time>
      </trkpt>
      <trkpt lat="47.21176" lon="0.05574">
        <ele>108</ele>
        <time>2012-02-11T15:09:11Z</time>
      </trkpt>
      <trkpt lat="47.21173" lon="0.0558">
        <ele>108</ele>
        <time>2012-02-11T15:09:16Z</time>
      </trkpt>
      <trkpt lat="47.21171" lon="0.05585">
        <ele>108</ele>
        <time>2012-02-11T15:09:21Z</time>
      </trkpt>
      <trkpt lat="47.21168" lon="0.05591">
        <ele>108</ele>
        <time>2012-02-11T15:09:26Z</time>
      </trkpt>
      <trkpt lat="47.21165" lon="0.05596">
        <ele>109</ele>
        <time>2012-02-11T15:09:31Z</time>
      </trkpt>
      <trkpt lat="47.21162" lon="0.05603">
        <ele>109</ele>
        <time>2012-02-11T15:09:37Z</time>
      </trkpt>
      <trkpt lat="47.2116" lon="0.05608">
        <ele>109</ele>
        <time>2012-02-11T15:09:42Z</time>
      </trkpt>
      <trkpt lat="47.21157" lon="0.05614">
        <ele>109</ele>
        <time>2012-02-11T15:09:47Z</time>
      </trkpt>
      <trkpt lat="47.21154" lon="0.0562">
        <ele>110</ele>
        <time>2012-02-11T15:09:53Z</time>
      </trkpt>
      <trkpt lat="47.2115" lon="0.05626">
        <ele>110</ele>
        <time>2012-02-11T15:09:59Z</time>
      </trkpt>
      <trkpt lat="47.21148" lon="0.05632">
        <ele>110</ele>
        <time>2012-02-11T15:10:04Z</time>
      </trkpt>
      <trkpt lat="47.21145" lon="0.05637">
        <ele>111</ele>
        <time>2012-02-11T15:10:09Z</time>
      </trkpt>
      <trkpt lat="47.21142" lon="0.05642">
        <ele>111</ele>
        <time>2012-02-11T15:10:14Z</time>
      </trkpt>
      <trkpt lat="47.21139" lon="0.05648">
        <ele>111</ele>
        <time>2012-02-11T15:10:19Z</time>
      </trkpt>
      <trkpt lat="47.21135" lon="0.05654">
        <ele>112</ele>
        <time>2012-02-11T15:10:24Z</time>
      </trkpt>
      <trkpt lat="47.21132" lon="0.05659">
        <ele>112</ele>
        <time>2012-02-11T15:10:28Z</time>
      </trkpt>
      <trkpt lat="47.21128" lon="0.05662">
        <ele>112</ele>
        <time>2012-02-11T15:10:32Z</time>
      </trkpt>
      <trkpt lat="47.21124" lon="0.05667">
        <ele>113</ele>
        <time>2012-02-11T15:10:36Z</time>
      </trkpt>
      <trkpt lat="47.21121" lon="0.05672">
        <ele>113</ele>
        <time>2012-02-11T15:10:40Z</time>
      </trkpt>
      <trkpt lat="47.21117" lon="0.05677">
        <ele>113</ele>
        <time>2012-02-11T15:10:44Z</time>
      </trkpt>
      <trkpt lat="47.21114" lon="0.05682">
        <ele>113</ele>
        <time>2012-02-11T15:10:48Z</time>
      </trkpt>
      <trkpt lat="47.21111" lon="0.05688">
        <ele>114</ele>
        <time>2012-02-11T15:10:52Z</time>
      </trkpt>
      <trkpt lat="47.21107" lon="0.05692">
        <ele>114</ele>
        <time>2012-02-11T15:10:56Z</time>
      </trkpt>
      <trkpt lat="47.21104" lon="0.05698">
        <ele>115</ele>
        <time>2012-02-11T15:11:00Z</time>
      </trkpt>
      <trkpt lat="47.21101" lon="0.05703">
        <ele>115</ele>
        <time>2012-02-11T15:11:04Z</time>
      </trkpt>
      <trkpt lat="47.21098" lon="0.05709">
        <ele>115</ele>
        <time>2012-02-11T15:11:09Z</time>
      </trkpt>
      <trkpt lat="47.21098" lon="0.05716">
        <ele>116</ele>
        <time>2012-02-11T15:11:16Z</time>
      </trkpt>
      <trkpt lat="47.21103" lon="0.05719">
        <ele>116</ele>
        <time>2012-02-11T15:11:22Z</time>
      </trkpt>
      <trkpt lat="47.21107" lon="0.05722">
        <ele>117</ele>
        <time>2012-02-11T15:11:42Z</time>
      </trkpt>
      <trkpt lat="47.21102" lon="0.05719">
        <ele>118</ele>
        <time>2012-02-11T15:12:21Z</time>
      </trkpt>
      <trkpt lat="47.21099" lon="0.05714">
        <ele>118</ele>
        <time>2012-02-11T15:12:36Z</time>
      </trkpt>
      <trkpt lat="47.21103" lon="0.05719">
        <ele>118</ele>
        <time>2012-02-11T15:13:08Z</time>
      </trkpt>
      <trkpt lat="47.21107" lon="0.05722">
        <ele>118</ele>
        <time>2012-02-11T15:13:26Z</time>
      </trkpt>
      <trkpt lat="47.21112" lon="0.05723">
        <ele>118</ele>
        <time>2012-02-11T15:13:43Z</time>
      </trkpt>
      <trkpt lat="47.21117" lon="0.05727">
        <ele>119</ele>
        <time>2012-02-11T15:14:04Z</time>
      </trkpt>
      <trkpt lat="47.21122" lon="0.0573">
        <ele>119</ele>
        <time>2012-02-11T15:14:10Z</time>
      </trkpt>
      <trkpt lat="47.21126" lon="0.05733">
        <ele>120</ele>
        <time>2012-02-11T15:14:15Z</time>
      </trkpt>
      <trkpt lat="47.2113" lon="0.05736">
        <ele>120</ele>
        <time>2012-02-11T15:14:20Z</time>
      </trkpt>
      <trkpt lat="47.21134" lon="0.05739">
        <ele>120</ele>
        <time>2012-02-11T15:14:24Z</time>
      </trkpt>
      <trkpt lat="47.21138" lon="0.05742">
        <ele>120</ele>
        <time>2012-02-11T15:14:28Z</time>
      </trkpt>
      <trkpt lat="47.21143" lon="0.05745">
        <ele>120</ele>
        <time>2012-02-11T15:14:32Z</time>
      </trkpt>
      <trkpt lat="47.21147" lon="0.05748">
        <ele>121</ele>
        <time>2012-02-11T15:14:36Z</time>
      </trkpt>
      <trkpt lat="47.21151" lon="0.0575">
        <ele>121</ele>
        <time>2012-02-11T15:14:40Z</time>
      </trkpt>
      <trkpt lat="47.21156" lon="0.05753">
        <ele>121</ele>
        <time>2012-02-11T15:14:44Z</time>
      </trkpt>
      <trkpt lat="47.2116" lon="0.05756">
        <ele>122</ele>
        <time>2012-02-11T15:14:48Z</time>
      </trkpt>
      <trkpt lat="47.21165" lon="0.05759">
        <ele>122</ele>
        <time>2012-02-11T15:14:52Z</time>
      </trkpt>
      <trkpt lat="47.21169" lon="0.05761">
        <ele>122</ele>
        <time>2012-02-11T15:14:56Z</time>
      </trkpt>
      <trkpt lat="47.21174" lon="0.05764">
        <ele>122</ele>
        <time>2012-02-11T15:15:00Z</time>
      </trkpt>
      <trkpt lat="47.21178" lon="0.05767">
        <ele>123</ele>
        <time>2012-02-11T15:15:04Z</time>
      </trkpt>
      <trkpt lat="47.21183" lon="0.05769">
        <ele>123</ele>
        <time>2012-02-11T15:15:08Z</time>
      </trkpt>
      <trkpt lat="47.21187" lon="0.05772">
        <ele>123</ele>
        <time>2012-02-11T15:15:12Z</time>
      </trkpt>
      <trkpt lat="47.21192" lon="0.05775">
        <ele>123</ele>
        <time>2012-02-11T15:15:16Z</time>
      </trkpt>
      <trkpt lat="47.21196" lon="0.05778">
        <ele>124</ele>
        <time>2012-02-11T15:15:20Z</time>
      </trkpt>
      <trkpt lat="47.212" lon="0.05781">
        <ele>124</ele>
        <time>2012-02-11T15:15:24Z</time>
      </trkpt>
      <trkpt lat="47.21204" lon="0.05785">
        <ele>124</ele>
        <time>2012-02-11T15:15:28Z</time>
      </trkpt>
      <trkpt lat="47.21208" lon="0.05789">
        <ele>124</ele>
        <time>2012-02-11T15:15:32Z</time>
      </trkpt>
      <trkpt lat="47.21211" lon="0.05794">
        <ele>124</ele>
        <time>2012-02-11T15:15:36Z</time>
      </trkpt>
      <trkpt lat="47.21214" lon="0.05798">
        <ele>124</ele>
        <time>2012-02-11T15:15:41Z</time>
      </trkpt>
      <trkpt lat="47.21217" lon="0.05792">
        <ele>124</ele>
        <time>2012-02-11T15:15:50Z</time>
      </trkpt>
      <trkpt lat="47.21212" lon="0.05792">
        <ele>125</ele>
        <time>2012-02-11T15:16:21Z</time>
      </trkpt>
      <trkpt lat="47.2121" lon="0.05799">
        <ele>125</ele>
        <time>2012-02-11T15:17:17Z</time>
      </trkpt>
      <trkpt lat="47.21213" lon="0.05804">
        <ele>125</ele>
        <time>2012-02-11T15:17:22Z</time>
      </trkpt>
      <trkpt lat="47.21216" lon="0.05808">
        <ele>125</ele>
        <time>2012-02-11T15:17:27Z</time>
      </trkpt>
      <trkpt lat="47.21221" lon="0.05813">
        <ele>125</ele>
        <time>2012-02-11T15:17:32Z</time>
      </trkpt>
      <trkpt lat="47.21225" lon="0.05817">
        <ele>125</ele>
        <time>2012-02-11T15:17:36Z</time>
      </trkpt>
      <trkpt lat="47.21228" lon="0.05821">
        <ele>126</ele>
        <time>2012-02-11T15:17:40Z</time>
      </trkpt>
      <trkpt lat="47.21232" lon="0.05826">
        <ele>126</ele>
        <time>2012-02-11T15:17:44Z</time>
      </trkpt>
      <trkpt lat="47.21235" lon="0.0583">
        <ele>126</ele>
        <time>2012-02-11T15:17:48Z</time>
      </trkpt>
      <trkpt lat="47.21239" lon="0.05834">
        <ele>126</ele>
        <time>2012-02-11T15:17:52Z</time>
      </trkpt>
      <trkpt lat="47.21243" lon="0.05838">
        <ele>126</ele>
        <time>2012-02-11T15:17:56Z</time>
      </trkpt>
      <trkpt lat="47.21246" lon="0.05843">
        <ele>126</ele>
        <time>2012-02-11T15:18:00Z</time>
      </trkpt>
      <trkpt lat="47.2125" lon="0.05847">
        <ele>126</ele>
        <time>2012-02-11T15:18:04Z</time>
      </trkpt>
      <trkpt lat="47.21253" lon="0.05852">
        <ele>126</ele>
        <time>2012-02-11T15:18:15Z</time>
      </trkpt>
      <trkpt lat="47.21256" lon="0.05857">
        <ele>126</ele>
        <time>2012-02-11T15:18:21Z</time>
      </trkpt>
      <trkpt lat="47.2126" lon="0.05862">
        <ele>126</ele>
        <time>2012-02-11T15:18:25Z</time>
      </trkpt>
      <trkpt lat="47.21264" lon="0.05866">
        <ele>126</ele>
        <time>2012-02-11T15:18:29Z</time>
      </trkpt>
      <trkpt lat="47.21268" lon="0.0587">
        <ele>126</ele>
        <time>2012-02-11T15:18:33Z</time>
      </trkpt>
      <trkpt lat="47.21272" lon="0.05874">
        <ele>126</ele>
        <time>2012-02-11T15:18:37Z</time>
      </trkpt>
      <trkpt lat="47.21276" lon="0.05878">
        <ele>126</ele>
        <time>2012-02-11T15:18:41Z</time>
      </trkpt>
      <trkpt lat="47.21281" lon="0.05882">
        <ele>126</ele>
        <time>2012-02-11T15:18:46Z</time>
      </trkpt>
      <trkpt lat="47.21284" lon="0.05885">
        <ele>126</ele>
        <time>2012-02-11T15:18:50Z</time>
      </trkpt>
      <trkpt lat="47.21288" lon="0.05889">
        <ele>126</ele>
        <time>2012-02-11T15:18:54Z</time>
      </trkpt>
      <trkpt lat="47.21293" lon="0.05892">
        <ele>126</ele>
        <time>2012-02-11T15:18:58Z</time>
      </trkpt>
      <trkpt lat="47.21297" lon="0.05896">
        <ele>126</ele>
        <time>2012-02-11T15:19:02Z</time>
      </trkpt>
      <trkpt lat="47.21301" lon="0.05899">
        <ele>126</ele>
        <time>2012-02-11T15:19:06Z</time>
      </trkpt>
      <trkpt lat="47.21305" lon="0.05902">
        <ele>126</ele>
        <time>2012-02-11T15:19:10Z</time>
      </trkpt>
      <trkpt lat="47.21309" lon="0.05905">
        <ele>126</ele>
        <time>2012-02-11T15:19:14Z</time>
      </trkpt>
      <trkpt lat="47.21314" lon="0.0591">
        <ele>126</ele>
        <time>2012-02-11T15:19:19Z</time>
      </trkpt>
      <trkpt lat="47.21318" lon="0.05914">
        <ele>126</ele>
        <time>2012-02-11T15:19:24Z</time>
      </trkpt>
      <trkpt lat="47.21323" lon="0.05917">
        <ele>126</ele>
        <time>2012-02-11T15:19:29Z</time>
      </trkpt>
      <trkpt lat="47.21327" lon="0.05922">
        <ele>126</ele>
        <time>2012-02-11T15:19:34Z</time>
      </trkpt>
      <trkpt lat="47.21331" lon="0.05925">
        <ele>126</ele>
        <time>2012-02-11T15:19:38Z</time>
      </trkpt>
      <trkpt lat="47.21335" lon="0.05929">
        <ele>126</ele>
        <time>2012-02-11T15:19:42Z</time>
      </trkpt>
      <trkpt lat="47.2134" lon="0.05933">
        <ele>126</ele>
        <time>2012-02-11T15:19:47Z</time>
      </trkpt>
      <trkpt lat="47.21344" lon="0.05936">
        <ele>126</ele>
        <time>2012-02-11T15:19:51Z</time>
      </trkpt>
      <trkpt lat="47.21348" lon="0.05939">
        <ele>126</ele>
        <time>2012-02-11T15:19:55Z</time>
      </trkpt>
      <trkpt lat="47.21352" lon="0.05942">
        <ele>126</ele>
        <time>2012-02-11T15:19:59Z</time>
      </trkpt>
      <trkpt lat="47.21356" lon="0.05945">
        <ele>126</ele>
        <time>2012-02-11T15:20:03Z</time>
      </trkpt>
      <trkpt lat="47.2136" lon="0.0595">
        <ele>126</ele>
        <time>2012-02-11T15:20:08Z</time>
      </trkpt>
      <trkpt lat="47.21365" lon="0.05953">
        <ele>126</ele>
        <time>2012-02-11T15:20:12Z</time>
      </trkpt>
      <trkpt lat="47.21369" lon="0.05957">
        <ele>126</ele>
        <time>2012-02-11T15:20:16Z</time>
      </trkpt>
      <trkpt lat="47.21373" lon="0.05961">
        <ele>126</ele>
        <time>2012-02-11T15:20:23Z</time>
      </trkpt>
      <trkpt lat="47.21377" lon="0.05965">
        <ele>126</ele>
        <time>2012-02-11T15:20:28Z</time>
      </trkpt>
      <trkpt lat="47.21381" lon="0.0597">
        <ele>126</ele>
        <time>2012-02-11T15:20:33Z</time>
      </trkpt>
      <trkpt lat="47.21385" lon="0.05974">
        <ele>126</ele>
        <time>2012-02-11T15:20:38Z</time>
      </trkpt>
      <trkpt lat="47.21389" lon="0.05979">
        <ele>126</ele>
        <time>2012-02-11T15:20:43Z</time>
      </trkpt>
      <trkpt lat="47.21393" lon="0.05984">
        <ele>126</ele>
        <time>2012-02-11T15:20:48Z</time>
      </trkpt>
      <trkpt lat="47.21397" lon="0.05988">
        <ele>126</ele>
        <time>2012-02-11T15:20:53Z</time>
      </trkpt>
      <trkpt lat="47.21401" lon="0.05993">
        <ele>126</ele>
        <time>2012-02-11T15:20:58Z</time>
      </trkpt>
      <trkpt lat="47.21405" lon="0.05998">
        <ele>126</ele>
        <time>2012-02-11T15:21:03Z</time>
      </trkpt>
      <trkpt lat="47.21409" lon="0.06003">
        <ele>126</ele>
        <time>2012-02-11T15:21:08Z</time>
      </trkpt>
      <trkpt lat="47.21411" lon="0.06009">
        <ele>126</ele>
        <time>2012-02-11T15:21:12Z</time>
      </trkpt>
      <trkpt lat="47.21414" lon="0.06015">
        <ele>126</ele>
        <time>2012-02-11T15:21:16Z</time>
      </trkpt>
      <trkpt lat="47.21416" lon="0.06021">
        <ele>126</ele>
        <time>2012-02-11T15:21:21Z</time>
      </trkpt>
      <trkpt lat="47.21414" lon="0.06028">
        <ele>126</ele>
        <time>2012-02-11T15:21:29Z</time>
      </trkpt>
      <trkpt lat="47.21411" lon="0.06033">
        <ele>126</ele>
        <time>2012-02-11T15:21:33Z</time>
      </trkpt>
      <trkpt lat="47.21407" lon="0.06039">
        <ele>126</ele>
        <time>2012-02-11T15:21:37Z</time>
      </trkpt>
      <trkpt lat="47.21404" lon="0.06045">
        <ele>126</ele>
        <time>2012-02-11T15:21:41Z</time>
      </trkpt>
      <trkpt lat="47.21402" lon="0.06051">
        <ele>126</ele>
        <time>2012-02-11T15:21:45Z</time>
      </trkpt>
      <trkpt lat="47.214" lon="0.06057">
        <ele>126</ele>
        <time>2012-02-11T15:21:49Z</time>
      </trkpt>
      <trkpt lat="47.21397" lon="0.06062">
        <ele>126</ele>
        <time>2012-02-11T15:21:53Z</time>
      </trkpt>
      <trkpt lat="47.21395" lon="0.0607">
        <ele>126</ele>
        <time>2012-02-11T15:21:58Z</time>
      </trkpt>
      <trkpt lat="47.21393" lon="0.06077">
        <ele>126</ele>
        <time>2012-02-11T15:22:03Z</time>
      </trkpt>
      <trkpt lat="47.21391" lon="0.06084">
        <ele>126</ele>
        <time>2012-02-11T15:22:08Z</time>
      </trkpt>
      <trkpt lat="47.21389" lon="0.0609">
        <ele>126</ele>
        <time>2012-02-11T15:22:12Z</time>
      </trkpt>
      <trkpt lat="47.21387" lon="0.06097">
        <ele>126</ele>
        <time>2012-02-11T15:22:16Z</time>
      </trkpt>
      <trkpt lat="47.21385" lon="0.06103">
        <ele>126</ele>
        <time>2012-02-11T15:22:20Z</time>
      </trkpt>
      <trkpt lat="47.21382" lon="0.06109">
        <ele>126</ele>
        <time>2012-02-11T15:22:24Z</time>
      </trkpt>
      <trkpt lat="47.2138" lon="0.06116">
        <ele>126</ele>
        <time>2012-02-11T15:22:28Z</time>
      </trkpt>
      <trkpt lat="47.21378" lon="0.06122">
        <ele>126</ele>
        <time>2012-02-11T15:22:32Z</time>
      </trkpt>
      <trkpt lat="47.21376" lon="0.06128">
        <ele>126</ele>
        <time>2012-02-11T15:22:36Z</time>
      </trkpt>
      <trkpt lat="47.21374" lon="0.06136">
        <ele>126</ele>
        <time>2012-02-11T15:22:41Z</time>
      </trkpt>
      <trkpt lat="47.21372" lon="0.06143">
        <ele>126</ele>
        <time>2012-02-11T15:22:46Z</time>
      </trkpt>
      <trkpt lat="47.2137" lon="0.0615">
        <ele>126</ele>
        <time>2012-02-11T15:22:51Z</time>
      </trkpt>
      <trkpt lat="47.21368" lon="0.06158">
        <ele>126</ele>
        <time>2012-02-11T15:22:56Z</time>
      </trkpt>
      <trkpt lat="47.21366" lon="0.06165">
        <ele>126</ele>
        <time>2012-02-11T15:23:01Z</time>
      </trkpt>
      <trkpt lat="47.21364" lon="0.06172">
        <ele>126</ele>
        <time>2012-02-11T15:23:06Z</time>
      </trkpt>
      <trkpt lat="47.21362" lon="0.06178">
        <ele>126</ele>
        <time>2012-02-11T15:23:10Z</time>
      </trkpt>
      <trkpt lat="47.2136" lon="0.06185">
        <ele>126</ele>
        <time>2012-02-11T15:23:14Z</time>
      </trkpt>
      <trkpt lat="47.21358" lon="0.06191">
        <ele>126</ele>
        <time>2012-02-11T15:23:18Z</time>
      </trkpt>
      <trkpt lat="47.21356" lon="0.06197">
        <ele>126</ele>
        <time>2012-02-11T15:23:22Z</time>
      </trkpt>
      <trkpt lat="47.21354" lon="0.06204">
        <ele>126</ele>
        <time>2012-02-11T15:23:27Z</time>
      </trkpt>
      <trkpt lat="47.21352" lon="0.06211">
        <ele>126</ele>
        <time>2012-02-11T15:23:31Z</time>
      </trkpt>
      <trkpt lat="47.2135" lon="0.06218">
        <ele>126</ele>
        <time>2012-02-11T15:23:36Z</time>
      </trkpt>
      <trkpt lat="47.21348" lon="0.06225">
        <ele>126</ele>
        <time>2012-02-11T15:23:41Z</time>
      </trkpt>
      <trkpt lat="47.21346" lon="0.06232">
        <ele>126</ele>
        <time>2012-02-11T15:23:46Z</time>
      </trkpt>
      <trkpt lat="47.21344" lon="0.0624">
        <ele>126</ele>
        <time>2012-02-11T15:23:51Z</time>
      </trkpt>
      <trkpt lat="47.21342" lon="0.06247">
        <ele>126</ele>
        <time>2012-02-11T15:23:56Z</time>
      </trkpt>
      <trkpt lat="47.21341" lon="0.06254">
        <ele>126</ele>
        <time>2012-02-11T15:24:01Z</time>
      </trkpt>
      <trkpt lat="47.21339" lon="0.06262">
        <ele>126</ele>
        <time>2012-02-11T15:24:06Z</time>
      </trkpt>
      <trkpt lat="47.21338" lon="0.06268">
        <ele>126</ele>
        <time>2012-02-11T15:24:10Z</time>
      </trkpt>
      <trkpt lat="47.21336" lon="0.06274">
        <ele>126</ele>
        <time>2012-02-11T15:24:14Z</time>
      </trkpt>
      <trkpt lat="47.21335" lon="0.06281">
        <ele>126</ele>
        <time>2012-02-11T15:24:18Z</time>
      </trkpt>
      <trkpt lat="47.21334" lon="0.06287">
        <ele>126</ele>
        <time>2012-02-11T15:24:22Z</time>
      </trkpt>
      <trkpt lat="47.21332" lon="0.06294">
        <ele>126</ele>
        <time>2012-02-11T15:24:27Z</time>
      </trkpt>
      <trkpt lat="47.21331" lon="0.06301">
        <ele>126</ele>
        <time>2012-02-11T15:24:32Z</time>
      </trkpt>
      <trkpt lat="47.2133" lon="0.06308">
        <ele>126</ele>
        <time>2012-02-11T15:24:37Z</time>
      </trkpt>
      <trkpt lat="47.21329" lon="0.06315">
        <ele>126</ele>
        <time>2012-02-11T15:24:42Z</time>
      </trkpt>
      <trkpt lat="47.21328" lon="0.06321">
        <ele>126</ele>
        <time>2012-02-11T15:24:47Z</time>
      </trkpt>
      <trkpt lat="47.21327" lon="0.06329">
        <ele>126</ele>
        <time>2012-02-11T15:24:53Z</time>
      </trkpt>
      <trkpt lat="47.21325" lon="0.06335">
        <ele>126</ele>
        <time>2012-02-11T15:24:58Z</time>
      </trkpt>
      <trkpt lat="47.21323" lon="0.06342">
        <ele>126</ele>
        <time>2012-02-11T15:25:03Z</time>
      </trkpt>
      <trkpt lat="47.21322" lon="0.06349">
        <ele>126</ele>
        <time>2012-02-11T15:25:08Z</time>
      </trkpt>
      <trkpt lat="47.21321" lon="0.06356">
        <ele>126</ele>
        <time>2012-02-11T15:25:13Z</time>
      </trkpt>
      <trkpt lat="47.21319" lon="0.06364">
        <ele>126</ele>
        <time>2012-02-11T15:25:18Z</time>
      </trkpt>
      <trkpt lat="47.21318" lon="0.06371">
        <ele>126</ele>
        <time>2012-02-11T15:25:23Z</time>
      </trkpt>
      <trkpt lat="47.21317" lon="0.06378">
        <ele>126</ele>
        <time>2012-02-11T15:25:28Z</time>
      </trkpt>
      <trkpt lat="47.21316" lon="0.06385">
        <ele>126</ele>
        <time>2012-02-11T15:25:33Z</time>
      </trkpt>
      <trkpt lat="47.21315" lon="0.06392">
        <ele>126</ele>
        <time>2012-02-11T15:25:38Z</time>
      </trkpt>
      <trkpt lat="47.21314" lon="0.06399">
        <ele>125</ele>
        <time>2012-02-11T15:25:43Z</time>
      </trkpt>
      <trkpt lat="47.21313" lon="0.06406">
        <ele>125</ele>
        <time>2012-02-11T15:25:48Z</time>
      </trkpt>
      <trkpt lat="47.21312" lon="0.06413">
        <ele>125</ele>
        <time>2012-02-11T15:25:52Z</time>
      </trkpt>
      <trkpt lat="47.21312" lon="0.0642">
        <ele>125</ele>
        <time>2012-02-11T15:25:56Z</time>
      </trkpt>
      <trkpt lat="47.21313" lon="0.06428">
        <ele>125</ele>
        <time>2012-02-11T15:26:01Z</time>
      </trkpt>
      <trkpt lat="47.21313" lon="0.06436">
        <ele>124</ele>
        <time>2012-02-11T15:26:06Z</time>
      </trkpt>
      <trkpt lat="47.21315" lon="0.06443">
        <ele>124</ele>
        <time>2012-02-11T15:26:11Z</time>
      </trkpt>
      <trkpt lat="47.21317" lon="0.0645">
        <ele>124</ele>
        <time>2012-02-11T15:26:16Z</time>
      </trkpt>
      <trkpt lat="47.2132" lon="0.06455">
        <ele>124</ele>
        <time>2012-02-11T15:26:20Z</time>
      </trkpt>
      <trkpt lat="47.21324" lon="0.06459">
        <ele>124</ele>
        <time>2012-02-11T15:26:24Z</time>
      </trkpt>
      <trkpt lat="47.21328" lon="0.06462">
        <ele>123</ele>
        <time>2012-02-11T15:26:29Z</time>
      </trkpt>
      <trkpt lat="47.21332" lon="0.06465">
        <ele>123</ele>
        <time>2012-02-11T15:26:34Z</time>
      </trkpt>
      <trkpt lat="47.21336" lon="0.0647">
        <ele>123</ele>
        <time>2012-02-11T15:26:49Z</time>
      </trkpt>
      <trkpt lat="47.21341" lon="0.06474">
        <ele>123</ele>
        <time>2012-02-11T15:26:54Z</time>
      </trkpt>
      <trkpt lat="47.21346" lon="0.06478">
        <ele>123</ele>
        <time>2012-02-11T15:26:59Z</time>
      </trkpt>
      <trkpt lat="47.21351" lon="0.0648">
        <ele>123</ele>
        <time>2012-02-11T15:27:04Z</time>
      </trkpt>
      <trkpt lat="47.21356" lon="0.0648">
        <ele>122</ele>
        <time>2012-02-11T15:27:08Z</time>
      </trkpt>
      <trkpt lat="47.2136" lon="0.0648">
        <ele>122</ele>
        <time>2012-02-11T15:27:12Z</time>
      </trkpt>
      <trkpt lat="47.21365" lon="0.0648">
        <ele>122</ele>
        <time>2012-02-11T15:27:16Z</time>
      </trkpt>
      <trkpt lat="47.2137" lon="0.06481">
        <ele>122</ele>
        <time>2012-02-11T15:27:20Z</time>
      </trkpt>
      <trkpt lat="47.21375" lon="0.06482">
        <ele>122</ele>
        <time>2012-02-11T15:27:25Z</time>
      </trkpt>
      <trkpt lat="47.2138" lon="0.06482">
        <ele>122</ele>
        <time>2012-02-11T15:27:39Z</time>
      </trkpt>
      <trkpt lat="47.21385" lon="0.06483">
        <ele>122</ele>
        <time>2012-02-11T15:27:44Z</time>
      </trkpt>
      <trkpt lat="47.21389" lon="0.06487">
        <ele>122</ele>
        <time>2012-02-11T15:27:50Z</time>
      </trkpt>
      <trkpt lat="47.21393" lon="0.0649">
        <ele>121</ele>
        <time>2012-02-11T15:28:15Z</time>
      </trkpt>
      <trkpt lat="47.21398" lon="0.0649">
        <ele>121</ele>
        <time>2012-02-11T15:28:28Z</time>
      </trkpt>
      <trkpt lat="47.21402" lon="0.06488">
        <ele>121</ele>
        <time>2012-02-11T15:28:39Z</time>
      </trkpt>
      <trkpt lat="47.21407" lon="0.06483">
        <ele>121</ele>
        <time>2012-02-11T15:28:46Z</time>
      </trkpt>
      <trkpt lat="47.21411" lon="0.06481">
        <ele>121</ele>
        <time>2012-02-11T15:28:50Z</time>
      </trkpt>
      <trkpt lat="47.21415" lon="0.06479">
        <ele>121</ele>
        <time>2012-02-11T15:28:54Z</time>
      </trkpt>
      <trkpt lat="47.2142" lon="0.06477">
        <ele>121</ele>
        <time>2012-02-11T15:28:58Z</time>
      </trkpt>
      <trkpt lat="47.21425" lon="0.06478">
        <ele>121</ele>
        <time>2012-02-11T15:29:16Z</time>
      </trkpt>
      <trkpt lat="47.2143" lon="0.06476">
        <ele>121</ele>
        <time>2012-02-11T15:29:22Z</time>
      </trkpt>
      <trkpt lat="47.21434" lon="0.06472">
        <ele>121</ele>
        <time>2012-02-11T15:29:26Z</time>
      </trkpt>
      <trkpt lat="47.21435" lon="0.06465">
        <ele>120</ele>
        <time>2012-02-11T15:29:37Z</time>
      </trkpt>
      <trkpt lat="47.21434" lon="0.06458">
        <ele>120</ele>
        <time>2012-02-11T15:29:43Z</time>
      </trkpt>
      <trkpt lat="47.21434" lon="0.0645">
        <ele>119</ele>
        <time>2012-02-11T15:29:50Z</time>
      </trkpt>
      <trkpt lat="47.21435" lon="0.06443">
        <ele>119</ele>
        <time>2012-02-11T15:29:55Z</time>
      </trkpt>
      <trkpt lat="47.21436" lon="0.06436">
        <ele>119</ele>
        <time>2012-02-11T15:29:59Z</time>
      </trkpt>
      <trkpt lat="47.21437" lon="0.06428">
        <ele>119</ele>
        <time>2012-02-11T15:30:04Z</time>
      </trkpt>
      <trkpt lat="47.21438" lon="0.0642">
        <ele>119</ele>
        <time>2012-02-11T15:30:09Z</time>
      </trkpt>
      <trkpt lat="47.21439" lon="0.06412">
        <ele>119</ele>
        <time>2012-02-11T15:30:14Z</time>
      </trkpt>
      <trkpt lat="47.2144" lon="0.06405">
        <ele>119</ele>
        <time>2012-02-11T15:30:19Z</time>
      </trkpt>
      <trkpt lat="47.2144" lon="0.06397">
        <ele>119</ele>
        <time>2012-02-11T15:30:24Z</time>
      </trkpt>
      <trkpt lat="47.21441" lon="0.06391">
        <ele>119</ele>
        <time>2012-02-11T15:30:28Z</time>
      </trkpt>
      <trkpt lat="47.21441" lon="0.06384">
        <ele>119</ele>
        <time>2012-02-11T15:30:32Z</time>
      </trkpt>
      <trkpt lat="47.21441" lon="0.06376">
        <ele>119</ele>
        <time>2012-02-11T15:30:36Z</time>
      </trkpt>
      <trkpt lat="47.21442" lon="0.06369">
        <ele>119</ele>
        <time>2012-02-11T15:30:40Z</time>
      </trkpt>
      <trkpt lat="47.21444" lon="0.06361">
        <ele>119</ele>
        <time>2012-02-11T15:30:45Z</time>
      </trkpt>
      <trkpt lat="47.21446" lon="0.06355">
        <ele>119</ele>
        <time>2012-02-11T15:30:50Z</time>
      </trkpt>
      <trkpt lat="47.21447" lon="0.06348">
        <ele>119</ele>
        <time>2012-02-11T15:31:11Z</time>
      </trkpt>
      <trkpt lat="47.21448" lon="0.0634">
        <ele>119</ele>
        <time>2012-02-11T15:31:18Z</time>
      </trkpt>
      <trkpt lat="47.21448" lon="0.06333">
        <ele>119</ele>
        <time>2012-02-11T15:31:27Z</time>
      </trkpt>
      <trkpt lat="47.21449" lon="0.06326">
        <ele>119</ele>
        <time>2012-02-11T15:31:32Z</time>
      </trkpt>
      <trkpt lat="47.2145" lon="0.0632">
        <ele>119</ele>
        <time>2012-02-11T15:31:37Z</time>
      </trkpt>
      <trkpt lat="47.21451" lon="0.06313">
        <ele>119</ele>
        <time>2012-02-11T15:31:41Z</time>
      </trkpt>
      <trkpt lat="47.21452" lon="0.06305">
        <ele>118</ele>
        <time>2012-02-11T15:31:46Z</time>
      </trkpt>
      <trkpt lat="47.21453" lon="0.06298">
        <ele>118</ele>
        <time>2012-02-11T15:31:51Z</time>
      </trkpt>
      <trkpt lat="47.21454" lon="0.06291">
        <ele>118</ele>
        <time>2012-02-11T15:31:55Z</time>
      </trkpt>
      <trkpt lat="47.21455" lon="0.06284">
        <ele>118</ele>
        <time>2012-02-11T15:31:59Z</time>
      </trkpt>
      <trkpt lat="47.21457" lon="0.06277">
        <ele>118</ele>
        <time>2012-02-11T15:32:03Z</time>
      </trkpt>
      <trkpt lat="47.2146" lon="0.06272">
        <ele>118</ele>
        <time>2012-02-11T15:32:13Z</time>
      </trkpt>
      <trkpt lat="47.21463" lon="0.06266">
        <ele>118</ele>
        <time>2012-02-11T15:32:18Z</time>
      </trkpt>
      <trkpt lat="47.21464" lon="0.06258">
        <ele>118</ele>
        <time>2012-02-11T15:32:23Z</time>
      </trkpt>
      <trkpt lat="47.21465" lon="0.06252">
        <ele>119</ele>
        <time>2012-02-11T15:32:27Z</time>
      </trkpt>
      <trkpt lat="47.21466" lon="0.06244">
        <ele>119</ele>
        <time>2012-02-11T15:32:32Z</time>
      </trkpt>
      <trkpt lat="47.21468" lon="0.06237">
        <ele>118</ele>
        <time>2012-02-11T15:32:37Z</time>
      </trkpt>
      <trkpt lat="47.21468" lon="0.06231">
        <ele>118</ele>
        <time>2012-02-11T15:32:41Z</time>
      </trkpt>
      <trkpt lat="47.2147" lon="0.06224">
        <ele>118</ele>
        <time>2012-02-11T15:32:45Z</time>
      </trkpt>
      <trkpt lat="47.21472" lon="0.06217">
        <ele>118</ele>
        <time>2012-02-11T15:32:50Z</time>
      </trkpt>
      <trkpt lat="47.21474" lon="0.06211">
        <ele>118</ele>
        <time>2012-02-11T15:32:55Z</time>
      </trkpt>
      <trkpt lat="47.21476" lon="0.06205">
        <ele>118</ele>
        <time>2012-02-11T15:33:00Z</time>
      </trkpt>
      <trkpt lat="47.21479" lon="0.06198">
        <ele>118</ele>
        <time>2012-02-11T15:33:05Z</time>
      </trkpt>
      <trkpt lat="47.21482" lon="0.06193">
        <ele>118</ele>
        <time>2012-02-11T15:33:09Z</time>
      </trkpt>
      <trkpt lat="47.21484" lon="0.06187">
        <ele>118</ele>
        <time>2012-02-11T15:33:13Z</time>
      </trkpt>
      <trkpt lat="47.21487" lon="0.0618">
        <ele>118</ele>
        <time>2012-02-11T15:33:18Z</time>
      </trkpt>
      <trkpt lat="47.2149" lon="0.06173">
        <ele>118</ele>
        <time>2012-02-11T15:33:23Z</time>
      </trkpt>
      <trkpt lat="47.21493" lon="0.06166">
        <ele>118</ele>
        <time>2012-02-11T15:33:28Z</time>
      </trkpt>
      <trkpt lat="47.21496" lon="0.0616">
        <ele>118</ele>
        <time>2012-02-11T15:33:33Z</time>
      </trkpt>
      <trkpt lat="47.21499" lon="0.06154">
        <ele>118</ele>
        <time>2012-02-11T15:33:38Z</time>
      </trkpt>
      <trkpt lat="47.21502" lon="0.06147">
        <ele>118</ele>
        <time>2012-02-11T15:33:43Z</time>
      </trkpt>
      <trkpt lat="47.21504" lon="0.0614">
        <ele>118</ele>
        <time>2012-02-11T15:33:48Z</time>
      </trkpt>
      <trkpt lat="47.21506" lon="0.06134">
        <ele>118</ele>
        <time>2012-02-11T15:33:53Z</time>
      </trkpt>
      <trkpt lat="47.21508" lon="0.06127">
        <ele>118</ele>
        <time>2012-02-11T15:33:58Z</time>
      </trkpt>
      <trkpt lat="47.21508" lon="0.06119">
        <ele>118</ele>
        <time>2012-02-11T15:34:03Z</time>
      </trkpt>
      <trkpt lat="47.21508" lon="0.06112">
        <ele>118</ele>
        <time>2012-02-11T15:34:07Z</time>
      </trkpt>
      <trkpt lat="47.21509" lon="0.06104">
        <ele>118</ele>
        <time>2012-02-11T15:34:11Z</time>
      </trkpt>
      <trkpt lat="47.21509" lon="0.06097">
        <ele>118</ele>
        <time>2012-02-11T15:34:15Z</time>
      </trkpt>
      <trkpt lat="47.2151" lon="0.06089">
        <ele>118</ele>
        <time>2012-02-11T15:34:20Z</time>
      </trkpt>
      <trkpt lat="47.2151" lon="0.06082">
        <ele>118</ele>
        <time>2012-02-11T15:34:24Z</time>
      </trkpt>
      <trkpt lat="47.2151" lon="0.06075">
        <ele>118</ele>
        <time>2012-02-11T15:34:28Z</time>
      </trkpt>
      <trkpt lat="47.21511" lon="0.06068">
        <ele>118</ele>
        <time>2012-02-11T15:34:33Z</time>
      </trkpt>
      <trkpt lat="47.21511" lon="0.0606">
        <ele>119</ele>
        <time>2012-02-11T15:34:38Z</time>
      </trkpt>
      <trkpt lat="47.21512" lon="0.06053">
        <ele>119</ele>
        <time>2012-02-11T15:34:43Z</time>
      </trkpt>
      <trkpt lat="47.21512" lon="0.06045">
        <ele>119</ele>
        <time>2012-02-11T15:34:48Z</time>
      </trkpt>
      <trkpt lat="47.21514" lon="0.06039">
        <ele>119</ele>
        <time>2012-02-11T15:34:52Z</time>
      </trkpt>
      <trkpt lat="47.21516" lon="0.06033">
        <ele>119</ele>
        <time>2012-02-11T15:34:56Z</time>
      </trkpt>
      <trkpt lat="47.21518" lon="0.06026">
        <ele>119</ele>
        <time>2012-02-11T15:35:01Z</time>
      </trkpt>
      <trkpt lat="47.21521" lon="0.06019">
        <ele>119</ele>
        <time>2012-02-11T15:35:06Z</time>
      </trkpt>
      <trkpt lat="47.21523" lon="0.06012">
        <ele>119</ele>
        <time>2012-02-11T15:35:11Z</time>
      </trkpt>
      <trkpt lat="47.21525" lon="0.06005">
        <ele>119</ele>
        <time>2012-02-11T15:35:16Z</time>
      </trkpt>
      <trkpt lat="47.21528" lon="0.05999">
        <ele>119</ele>
        <time>2012-02-11T15:35:21Z</time>
      </trkpt>
      <trkpt lat="47.21531" lon="0.05994">
        <ele>119</ele>
        <time>2012-02-11T15:35:25Z</time>
      </trkpt>
      <trkpt lat="47.21534" lon="0.05987">
        <ele>118</ele>
        <time>2012-02-11T15:35:30Z</time>
      </trkpt>
      <trkpt lat="47.21539" lon="0.05987">
        <ele>118</ele>
        <time>2012-02-11T15:35:54Z</time>
      </trkpt>
      <trkpt lat="47.21542" lon="0.05981">
        <ele>118</ele>
        <time>2012-02-11T15:36:52Z</time>
      </trkpt>
      <trkpt lat="47.21544" lon="0.05975">
        <ele>118</ele>
        <time>2012-02-11T15:36:55Z</time>
      </trkpt>
      <trkpt lat="47.21548" lon="0.05967">
        <ele>118</ele>
        <time>2012-02-11T15:36:58Z</time>
      </trkpt>
      <trkpt lat="47.21551" lon="0.0596">
        <ele>118</ele>
        <time>2012-02-11T15:37:01Z</time>
      </trkpt>
      <trkpt lat="47.21552" lon="0.05953">
        <ele>118</ele>
        <time>2012-02-11T15:37:04Z</time>
      </trkpt>
      <trkpt lat="47.2155" lon="0.05946">
        <ele>117</ele>
        <time>2012-02-11T15:37:12Z</time>
      </trkpt>
      <trkpt lat="47.21549" lon="0.05939">
        <ele>117</ele>
        <time>2012-02-11T15:37:18Z</time>
      </trkpt>
      <trkpt lat="47.21548" lon="0.05931">
        <ele>117</ele>
        <time>2012-02-11T15:37:22Z</time>
      </trkpt>
      <trkpt lat="47.21547" lon="0.05924">
        <ele>117</ele>
        <time>2012-02-11T15:37:27Z</time>
      </trkpt>
      <trkpt lat="47.21548" lon="0.05918">
        <ele>117</ele>
        <time>2012-02-11T15:37:37Z</time>
      </trkpt>
      <trkpt lat="47.2155" lon="0.0591">
        <ele>117</ele>
        <time>2012-02-11T15:37:44Z</time>
      </trkpt>
      <trkpt lat="47.21552" lon="0.05903">
        <ele>117</ele>
        <time>2012-02-11T15:37:48Z</time>
      </trkpt>
      <trkpt lat="47.21554" lon="0.05896">
        <ele>117</ele>
        <time>2012-02-11T15:37:55Z</time>
      </trkpt>
      <trkpt lat="47.21557" lon="0.0589">
        <ele>117</ele>
        <time>2012-02-11T15:37:59Z</time>
      </trkpt>
      <trkpt lat="47.21561" lon="0.05884">
        <ele>117</ele>
        <time>2012-02-11T15:38:04Z</time>
      </trkpt>
      <trkpt lat="47.21565" lon="0.05881">
        <ele>117</ele>
        <time>2012-02-11T15:38:09Z</time>
      </trkpt>
      <trkpt lat="47.2157" lon="0.05881">
        <ele>116</ele>
        <time>2012-02-11T15:38:14Z</time>
      </trkpt>
      <trkpt lat="47.21574" lon="0.05882">
        <ele>116</ele>
        <time>2012-02-11T15:38:19Z</time>
      </trkpt>
      <trkpt lat="47.21579" lon="0.05884">
        <ele>116</ele>
        <time>2012-02-11T15:38:24Z</time>
      </trkpt>
      <trkpt lat="47.21584" lon="0.05885">
        <ele>116</ele>
        <time>2012-02-11T15:38:30Z</time>
      </trkpt>
      <trkpt lat="47.21589" lon="0.05886">
        <ele>116</ele>
        <time>2012-02-11T15:38:35Z</time>
      </trkpt>
      <trkpt lat="47.21593" lon="0.05883">
        <ele>116</ele>
        <time>2012-02-11T15:38:42Z</time>
      </trkpt>
      <trkpt lat="47.21595" lon="0.05877">
        <ele>116</ele>
        <time>2012-02-11T15:38:47Z</time>
      </trkpt>
      <trkpt lat="47.21598" lon="0.0587">
        <ele>115</ele>
        <time>2012-02-11T15:38:52Z</time>
      </trkpt>
      <trkpt lat="47.216" lon="0.05865">
        <ele>115</ele>
        <time>2012-02-11T15:38:57Z</time>
      </trkpt>
      <trkpt lat="47.21603" lon="0.05859">
        <ele>115</ele>
        <time>2012-02-11T15:39:02Z</time>
      </trkpt>
      <trkpt lat="47.21606" lon="0.05854">
        <ele>115</ele>
        <time>2012-02-11T15:39:07Z</time>
      </trkpt>
      <trkpt lat="47.21609" lon="0.05849">
        <ele>115</ele>
        <time>2012-02-11T15:39:12Z</time>
      </trkpt>
      <trkpt lat="47.21612" lon="0.05843">
        <ele>114</ele>
        <time>2012-02-11T15:39:17Z</time>
      </trkpt>
      <trkpt lat="47.21617" lon="0.05839">
        <ele>114</ele>
        <time>2012-02-11T15:39:23Z</time>
      </trkpt>
      <trkpt lat="47.21616" lon="0.05831">
        <ele>114</ele>
        <time>2012-02-11T15:39:30Z</time>
      </trkpt>
      <trkpt lat="47.21614" lon="0.05824">
        <ele>114</ele>
        <time>2012-02-11T15:39:34Z</time>
      </trkpt>
      <trkpt lat="47.21613" lon="0.05817">
        <ele>114</ele>
        <time>2012-02-11T15:39:38Z</time>
      </trkpt>
      <trkpt lat="47.21612" lon="0.05808">
        <ele>113</ele>
        <time>2012-02-11T15:39:42Z</time>
      </trkpt>
      <trkpt lat="47.21613" lon="0.05801">
        <ele>113</ele>
        <time>2012-02-11T15:39:46Z</time>
      </trkpt>
      <trkpt lat="47.21614" lon="0.05794">
        <ele>113</ele>
        <time>2012-02-11T15:39:51Z</time>
      </trkpt>
      <trkpt lat="47.21616" lon="0.05787">
        <ele>112</ele>
        <time>2012-02-11T15:39:56Z</time>
      </trkpt>
      <trkpt lat="47.21617" lon="0.0578">
        <ele>112</ele>
        <time>2012-02-11T15:40:01Z</time>
      </trkpt>
      <trkpt lat="47.21617" lon="0.05773">
        <ele>112</ele>
        <time>2012-02-11T15:40:08Z</time>
      </trkpt>
      <trkpt lat="47.21617" lon="0.05765">
        <ele>112</ele>
        <time>2012-02-11T15:40:14Z</time>
      </trkpt>
      <trkpt lat="47.21617" lon="0.05757">
        <ele>112</ele>
        <time>2012-02-11T15:40:18Z</time>
      </trkpt>
      <trkpt lat="47.21617" lon="0.05748">
        <ele>111</ele>
        <time>2012-02-11T15:40:22Z</time>
      </trkpt>
      <trkpt lat="47.21616" lon="0.0574">
        <ele>111</ele>
        <time>2012-02-11T15:40:26Z</time>
      </trkpt>
      <trkpt lat="47.21616" lon="0.05732">
        <ele>111</ele>
        <time>2012-02-11T15:40:30Z</time>
      </trkpt>
      <trkpt lat="47.21615" lon="0.05725">
        <ele>111</ele>
        <time>2012-02-11T15:40:34Z</time>
      </trkpt>
      <trkpt lat="47.21614" lon="0.05717">
        <ele>111</ele>
        <time>2012-02-11T15:40:39Z</time>
      </trkpt>
      <trkpt lat="47.21614" lon="0.05709">
        <ele>111</ele>
        <time>2012-02-11T15:40:44Z</time>
      </trkpt>
      <trkpt lat="47.21613" lon="0.05701">
        <ele>111</ele>
        <time>2012-02-11T15:40:49Z</time>
      </trkpt>
      <trkpt lat="47.21612" lon="0.05693">
        <ele>111</ele>
        <time>2012-02-11T15:40:54Z</time>
      </trkpt>
      <trkpt lat="47.21612" lon="0.05685">
        <ele>111</ele>
        <time>2012-02-11T15:40:59Z</time>
      </trkpt>
      <trkpt lat="47.21612" lon="0.05677">
        <ele>111</ele>
        <time>2012-02-11T15:41:04Z</time>
      </trkpt>
      <trkpt lat="47.21612" lon="0.0567">
        <ele>111</ele>
        <time>2012-02-11T15:41:09Z</time>
      </trkpt>
      <trkpt lat="47.21614" lon="0.05663">
        <ele>111</ele>
        <time>2012-02-11T15:41:14Z</time>
      </trkpt>
      <trkpt lat="47.21617" lon="0.05658">
        <ele>111</ele>
        <time>2012-02-11T15:41:18Z</time>
      </trkpt>
      <trkpt lat="47.21622" lon="0.05654">
        <ele>111</ele>
        <time>2012-02-11T15:41:23Z</time>
      </trkpt>
      <trkpt lat="47.21626" lon="0.05654">
        <ele>110</ele>
        <time>2012-02-11T15:41:27Z</time>
      </trkpt>
      <trkpt lat="47.21632" lon="0.05656">
        <ele>110</ele>
        <time>2012-02-11T15:41:33Z</time>
      </trkpt>
      <trkpt lat="47.21636" lon="0.05652">
        <ele>110</ele>
        <time>2012-02-11T15:41:40Z</time>
      </trkpt>
      <trkpt lat="47.2164" lon="0.05649">
        <ele>110</ele>
        <time>2012-02-11T15:41:46Z</time>
      </trkpt>
      <trkpt lat="47.21644" lon="0.05647">
        <ele>110</ele>
        <time>2012-02-11T15:41:51Z</time>
      </trkpt>
      <trkpt lat="47.21649" lon="0.05651">
        <ele>109</ele>
        <time>2012-02-11T15:41:55Z</time>
      </trkpt>
      <trkpt lat="47.21653" lon="0.05656">
        <ele>109</ele>
        <time>2012-02-11T15:41:58Z</time>
      </trkpt>
    </trkseg>
  </trk>
</gpx>